<?xml version="1.0" encoding="UTF-8" standalone="no" ?>
<gpx xmlns="http://www.topografix.com/GPX/1/1" xmlns:xsi="http://www.w3.org/2001/XMLSchema-instance" xsi:schemaLocation="http://www.topografix.com/GPX/1/1 http://www.topografix.com/GPX/1/1/gpx.xsd" version="1.1" creator="VisuGPX - https://www.visugpx.com">
  <metadata>
    <name>9540068-2019 j1 randonneur</name>
  </metadata>
  <trk>
    <name><![CDATA[9540068-2019 j1 randonneur]]></name>
    <trkseg>
      <trkpt lat="46.07838" lon="6.72603">
        <ele>704</ele>
        <time>2019-05-24T06:32:45Z</time>
      </trkpt>
      <trkpt lat="46.07863" lon="6.72539">
        <ele>703</ele>
        <time>2019-05-24T06:32:54Z</time>
      </trkpt>
      <trkpt lat="46.07809" lon="6.72494">
        <ele>702</ele>
        <time>2019-05-24T06:33:05Z</time>
      </trkpt>
      <trkpt lat="46.07797" lon="6.72476">
        <ele>701</ele>
        <time>2019-05-24T06:33:08Z</time>
      </trkpt>
      <trkpt lat="46.07791" lon="6.7246">
        <ele>701</ele>
        <time>2019-05-24T06:33:10Z</time>
      </trkpt>
      <trkpt lat="46.07665" lon="6.72013">
        <ele>700</ele>
        <time>2019-05-24T06:34:10Z</time>
      </trkpt>
      <trkpt lat="46.07663" lon="6.71998">
        <ele>700</ele>
        <time>2019-05-24T06:34:12Z</time>
      </trkpt>
      <trkpt lat="46.07664" lon="6.71979">
        <ele>700</ele>
        <time>2019-05-24T06:34:14Z</time>
      </trkpt>
      <trkpt lat="46.07682" lon="6.71945">
        <ele>698</ele>
        <time>2019-05-24T06:34:20Z</time>
      </trkpt>
      <trkpt lat="46.07688" lon="6.71938">
        <ele>698</ele>
        <time>2019-05-24T06:34:21Z</time>
      </trkpt>
      <trkpt lat="46.07693" lon="6.71936">
        <ele>697</ele>
        <time>2019-05-24T06:34:22Z</time>
      </trkpt>
      <trkpt lat="46.07698" lon="6.7193">
        <ele>697</ele>
        <time>2019-05-24T06:34:23Z</time>
      </trkpt>
      <trkpt lat="46.07699" lon="6.71923">
        <ele>697</ele>
        <time>2019-05-24T06:34:24Z</time>
      </trkpt>
      <trkpt lat="46.07698" lon="6.71916">
        <ele>697</ele>
        <time>2019-05-24T06:34:25Z</time>
      </trkpt>
      <trkpt lat="46.07691" lon="6.71907">
        <ele>697</ele>
        <time>2019-05-24T06:34:26Z</time>
      </trkpt>
      <trkpt lat="46.07685" lon="6.71908">
        <ele>697</ele>
        <time>2019-05-24T06:34:28Z</time>
      </trkpt>
      <trkpt lat="46.07672" lon="6.71902">
        <ele>698</ele>
        <time>2019-05-24T06:34:30Z</time>
      </trkpt>
      <trkpt lat="46.07644" lon="6.71882">
        <ele>707</ele>
        <time>2019-05-24T06:34:36Z</time>
      </trkpt>
      <trkpt lat="46.07601" lon="6.71841">
        <ele>725</ele>
        <time>2019-05-24T06:34:45Z</time>
      </trkpt>
      <trkpt lat="46.07598" lon="6.71835">
        <ele>727</ele>
        <time>2019-05-24T06:34:46Z</time>
      </trkpt>
      <trkpt lat="46.07594" lon="6.7182">
        <ele>730</ele>
        <time>2019-05-24T06:34:48Z</time>
      </trkpt>
      <trkpt lat="46.07596" lon="6.71789">
        <ele>734</ele>
        <time>2019-05-24T06:34:51Z</time>
      </trkpt>
      <trkpt lat="46.07649" lon="6.71453">
        <ele>718</ele>
        <time>2019-05-24T06:35:34Z</time>
      </trkpt>
      <trkpt lat="46.0772" lon="6.70983">
        <ele>719</ele>
        <time>2019-05-24T06:36:33Z</time>
      </trkpt>
      <trkpt lat="46.07741" lon="6.70858">
        <ele>708</ele>
        <time>2019-05-24T06:36:49Z</time>
      </trkpt>
      <trkpt lat="46.07982" lon="6.69814">
        <ele>687</ele>
        <time>2019-05-24T06:39:05Z</time>
      </trkpt>
      <trkpt lat="46.0805" lon="6.6954">
        <ele>685</ele>
        <time>2019-05-24T06:39:41Z</time>
      </trkpt>
      <trkpt lat="46.08109" lon="6.69288">
        <ele>695</ele>
        <time>2019-05-24T06:40:14Z</time>
      </trkpt>
      <trkpt lat="46.0814" lon="6.69168">
        <ele>701</ele>
        <time>2019-05-24T06:40:30Z</time>
      </trkpt>
      <trkpt lat="46.08148" lon="6.69132">
        <ele>702</ele>
        <time>2019-05-24T06:40:34Z</time>
      </trkpt>
      <trkpt lat="46.08165" lon="6.69035">
        <ele>704</ele>
        <time>2019-05-24T06:40:47Z</time>
      </trkpt>
      <trkpt lat="46.08172" lon="6.68979">
        <ele>703</ele>
        <time>2019-05-24T06:40:54Z</time>
      </trkpt>
      <trkpt lat="46.08179" lon="6.68846">
        <ele>694</ele>
        <time>2019-05-24T06:41:10Z</time>
      </trkpt>
      <trkpt lat="46.08177" lon="6.68803">
        <ele>693</ele>
        <time>2019-05-24T06:41:15Z</time>
      </trkpt>
      <trkpt lat="46.08163" lon="6.68693">
        <ele>694</ele>
        <time>2019-05-24T06:41:29Z</time>
      </trkpt>
      <trkpt lat="46.08136" lon="6.68498">
        <ele>694</ele>
        <time>2019-05-24T06:41:54Z</time>
      </trkpt>
      <trkpt lat="46.08134" lon="6.68476">
        <ele>694</ele>
        <time>2019-05-24T06:41:56Z</time>
      </trkpt>
      <trkpt lat="46.0814" lon="6.68395">
        <ele>692</ele>
        <time>2019-05-24T06:42:06Z</time>
      </trkpt>
      <trkpt lat="46.08144" lon="6.68372">
        <ele>692</ele>
        <time>2019-05-24T06:42:09Z</time>
      </trkpt>
      <trkpt lat="46.08151" lon="6.68344">
        <ele>691</ele>
        <time>2019-05-24T06:42:13Z</time>
      </trkpt>
      <trkpt lat="46.08163" lon="6.68227">
        <ele>687</ele>
        <time>2019-05-24T06:42:28Z</time>
      </trkpt>
      <trkpt lat="46.08165" lon="6.68185">
        <ele>687</ele>
        <time>2019-05-24T06:42:33Z</time>
      </trkpt>
      <trkpt lat="46.08168" lon="6.68152">
        <ele>687</ele>
        <time>2019-05-24T06:42:37Z</time>
      </trkpt>
      <trkpt lat="46.08191" lon="6.68062">
        <ele>686</ele>
        <time>2019-05-24T06:42:49Z</time>
      </trkpt>
      <trkpt lat="46.08212" lon="6.68008">
        <ele>684</ele>
        <time>2019-05-24T06:42:56Z</time>
      </trkpt>
      <trkpt lat="46.08255" lon="6.67857">
        <ele>685</ele>
        <time>2019-05-24T06:43:17Z</time>
      </trkpt>
      <trkpt lat="46.08297" lon="6.67776">
        <ele>686</ele>
        <time>2019-05-24T06:43:29Z</time>
      </trkpt>
      <trkpt lat="46.08308" lon="6.67751">
        <ele>686</ele>
        <time>2019-05-24T06:43:33Z</time>
      </trkpt>
      <trkpt lat="46.08328" lon="6.6772">
        <ele>686</ele>
        <time>2019-05-24T06:43:38Z</time>
      </trkpt>
      <trkpt lat="46.08351" lon="6.67643">
        <ele>687</ele>
        <time>2019-05-24T06:43:48Z</time>
      </trkpt>
      <trkpt lat="46.08383" lon="6.6757">
        <ele>687</ele>
        <time>2019-05-24T06:43:59Z</time>
      </trkpt>
      <trkpt lat="46.08397" lon="6.67534">
        <ele>687</ele>
        <time>2019-05-24T06:44:04Z</time>
      </trkpt>
      <trkpt lat="46.08407" lon="6.67501">
        <ele>686</ele>
        <time>2019-05-24T06:44:09Z</time>
      </trkpt>
      <trkpt lat="46.08425" lon="6.67434">
        <ele>681</ele>
        <time>2019-05-24T06:44:17Z</time>
      </trkpt>
      <trkpt lat="46.0843" lon="6.67372">
        <ele>678</ele>
        <time>2019-05-24T06:44:25Z</time>
      </trkpt>
      <trkpt lat="46.08435" lon="6.67353">
        <ele>678</ele>
        <time>2019-05-24T06:44:28Z</time>
      </trkpt>
      <trkpt lat="46.08455" lon="6.67311">
        <ele>676</ele>
        <time>2019-05-24T06:44:34Z</time>
      </trkpt>
      <trkpt lat="46.08463" lon="6.67284">
        <ele>676</ele>
        <time>2019-05-24T06:44:38Z</time>
      </trkpt>
      <trkpt lat="46.08474" lon="6.67243">
        <ele>675</ele>
        <time>2019-05-24T06:44:43Z</time>
      </trkpt>
      <trkpt lat="46.08481" lon="6.672">
        <ele>675</ele>
        <time>2019-05-24T06:44:48Z</time>
      </trkpt>
      <trkpt lat="46.08487" lon="6.67179">
        <ele>674</ele>
        <time>2019-05-24T06:44:51Z</time>
      </trkpt>
      <trkpt lat="46.08493" lon="6.67165">
        <ele>672</ele>
        <time>2019-05-24T06:44:53Z</time>
      </trkpt>
      <trkpt lat="46.08538" lon="6.67092">
        <ele>672</ele>
        <time>2019-05-24T06:45:05Z</time>
      </trkpt>
      <trkpt lat="46.08548" lon="6.67065">
        <ele>671</ele>
        <time>2019-05-24T06:45:09Z</time>
      </trkpt>
      <trkpt lat="46.08567" lon="6.67023">
        <ele>670</ele>
        <time>2019-05-24T06:45:15Z</time>
      </trkpt>
      <trkpt lat="46.08642" lon="6.66889">
        <ele>669</ele>
        <time>2019-05-24T06:45:36Z</time>
      </trkpt>
      <trkpt lat="46.08662" lon="6.66833">
        <ele>667</ele>
        <time>2019-05-24T06:45:44Z</time>
      </trkpt>
      <trkpt lat="46.08665" lon="6.66834">
        <ele>666</ele>
        <time>2019-05-24T06:45:45Z</time>
      </trkpt>
      <trkpt lat="46.08672" lon="6.66828">
        <ele>666</ele>
        <time>2019-05-24T06:45:46Z</time>
      </trkpt>
      <trkpt lat="46.08674" lon="6.66821">
        <ele>667</ele>
        <time>2019-05-24T06:45:47Z</time>
      </trkpt>
      <trkpt lat="46.08671" lon="6.6681">
        <ele>667</ele>
        <time>2019-05-24T06:45:49Z</time>
      </trkpt>
      <trkpt lat="46.08668" lon="6.66808">
        <ele>667</ele>
        <time>2019-05-24T06:45:49Z</time>
      </trkpt>
      <trkpt lat="46.08712" lon="6.66623">
        <ele>672</ele>
        <time>2019-05-24T06:46:13Z</time>
      </trkpt>
      <trkpt lat="46.08743" lon="6.66508">
        <ele>664</ele>
        <time>2019-05-24T06:46:29Z</time>
      </trkpt>
      <trkpt lat="46.08942" lon="6.66034">
        <ele>655</ele>
        <time>2019-05-24T06:47:37Z</time>
      </trkpt>
      <trkpt lat="46.0898" lon="6.65941">
        <ele>655</ele>
        <time>2019-05-24T06:47:50Z</time>
      </trkpt>
      <trkpt lat="46.09035" lon="6.65707">
        <ele>655</ele>
        <time>2019-05-24T06:48:21Z</time>
      </trkpt>
      <trkpt lat="46.0905" lon="6.65668">
        <ele>654</ele>
        <time>2019-05-24T06:48:26Z</time>
      </trkpt>
      <trkpt lat="46.09098" lon="6.6557">
        <ele>652</ele>
        <time>2019-05-24T06:48:41Z</time>
      </trkpt>
      <trkpt lat="46.09106" lon="6.6555">
        <ele>652</ele>
        <time>2019-05-24T06:48:44Z</time>
      </trkpt>
      <trkpt lat="46.09114" lon="6.65521">
        <ele>651</ele>
        <time>2019-05-24T06:48:48Z</time>
      </trkpt>
      <trkpt lat="46.09231" lon="6.64951">
        <ele>652</ele>
        <time>2019-05-24T06:50:01Z</time>
      </trkpt>
      <trkpt lat="46.09272" lon="6.64767">
        <ele>648</ele>
        <time>2019-05-24T06:50:25Z</time>
      </trkpt>
      <trkpt lat="46.09282" lon="6.64717">
        <ele>647</ele>
        <time>2019-05-24T06:50:31Z</time>
      </trkpt>
      <trkpt lat="46.09301" lon="6.64645">
        <ele>647</ele>
        <time>2019-05-24T06:50:41Z</time>
      </trkpt>
      <trkpt lat="46.09305" lon="6.64626">
        <ele>647</ele>
        <time>2019-05-24T06:50:43Z</time>
      </trkpt>
      <trkpt lat="46.09309" lon="6.64579">
        <ele>648</ele>
        <time>2019-05-24T06:50:49Z</time>
      </trkpt>
      <trkpt lat="46.09324" lon="6.64057">
        <ele>644</ele>
        <time>2019-05-24T06:51:54Z</time>
      </trkpt>
      <trkpt lat="46.09319" lon="6.63925">
        <ele>649</ele>
        <time>2019-05-24T06:52:10Z</time>
      </trkpt>
      <trkpt lat="46.09321" lon="6.63883">
        <ele>649</ele>
        <time>2019-05-24T06:52:15Z</time>
      </trkpt>
      <trkpt lat="46.09331" lon="6.6383">
        <ele>647</ele>
        <time>2019-05-24T06:52:22Z</time>
      </trkpt>
      <trkpt lat="46.09369" lon="6.63696">
        <ele>653</ele>
        <time>2019-05-24T06:52:40Z</time>
      </trkpt>
      <trkpt lat="46.09383" lon="6.63631">
        <ele>653</ele>
        <time>2019-05-24T06:52:48Z</time>
      </trkpt>
      <trkpt lat="46.09408" lon="6.63446">
        <ele>648</ele>
        <time>2019-05-24T06:53:11Z</time>
      </trkpt>
      <trkpt lat="46.09429" lon="6.63372">
        <ele>646</ele>
        <time>2019-05-24T06:53:21Z</time>
      </trkpt>
      <trkpt lat="46.09482" lon="6.63242">
        <ele>644</ele>
        <time>2019-05-24T06:53:40Z</time>
      </trkpt>
      <trkpt lat="46.09506" lon="6.63165">
        <ele>641</ele>
        <time>2019-05-24T06:53:50Z</time>
      </trkpt>
      <trkpt lat="46.09514" lon="6.63128">
        <ele>640</ele>
        <time>2019-05-24T06:53:55Z</time>
      </trkpt>
      <trkpt lat="46.09519" lon="6.63091">
        <ele>639</ele>
        <time>2019-05-24T06:54:00Z</time>
      </trkpt>
      <trkpt lat="46.0953" lon="6.62996">
        <ele>640</ele>
        <time>2019-05-24T06:54:12Z</time>
      </trkpt>
      <trkpt lat="46.09565" lon="6.62704">
        <ele>641</ele>
        <time>2019-05-24T06:54:48Z</time>
      </trkpt>
      <trkpt lat="46.09566" lon="6.62633">
        <ele>639</ele>
        <time>2019-05-24T06:54:57Z</time>
      </trkpt>
      <trkpt lat="46.09562" lon="6.6219">
        <ele>645</ele>
        <time>2019-05-24T06:55:52Z</time>
      </trkpt>
      <trkpt lat="46.09569" lon="6.62105">
        <ele>643</ele>
        <time>2019-05-24T06:56:02Z</time>
      </trkpt>
      <trkpt lat="46.09588" lon="6.61973">
        <ele>643</ele>
        <time>2019-05-24T06:56:19Z</time>
      </trkpt>
      <trkpt lat="46.09593" lon="6.61927">
        <ele>643</ele>
        <time>2019-05-24T06:56:25Z</time>
      </trkpt>
      <trkpt lat="46.09598" lon="6.61847">
        <ele>645</ele>
        <time>2019-05-24T06:56:35Z</time>
      </trkpt>
      <trkpt lat="46.09577" lon="6.61764">
        <ele>651</ele>
        <time>2019-05-24T06:56:45Z</time>
      </trkpt>
      <trkpt lat="46.09577" lon="6.61706">
        <ele>657</ele>
        <time>2019-05-24T06:56:53Z</time>
      </trkpt>
      <trkpt lat="46.09629" lon="6.61556">
        <ele>653</ele>
        <time>2019-05-24T06:57:13Z</time>
      </trkpt>
      <trkpt lat="46.0967" lon="6.61383">
        <ele>654</ele>
        <time>2019-05-24T06:57:36Z</time>
      </trkpt>
      <trkpt lat="46.09678" lon="6.61308">
        <ele>656</ele>
        <time>2019-05-24T06:57:45Z</time>
      </trkpt>
      <trkpt lat="46.09665" lon="6.61213">
        <ele>658</ele>
        <time>2019-05-24T06:57:57Z</time>
      </trkpt>
      <trkpt lat="46.09592" lon="6.6107">
        <ele>666</ele>
        <time>2019-05-24T06:58:19Z</time>
      </trkpt>
      <trkpt lat="46.0957" lon="6.61006">
        <ele>667</ele>
        <time>2019-05-24T06:58:28Z</time>
      </trkpt>
      <trkpt lat="46.09563" lon="6.60963">
        <ele>667</ele>
        <time>2019-05-24T06:58:33Z</time>
      </trkpt>
      <trkpt lat="46.09556" lon="6.60833">
        <ele>669</ele>
        <time>2019-05-24T06:58:49Z</time>
      </trkpt>
      <trkpt lat="46.09557" lon="6.60782">
        <ele>670</ele>
        <time>2019-05-24T06:58:56Z</time>
      </trkpt>
      <trkpt lat="46.09601" lon="6.60691">
        <ele>664</ele>
        <time>2019-05-24T06:59:09Z</time>
      </trkpt>
      <trkpt lat="46.09612" lon="6.60649">
        <ele>663</ele>
        <time>2019-05-24T06:59:15Z</time>
      </trkpt>
      <trkpt lat="46.0962" lon="6.60595">
        <ele>662</ele>
        <time>2019-05-24T06:59:22Z</time>
      </trkpt>
      <trkpt lat="46.09618" lon="6.60559">
        <ele>663</ele>
        <time>2019-05-24T06:59:26Z</time>
      </trkpt>
      <trkpt lat="46.09603" lon="6.60505">
        <ele>667</ele>
        <time>2019-05-24T06:59:33Z</time>
      </trkpt>
      <trkpt lat="46.09604" lon="6.60467">
        <ele>668</ele>
        <time>2019-05-24T06:59:38Z</time>
      </trkpt>
      <trkpt lat="46.09622" lon="6.60368">
        <ele>668</ele>
        <time>2019-05-24T06:59:51Z</time>
      </trkpt>
      <trkpt lat="46.09616" lon="6.6025">
        <ele>668</ele>
        <time>2019-05-24T07:00:05Z</time>
      </trkpt>
      <trkpt lat="46.09627" lon="6.6008">
        <ele>671</ele>
        <time>2019-05-24T07:00:26Z</time>
      </trkpt>
      <trkpt lat="46.09625" lon="6.60029">
        <ele>671</ele>
        <time>2019-05-24T07:00:33Z</time>
      </trkpt>
      <trkpt lat="46.09613" lon="6.59912">
        <ele>675</ele>
        <time>2019-05-24T07:00:47Z</time>
      </trkpt>
      <trkpt lat="46.09613" lon="6.59897">
        <ele>674</ele>
        <time>2019-05-24T07:00:49Z</time>
      </trkpt>
      <trkpt lat="46.09601" lon="6.59898">
        <ele>678</ele>
        <time>2019-05-24T07:00:51Z</time>
      </trkpt>
      <trkpt lat="46.09597" lon="6.59895">
        <ele>680</ele>
        <time>2019-05-24T07:00:52Z</time>
      </trkpt>
      <trkpt lat="46.09588" lon="6.59882">
        <ele>682</ele>
        <time>2019-05-24T07:00:54Z</time>
      </trkpt>
      <trkpt lat="46.09585" lon="6.59858">
        <ele>681</ele>
        <time>2019-05-24T07:00:57Z</time>
      </trkpt>
      <trkpt lat="46.09587" lon="6.59782">
        <ele>675</ele>
        <time>2019-05-24T07:01:07Z</time>
      </trkpt>
      <trkpt lat="46.09587" lon="6.5973">
        <ele>673</ele>
        <time>2019-05-24T07:01:13Z</time>
      </trkpt>
      <trkpt lat="46.09582" lon="6.59695">
        <ele>675</ele>
        <time>2019-05-24T07:01:18Z</time>
      </trkpt>
      <trkpt lat="46.09553" lon="6.59591">
        <ele>686</ele>
        <time>2019-05-24T07:01:31Z</time>
      </trkpt>
      <trkpt lat="46.09509" lon="6.59378">
        <ele>691</ele>
        <time>2019-05-24T07:01:59Z</time>
      </trkpt>
      <trkpt lat="46.09484" lon="6.59291">
        <ele>691</ele>
        <time>2019-05-24T07:02:10Z</time>
      </trkpt>
      <trkpt lat="46.09459" lon="6.59225">
        <ele>694</ele>
        <time>2019-05-24T07:02:20Z</time>
      </trkpt>
      <trkpt lat="46.09425" lon="6.59149">
        <ele>698</ele>
        <time>2019-05-24T07:02:31Z</time>
      </trkpt>
      <trkpt lat="46.0939" lon="6.59087">
        <ele>699</ele>
        <time>2019-05-24T07:02:41Z</time>
      </trkpt>
      <trkpt lat="46.09317" lon="6.5902">
        <ele>709</ele>
        <time>2019-05-24T07:02:56Z</time>
      </trkpt>
      <trkpt lat="46.09285" lon="6.58986">
        <ele>714</ele>
        <time>2019-05-24T07:03:03Z</time>
      </trkpt>
      <trkpt lat="46.09261" lon="6.58937">
        <ele>720</ele>
        <time>2019-05-24T07:03:11Z</time>
      </trkpt>
      <trkpt lat="46.09245" lon="6.5889">
        <ele>726</ele>
        <time>2019-05-24T07:03:17Z</time>
      </trkpt>
      <trkpt lat="46.09239" lon="6.58835">
        <ele>729</ele>
        <time>2019-05-24T07:03:24Z</time>
      </trkpt>
      <trkpt lat="46.09238" lon="6.58782">
        <ele>733</ele>
        <time>2019-05-24T07:03:30Z</time>
      </trkpt>
      <trkpt lat="46.09255" lon="6.58668">
        <ele>734</ele>
        <time>2019-05-24T07:03:45Z</time>
      </trkpt>
      <trkpt lat="46.0925" lon="6.58605">
        <ele>734</ele>
        <time>2019-05-24T07:03:53Z</time>
      </trkpt>
      <trkpt lat="46.09244" lon="6.58582">
        <ele>734</ele>
        <time>2019-05-24T07:03:56Z</time>
      </trkpt>
      <trkpt lat="46.0923" lon="6.58551">
        <ele>734</ele>
        <time>2019-05-24T07:04:00Z</time>
      </trkpt>
      <trkpt lat="46.09218" lon="6.58537">
        <ele>735</ele>
        <time>2019-05-24T07:04:03Z</time>
      </trkpt>
      <trkpt lat="46.09197" lon="6.58523">
        <ele>737</ele>
        <time>2019-05-24T07:04:07Z</time>
      </trkpt>
      <trkpt lat="46.09174" lon="6.58515">
        <ele>739</ele>
        <time>2019-05-24T07:04:11Z</time>
      </trkpt>
      <trkpt lat="46.09126" lon="6.58515">
        <ele>738</ele>
        <time>2019-05-24T07:04:20Z</time>
      </trkpt>
      <trkpt lat="46.09094" lon="6.58511">
        <ele>736</ele>
        <time>2019-05-24T07:04:26Z</time>
      </trkpt>
      <trkpt lat="46.08964" lon="6.58428">
        <ele>736</ele>
        <time>2019-05-24T07:04:51Z</time>
      </trkpt>
      <trkpt lat="46.08883" lon="6.58372">
        <ele>742</ele>
        <time>2019-05-24T07:05:07Z</time>
      </trkpt>
      <trkpt lat="46.08863" lon="6.58353">
        <ele>742</ele>
        <time>2019-05-24T07:05:11Z</time>
      </trkpt>
      <trkpt lat="46.08861" lon="6.58342">
        <ele>741</ele>
        <time>2019-05-24T07:05:13Z</time>
      </trkpt>
      <trkpt lat="46.08857" lon="6.58337">
        <ele>741</ele>
        <time>2019-05-24T07:05:13Z</time>
      </trkpt>
      <trkpt lat="46.08848" lon="6.58337">
        <ele>741</ele>
        <time>2019-05-24T07:05:15Z</time>
      </trkpt>
      <trkpt lat="46.08843" lon="6.58342">
        <ele>742</ele>
        <time>2019-05-24T07:05:16Z</time>
      </trkpt>
      <trkpt lat="46.08823" lon="6.58334">
        <ele>742</ele>
        <time>2019-05-24T07:05:20Z</time>
      </trkpt>
      <trkpt lat="46.08727" lon="6.58271">
        <ele>741</ele>
        <time>2019-05-24T07:05:39Z</time>
      </trkpt>
      <trkpt lat="46.08672" lon="6.58238">
        <ele>738</ele>
        <time>2019-05-24T07:05:49Z</time>
      </trkpt>
      <trkpt lat="46.08655" lon="6.58222">
        <ele>737</ele>
        <time>2019-05-24T07:05:53Z</time>
      </trkpt>
      <trkpt lat="46.08642" lon="6.582">
        <ele>735</ele>
        <time>2019-05-24T07:05:56Z</time>
      </trkpt>
      <trkpt lat="46.08624" lon="6.58113">
        <ele>731</ele>
        <time>2019-05-24T07:06:08Z</time>
      </trkpt>
      <trkpt lat="46.0862" lon="6.58108">
        <ele>731</ele>
        <time>2019-05-24T07:06:09Z</time>
      </trkpt>
      <trkpt lat="46.08617" lon="6.58098">
        <ele>731</ele>
        <time>2019-05-24T07:06:10Z</time>
      </trkpt>
      <trkpt lat="46.08612" lon="6.58055">
        <ele>729</ele>
        <time>2019-05-24T07:06:15Z</time>
      </trkpt>
      <trkpt lat="46.08602" lon="6.58021">
        <ele>726</ele>
        <time>2019-05-24T07:06:20Z</time>
      </trkpt>
      <trkpt lat="46.08591" lon="6.57999">
        <ele>723</ele>
        <time>2019-05-24T07:06:23Z</time>
      </trkpt>
      <trkpt lat="46.08577" lon="6.57978">
        <ele>720</ele>
        <time>2019-05-24T07:06:27Z</time>
      </trkpt>
      <trkpt lat="46.08554" lon="6.57961">
        <ele>715</ele>
        <time>2019-05-24T07:06:31Z</time>
      </trkpt>
      <trkpt lat="46.08542" lon="6.57948">
        <ele>712</ele>
        <time>2019-05-24T07:06:34Z</time>
      </trkpt>
      <trkpt lat="46.08523" lon="6.57935">
        <ele>708</ele>
        <time>2019-05-24T07:06:38Z</time>
      </trkpt>
      <trkpt lat="46.08507" lon="6.5792">
        <ele>704</ele>
        <time>2019-05-24T07:06:41Z</time>
      </trkpt>
      <trkpt lat="46.08485" lon="6.57894">
        <ele>697</ele>
        <time>2019-05-24T07:06:46Z</time>
      </trkpt>
      <trkpt lat="46.0847" lon="6.57859">
        <ele>692</ele>
        <time>2019-05-24T07:06:51Z</time>
      </trkpt>
      <trkpt lat="46.08444" lon="6.57785">
        <ele>686</ele>
        <time>2019-05-24T07:07:02Z</time>
      </trkpt>
      <trkpt lat="46.08442" lon="6.57766">
        <ele>686</ele>
        <time>2019-05-24T07:07:04Z</time>
      </trkpt>
      <trkpt lat="46.08442" lon="6.57739">
        <ele>687</ele>
        <time>2019-05-24T07:07:07Z</time>
      </trkpt>
      <trkpt lat="46.0844" lon="6.5772">
        <ele>686</ele>
        <time>2019-05-24T07:07:10Z</time>
      </trkpt>
      <trkpt lat="46.08437" lon="6.57713">
        <ele>686</ele>
        <time>2019-05-24T07:07:11Z</time>
      </trkpt>
      <trkpt lat="46.08432" lon="6.57712">
        <ele>684</ele>
        <time>2019-05-24T07:07:12Z</time>
      </trkpt>
      <trkpt lat="46.08428" lon="6.57718">
        <ele>683</ele>
        <time>2019-05-24T07:07:13Z</time>
      </trkpt>
      <trkpt lat="46.08418" lon="6.57763">
        <ele>680</ele>
        <time>2019-05-24T07:07:18Z</time>
      </trkpt>
      <trkpt lat="46.08409" lon="6.5779">
        <ele>675</ele>
        <time>2019-05-24T07:07:22Z</time>
      </trkpt>
      <trkpt lat="46.08405" lon="6.57794">
        <ele>673</ele>
        <time>2019-05-24T07:07:23Z</time>
      </trkpt>
      <trkpt lat="46.08401" lon="6.57791">
        <ele>672</ele>
        <time>2019-05-24T07:07:24Z</time>
      </trkpt>
      <trkpt lat="46.08402" lon="6.57759">
        <ele>674</ele>
        <time>2019-05-24T07:07:28Z</time>
      </trkpt>
      <trkpt lat="46.08396" lon="6.57731">
        <ele>672</ele>
        <time>2019-05-24T07:07:31Z</time>
      </trkpt>
      <trkpt lat="46.08384" lon="6.57703">
        <ele>669</ele>
        <time>2019-05-24T07:07:35Z</time>
      </trkpt>
      <trkpt lat="46.08366" lon="6.5768">
        <ele>663</ele>
        <time>2019-05-24T07:07:40Z</time>
      </trkpt>
      <trkpt lat="46.08346" lon="6.57649">
        <ele>658</ele>
        <time>2019-05-24T07:07:45Z</time>
      </trkpt>
      <trkpt lat="46.08316" lon="6.57564">
        <ele>652</ele>
        <time>2019-05-24T07:07:57Z</time>
      </trkpt>
      <trkpt lat="46.08315" lon="6.57544">
        <ele>651</ele>
        <time>2019-05-24T07:07:59Z</time>
      </trkpt>
      <trkpt lat="46.08317" lon="6.57523">
        <ele>652</ele>
        <time>2019-05-24T07:08:02Z</time>
      </trkpt>
      <trkpt lat="46.08321" lon="6.57513">
        <ele>655</ele>
        <time>2019-05-24T07:08:03Z</time>
      </trkpt>
      <trkpt lat="46.08318" lon="6.575">
        <ele>653</ele>
        <time>2019-05-24T07:08:05Z</time>
      </trkpt>
      <trkpt lat="46.08315" lon="6.57498">
        <ele>651</ele>
        <time>2019-05-24T07:08:05Z</time>
      </trkpt>
      <trkpt lat="46.08306" lon="6.57543">
        <ele>646</ele>
        <time>2019-05-24T07:08:11Z</time>
      </trkpt>
      <trkpt lat="46.083" lon="6.57607">
        <ele>643</ele>
        <time>2019-05-24T07:08:19Z</time>
      </trkpt>
      <trkpt lat="46.08297" lon="6.57678">
        <ele>640</ele>
        <time>2019-05-24T07:08:28Z</time>
      </trkpt>
      <trkpt lat="46.08299" lon="6.57708">
        <ele>639</ele>
        <time>2019-05-24T07:08:32Z</time>
      </trkpt>
      <trkpt lat="46.08305" lon="6.57753">
        <ele>640</ele>
        <time>2019-05-24T07:08:37Z</time>
      </trkpt>
      <trkpt lat="46.08306" lon="6.57775">
        <ele>639</ele>
        <time>2019-05-24T07:08:40Z</time>
      </trkpt>
      <trkpt lat="46.08301" lon="6.57805">
        <ele>637</ele>
        <time>2019-05-24T07:08:44Z</time>
      </trkpt>
      <trkpt lat="46.08295" lon="6.57821">
        <ele>634</ele>
        <time>2019-05-24T07:08:46Z</time>
      </trkpt>
      <trkpt lat="46.0825" lon="6.57901">
        <ele>630</ele>
        <time>2019-05-24T07:08:59Z</time>
      </trkpt>
      <trkpt lat="46.08234" lon="6.57936">
        <ele>632</ele>
        <time>2019-05-24T07:09:04Z</time>
      </trkpt>
      <trkpt lat="46.08225" lon="6.57963">
        <ele>634</ele>
        <time>2019-05-24T07:09:08Z</time>
      </trkpt>
      <trkpt lat="46.08214" lon="6.58013">
        <ele>637</ele>
        <time>2019-05-24T07:09:14Z</time>
      </trkpt>
      <trkpt lat="46.08207" lon="6.58081">
        <ele>645</ele>
        <time>2019-05-24T07:09:23Z</time>
      </trkpt>
      <trkpt lat="46.08202" lon="6.58114">
        <ele>642</ele>
        <time>2019-05-24T07:09:27Z</time>
      </trkpt>
      <trkpt lat="46.08196" lon="6.58136">
        <ele>639</ele>
        <time>2019-05-24T07:09:30Z</time>
      </trkpt>
      <trkpt lat="46.08188" lon="6.58156">
        <ele>635</ele>
        <time>2019-05-24T07:09:33Z</time>
      </trkpt>
      <trkpt lat="46.08179" lon="6.58174">
        <ele>630</ele>
        <time>2019-05-24T07:09:35Z</time>
      </trkpt>
      <trkpt lat="46.08153" lon="6.58213">
        <ele>621</ele>
        <time>2019-05-24T07:09:42Z</time>
      </trkpt>
      <trkpt lat="46.08115" lon="6.58261">
        <ele>617</ele>
        <time>2019-05-24T07:09:51Z</time>
      </trkpt>
      <trkpt lat="46.08095" lon="6.58277">
        <ele>616</ele>
        <time>2019-05-24T07:09:55Z</time>
      </trkpt>
      <trkpt lat="46.08071" lon="6.58286">
        <ele>615</ele>
        <time>2019-05-24T07:10:00Z</time>
      </trkpt>
      <trkpt lat="46.0806" lon="6.58286">
        <ele>615</ele>
        <time>2019-05-24T07:10:01Z</time>
      </trkpt>
      <trkpt lat="46.08047" lon="6.58284">
        <ele>615</ele>
        <time>2019-05-24T07:10:04Z</time>
      </trkpt>
      <trkpt lat="46.08009" lon="6.58267">
        <ele>613</ele>
        <time>2019-05-24T07:10:11Z</time>
      </trkpt>
      <trkpt lat="46.07994" lon="6.58261">
        <ele>612</ele>
        <time>2019-05-24T07:10:14Z</time>
      </trkpt>
      <trkpt lat="46.07978" lon="6.58259">
        <ele>610</ele>
        <time>2019-05-24T07:10:16Z</time>
      </trkpt>
      <trkpt lat="46.07965" lon="6.5826">
        <ele>608</ele>
        <time>2019-05-24T07:10:19Z</time>
      </trkpt>
      <trkpt lat="46.07923" lon="6.58268">
        <ele>605</ele>
        <time>2019-05-24T07:10:26Z</time>
      </trkpt>
      <trkpt lat="46.07867" lon="6.58286">
        <ele>603</ele>
        <time>2019-05-24T07:10:37Z</time>
      </trkpt>
      <trkpt lat="46.07851" lon="6.58298">
        <ele>604</ele>
        <time>2019-05-24T07:10:40Z</time>
      </trkpt>
      <trkpt lat="46.07838" lon="6.58311">
        <ele>604</ele>
        <time>2019-05-24T07:10:43Z</time>
      </trkpt>
      <trkpt lat="46.0782" lon="6.58335">
        <ele>604</ele>
        <time>2019-05-24T07:10:47Z</time>
      </trkpt>
      <trkpt lat="46.07809" lon="6.58359">
        <ele>603</ele>
        <time>2019-05-24T07:10:50Z</time>
      </trkpt>
      <trkpt lat="46.07791" lon="6.58405">
        <ele>603</ele>
        <time>2019-05-24T07:10:57Z</time>
      </trkpt>
      <trkpt lat="46.07786" lon="6.58411">
        <ele>602</ele>
        <time>2019-05-24T07:10:58Z</time>
      </trkpt>
      <trkpt lat="46.0778" lon="6.58414">
        <ele>601</ele>
        <time>2019-05-24T07:10:59Z</time>
      </trkpt>
      <trkpt lat="46.07767" lon="6.58413">
        <ele>598</ele>
        <time>2019-05-24T07:11:02Z</time>
      </trkpt>
      <trkpt lat="46.07759" lon="6.58405">
        <ele>595</ele>
        <time>2019-05-24T07:11:03Z</time>
      </trkpt>
      <trkpt lat="46.07755" lon="6.58394">
        <ele>593</ele>
        <time>2019-05-24T07:11:05Z</time>
      </trkpt>
      <trkpt lat="46.07754" lon="6.58386">
        <ele>592</ele>
        <time>2019-05-24T07:11:06Z</time>
      </trkpt>
      <trkpt lat="46.07755" lon="6.58375">
        <ele>591</ele>
        <time>2019-05-24T07:11:07Z</time>
      </trkpt>
      <trkpt lat="46.07758" lon="6.58364">
        <ele>591</ele>
        <time>2019-05-24T07:11:09Z</time>
      </trkpt>
      <trkpt lat="46.07828" lon="6.58222">
        <ele>591</ele>
        <time>2019-05-24T07:11:30Z</time>
      </trkpt>
      <trkpt lat="46.07849" lon="6.58193">
        <ele>589</ele>
        <time>2019-05-24T07:11:35Z</time>
      </trkpt>
      <trkpt lat="46.07864" lon="6.58177">
        <ele>587</ele>
        <time>2019-05-24T07:11:39Z</time>
      </trkpt>
      <trkpt lat="46.07884" lon="6.58166">
        <ele>586</ele>
        <time>2019-05-24T07:11:43Z</time>
      </trkpt>
      <trkpt lat="46.07928" lon="6.58169">
        <ele>587</ele>
        <time>2019-05-24T07:11:50Z</time>
      </trkpt>
      <trkpt lat="46.0794" lon="6.58164">
        <ele>587</ele>
        <time>2019-05-24T07:11:53Z</time>
      </trkpt>
      <trkpt lat="46.07946" lon="6.58151">
        <ele>586</ele>
        <time>2019-05-24T07:11:55Z</time>
      </trkpt>
      <trkpt lat="46.07947" lon="6.58137">
        <ele>584</ele>
        <time>2019-05-24T07:11:56Z</time>
      </trkpt>
      <trkpt lat="46.07945" lon="6.58124">
        <ele>583</ele>
        <time>2019-05-24T07:11:58Z</time>
      </trkpt>
      <trkpt lat="46.07932" lon="6.58107">
        <ele>580</ele>
        <time>2019-05-24T07:12:01Z</time>
      </trkpt>
      <trkpt lat="46.07915" lon="6.58095">
        <ele>578</ele>
        <time>2019-05-24T07:12:04Z</time>
      </trkpt>
      <trkpt lat="46.07875" lon="6.58083">
        <ele>574</ele>
        <time>2019-05-24T07:12:12Z</time>
      </trkpt>
      <trkpt lat="46.0786" lon="6.58082">
        <ele>573</ele>
        <time>2019-05-24T07:12:14Z</time>
      </trkpt>
      <trkpt lat="46.07844" lon="6.58086">
        <ele>572</ele>
        <time>2019-05-24T07:12:17Z</time>
      </trkpt>
      <trkpt lat="46.07821" lon="6.58097">
        <ele>571</ele>
        <time>2019-05-24T07:12:22Z</time>
      </trkpt>
      <trkpt lat="46.0776" lon="6.58136">
        <ele>564</ele>
        <time>2019-05-24T07:12:33Z</time>
      </trkpt>
      <trkpt lat="46.07684" lon="6.58258">
        <ele>560</ele>
        <time>2019-05-24T07:12:54Z</time>
      </trkpt>
      <trkpt lat="46.07654" lon="6.58295">
        <ele>557</ele>
        <time>2019-05-24T07:13:01Z</time>
      </trkpt>
      <trkpt lat="46.07615" lon="6.58322">
        <ele>553</ele>
        <time>2019-05-24T07:13:08Z</time>
      </trkpt>
      <trkpt lat="46.07605" lon="6.58356">
        <ele>556</ele>
        <time>2019-05-24T07:13:13Z</time>
      </trkpt>
      <trkpt lat="46.07603" lon="6.58379">
        <ele>558</ele>
        <time>2019-05-24T07:13:16Z</time>
      </trkpt>
      <trkpt lat="46.07587" lon="6.5841">
        <ele>559</ele>
        <time>2019-05-24T07:13:21Z</time>
      </trkpt>
      <trkpt lat="46.07548" lon="6.58426">
        <ele>560</ele>
        <time>2019-05-24T07:13:28Z</time>
      </trkpt>
      <trkpt lat="46.0753" lon="6.58431">
        <ele>560</ele>
        <time>2019-05-24T07:13:31Z</time>
      </trkpt>
      <trkpt lat="46.07516" lon="6.58432">
        <ele>560</ele>
        <time>2019-05-24T07:13:34Z</time>
      </trkpt>
      <trkpt lat="46.07502" lon="6.58421">
        <ele>556</ele>
        <time>2019-05-24T07:13:36Z</time>
      </trkpt>
      <trkpt lat="46.07486" lon="6.58404">
        <ele>550</ele>
        <time>2019-05-24T07:13:40Z</time>
      </trkpt>
      <trkpt lat="46.07469" lon="6.58398">
        <ele>545</ele>
        <time>2019-05-24T07:13:43Z</time>
      </trkpt>
      <trkpt lat="46.07447" lon="6.58403">
        <ele>542</ele>
        <time>2019-05-24T07:13:47Z</time>
      </trkpt>
      <trkpt lat="46.07435" lon="6.58414">
        <ele>543</ele>
        <time>2019-05-24T07:13:49Z</time>
      </trkpt>
      <trkpt lat="46.07425" lon="6.58428">
        <ele>544</ele>
        <time>2019-05-24T07:13:52Z</time>
      </trkpt>
      <trkpt lat="46.07402" lon="6.58444">
        <ele>543</ele>
        <time>2019-05-24T07:13:57Z</time>
      </trkpt>
      <trkpt lat="46.0738" lon="6.58448">
        <ele>538</ele>
        <time>2019-05-24T07:14:00Z</time>
      </trkpt>
      <trkpt lat="46.07364" lon="6.58465">
        <ele>537</ele>
        <time>2019-05-24T07:14:04Z</time>
      </trkpt>
      <trkpt lat="46.07353" lon="6.58489">
        <ele>538</ele>
        <time>2019-05-24T07:14:08Z</time>
      </trkpt>
      <trkpt lat="46.07346" lon="6.5856">
        <ele>547</ele>
        <time>2019-05-24T07:14:16Z</time>
      </trkpt>
      <trkpt lat="46.07341" lon="6.58578">
        <ele>548</ele>
        <time>2019-05-24T07:14:19Z</time>
      </trkpt>
      <trkpt lat="46.07333" lon="6.58592">
        <ele>549</ele>
        <time>2019-05-24T07:14:21Z</time>
      </trkpt>
      <trkpt lat="46.07325" lon="6.58597">
        <ele>549</ele>
        <time>2019-05-24T07:14:23Z</time>
      </trkpt>
      <trkpt lat="46.07309" lon="6.58592">
        <ele>548</ele>
        <time>2019-05-24T07:14:25Z</time>
      </trkpt>
      <trkpt lat="46.07301" lon="6.58581">
        <ele>545</ele>
        <time>2019-05-24T07:14:27Z</time>
      </trkpt>
      <trkpt lat="46.07259" lon="6.58512">
        <ele>530</ele>
        <time>2019-05-24T07:14:39Z</time>
      </trkpt>
      <trkpt lat="46.07242" lon="6.58496">
        <ele>525</ele>
        <time>2019-05-24T07:14:42Z</time>
      </trkpt>
      <trkpt lat="46.07227" lon="6.58494">
        <ele>522</ele>
        <time>2019-05-24T07:14:45Z</time>
      </trkpt>
      <trkpt lat="46.07135" lon="6.58521">
        <ele>513</ele>
        <time>2019-05-24T07:15:02Z</time>
      </trkpt>
      <trkpt lat="46.0711" lon="6.58535">
        <ele>511</ele>
        <time>2019-05-24T07:15:07Z</time>
      </trkpt>
      <trkpt lat="46.0709" lon="6.58553">
        <ele>510</ele>
        <time>2019-05-24T07:15:11Z</time>
      </trkpt>
      <trkpt lat="46.07064" lon="6.58588">
        <ele>511</ele>
        <time>2019-05-24T07:15:17Z</time>
      </trkpt>
      <trkpt lat="46.07048" lon="6.586">
        <ele>511</ele>
        <time>2019-05-24T07:15:20Z</time>
      </trkpt>
      <trkpt lat="46.07037" lon="6.586">
        <ele>509</ele>
        <time>2019-05-24T07:15:22Z</time>
      </trkpt>
      <trkpt lat="46.07026" lon="6.58594">
        <ele>507</ele>
        <time>2019-05-24T07:15:24Z</time>
      </trkpt>
      <trkpt lat="46.06963" lon="6.58537">
        <ele>497</ele>
        <time>2019-05-24T07:15:38Z</time>
      </trkpt>
      <trkpt lat="46.06946" lon="6.58517">
        <ele>495</ele>
        <time>2019-05-24T07:15:41Z</time>
      </trkpt>
      <trkpt lat="46.06923" lon="6.58468">
        <ele>492</ele>
        <time>2019-05-24T07:15:49Z</time>
      </trkpt>
      <trkpt lat="46.06898" lon="6.5841">
        <ele>490</ele>
        <time>2019-05-24T07:15:57Z</time>
      </trkpt>
      <trkpt lat="46.06889" lon="6.5838">
        <ele>489</ele>
        <time>2019-05-24T07:16:01Z</time>
      </trkpt>
      <trkpt lat="46.06891" lon="6.5837">
        <ele>489</ele>
        <time>2019-05-24T07:16:03Z</time>
      </trkpt>
      <trkpt lat="46.06889" lon="6.58361">
        <ele>489</ele>
        <time>2019-05-24T07:16:04Z</time>
      </trkpt>
      <trkpt lat="46.06882" lon="6.58351">
        <ele>488</ele>
        <time>2019-05-24T07:16:05Z</time>
      </trkpt>
      <trkpt lat="46.06875" lon="6.58349">
        <ele>488</ele>
        <time>2019-05-24T07:16:07Z</time>
      </trkpt>
      <trkpt lat="46.06858" lon="6.58317">
        <ele>488</ele>
        <time>2019-05-24T07:16:12Z</time>
      </trkpt>
      <trkpt lat="46.06806" lon="6.58177">
        <ele>488</ele>
        <time>2019-05-24T07:16:31Z</time>
      </trkpt>
      <trkpt lat="46.06748" lon="6.58008">
        <ele>486</ele>
        <time>2019-05-24T07:16:55Z</time>
      </trkpt>
      <trkpt lat="46.06736" lon="6.57982">
        <ele>485</ele>
        <time>2019-05-24T07:16:58Z</time>
      </trkpt>
      <trkpt lat="46.06728" lon="6.57956">
        <ele>485</ele>
        <time>2019-05-24T07:17:02Z</time>
      </trkpt>
      <trkpt lat="46.06531" lon="6.58022">
        <ele>483</ele>
        <time>2019-05-24T07:17:38Z</time>
      </trkpt>
      <trkpt lat="46.06526" lon="6.58022">
        <ele>483</ele>
        <time>2019-05-24T07:17:39Z</time>
      </trkpt>
      <trkpt lat="46.06515" lon="6.58017">
        <ele>483</ele>
        <time>2019-05-24T07:17:41Z</time>
      </trkpt>
      <trkpt lat="46.06508" lon="6.5801">
        <ele>482</ele>
        <time>2019-05-24T07:17:42Z</time>
      </trkpt>
      <trkpt lat="46.06489" lon="6.57984">
        <ele>483</ele>
        <time>2019-05-24T07:17:47Z</time>
      </trkpt>
      <trkpt lat="46.0648" lon="6.57977">
        <ele>483</ele>
        <time>2019-05-24T07:17:49Z</time>
      </trkpt>
      <trkpt lat="46.0647" lon="6.57971">
        <ele>484</ele>
        <time>2019-05-24T07:17:51Z</time>
      </trkpt>
      <trkpt lat="46.0646" lon="6.5797">
        <ele>484</ele>
        <time>2019-05-24T07:17:53Z</time>
      </trkpt>
      <trkpt lat="46.06373" lon="6.57976">
        <ele>484</ele>
        <time>2019-05-24T07:18:08Z</time>
      </trkpt>
      <trkpt lat="46.06316" lon="6.57985">
        <ele>484</ele>
        <time>2019-05-24T07:18:18Z</time>
      </trkpt>
      <trkpt lat="46.06246" lon="6.57999">
        <ele>486</ele>
        <time>2019-05-24T07:18:31Z</time>
      </trkpt>
      <trkpt lat="46.06187" lon="6.58008">
        <ele>486</ele>
        <time>2019-05-24T07:18:41Z</time>
      </trkpt>
      <trkpt lat="46.0618" lon="6.58005">
        <ele>486</ele>
        <time>2019-05-24T07:18:43Z</time>
      </trkpt>
      <trkpt lat="46.06133" lon="6.58011">
        <ele>487</ele>
        <time>2019-05-24T07:18:51Z</time>
      </trkpt>
      <trkpt lat="46.06127" lon="6.58004">
        <ele>487</ele>
        <time>2019-05-24T07:18:52Z</time>
      </trkpt>
      <trkpt lat="46.06124" lon="6.58004">
        <ele>487</ele>
        <time>2019-05-24T07:18:53Z</time>
      </trkpt>
      <trkpt lat="46.06122" lon="6.58005">
        <ele>487</ele>
        <time>2019-05-24T07:18:53Z</time>
      </trkpt>
      <trkpt lat="46.06118" lon="6.58014">
        <ele>487</ele>
        <time>2019-05-24T07:18:55Z</time>
      </trkpt>
      <trkpt lat="46.06118" lon="6.58018">
        <ele>487</ele>
        <time>2019-05-24T07:18:55Z</time>
      </trkpt>
      <trkpt lat="46.06051" lon="6.58029">
        <ele>488</ele>
        <time>2019-05-24T07:19:07Z</time>
      </trkpt>
      <trkpt lat="46.05788" lon="6.58063">
        <ele>487</ele>
        <time>2019-05-24T07:19:54Z</time>
      </trkpt>
      <trkpt lat="46.05785" lon="6.58054">
        <ele>487</ele>
        <time>2019-05-24T07:19:55Z</time>
      </trkpt>
      <trkpt lat="46.05779" lon="6.58052">
        <ele>487</ele>
        <time>2019-05-24T07:19:57Z</time>
      </trkpt>
      <trkpt lat="46.05774" lon="6.58055">
        <ele>487</ele>
        <time>2019-05-24T07:19:57Z</time>
      </trkpt>
      <trkpt lat="46.05763" lon="6.58042">
        <ele>487</ele>
        <time>2019-05-24T07:20:00Z</time>
      </trkpt>
      <trkpt lat="46.05752" lon="6.58029">
        <ele>486</ele>
        <time>2019-05-24T07:20:03Z</time>
      </trkpt>
      <trkpt lat="46.05731" lon="6.58015">
        <ele>486</ele>
        <time>2019-05-24T07:20:07Z</time>
      </trkpt>
      <trkpt lat="46.05724" lon="6.58002">
        <ele>486</ele>
        <time>2019-05-24T07:20:09Z</time>
      </trkpt>
      <trkpt lat="46.05714" lon="6.57996">
        <ele>486</ele>
        <time>2019-05-24T07:20:11Z</time>
      </trkpt>
      <trkpt lat="46.05705" lon="6.57997">
        <ele>486</ele>
        <time>2019-05-24T07:20:12Z</time>
      </trkpt>
      <trkpt lat="46.05696" lon="6.58006">
        <ele>486</ele>
        <time>2019-05-24T07:20:14Z</time>
      </trkpt>
      <trkpt lat="46.05694" lon="6.58011">
        <ele>486</ele>
        <time>2019-05-24T07:20:15Z</time>
      </trkpt>
      <trkpt lat="46.05673" lon="6.58021">
        <ele>486</ele>
        <time>2019-05-24T07:20:19Z</time>
      </trkpt>
      <trkpt lat="46.05661" lon="6.58014">
        <ele>486</ele>
        <time>2019-05-24T07:20:21Z</time>
      </trkpt>
      <trkpt lat="46.05649" lon="6.57969">
        <ele>487</ele>
        <time>2019-05-24T07:20:27Z</time>
      </trkpt>
      <trkpt lat="46.05641" lon="6.57924">
        <ele>490</ele>
        <time>2019-05-24T07:20:33Z</time>
      </trkpt>
      <trkpt lat="46.05652" lon="6.57894">
        <ele>489</ele>
        <time>2019-05-24T07:20:37Z</time>
      </trkpt>
      <trkpt lat="46.05664" lon="6.57877">
        <ele>487</ele>
        <time>2019-05-24T07:20:40Z</time>
      </trkpt>
      <trkpt lat="46.05677" lon="6.57868">
        <ele>487</ele>
        <time>2019-05-24T07:20:43Z</time>
      </trkpt>
      <trkpt lat="46.05682" lon="6.57861">
        <ele>487</ele>
        <time>2019-05-24T07:20:44Z</time>
      </trkpt>
      <trkpt lat="46.0569" lon="6.57841">
        <ele>487</ele>
        <time>2019-05-24T07:20:47Z</time>
      </trkpt>
      <trkpt lat="46.05708" lon="6.57831">
        <ele>486</ele>
        <time>2019-05-24T07:20:50Z</time>
      </trkpt>
      <trkpt lat="46.05712" lon="6.57827">
        <ele>486</ele>
        <time>2019-05-24T07:20:51Z</time>
      </trkpt>
      <trkpt lat="46.05731" lon="6.5779">
        <ele>485</ele>
        <time>2019-05-24T07:20:57Z</time>
      </trkpt>
      <trkpt lat="46.05805" lon="6.57683">
        <ele>483</ele>
        <time>2019-05-24T07:21:15Z</time>
      </trkpt>
      <trkpt lat="46.0589" lon="6.57528">
        <ele>482</ele>
        <time>2019-05-24T07:21:40Z</time>
      </trkpt>
      <trkpt lat="46.0592" lon="6.57494">
        <ele>481</ele>
        <time>2019-05-24T07:21:46Z</time>
      </trkpt>
      <trkpt lat="46.05944" lon="6.57457">
        <ele>482</ele>
        <time>2019-05-24T07:21:53Z</time>
      </trkpt>
      <trkpt lat="46.05947" lon="6.57454">
        <ele>482</ele>
        <time>2019-05-24T07:21:53Z</time>
      </trkpt>
      <trkpt lat="46.05951" lon="6.57454">
        <ele>482</ele>
        <time>2019-05-24T07:21:54Z</time>
      </trkpt>
      <trkpt lat="46.05953" lon="6.5745">
        <ele>482</ele>
        <time>2019-05-24T07:21:55Z</time>
      </trkpt>
      <trkpt lat="46.05945" lon="6.57433">
        <ele>482</ele>
        <time>2019-05-24T07:21:57Z</time>
      </trkpt>
      <trkpt lat="46.05891" lon="6.5734">
        <ele>483</ele>
        <time>2019-05-24T07:22:12Z</time>
      </trkpt>
      <trkpt lat="46.05886" lon="6.57319">
        <ele>483</ele>
        <time>2019-05-24T07:22:15Z</time>
      </trkpt>
      <trkpt lat="46.05885" lon="6.57294">
        <ele>482</ele>
        <time>2019-05-24T07:22:18Z</time>
      </trkpt>
      <trkpt lat="46.05883" lon="6.5728">
        <ele>482</ele>
        <time>2019-05-24T07:22:20Z</time>
      </trkpt>
      <trkpt lat="46.05877" lon="6.5726">
        <ele>482</ele>
        <time>2019-05-24T07:22:22Z</time>
      </trkpt>
      <trkpt lat="46.05878" lon="6.57229">
        <ele>482</ele>
        <time>2019-05-24T07:22:26Z</time>
      </trkpt>
      <trkpt lat="46.05877" lon="6.57215">
        <ele>482</ele>
        <time>2019-05-24T07:22:28Z</time>
      </trkpt>
      <trkpt lat="46.0587" lon="6.57203">
        <ele>482</ele>
        <time>2019-05-24T07:22:30Z</time>
      </trkpt>
      <trkpt lat="46.05859" lon="6.57192">
        <ele>482</ele>
        <time>2019-05-24T07:22:32Z</time>
      </trkpt>
      <trkpt lat="46.05848" lon="6.5719">
        <ele>482</ele>
        <time>2019-05-24T07:22:34Z</time>
      </trkpt>
      <trkpt lat="46.0584" lon="6.57191">
        <ele>482</ele>
        <time>2019-05-24T07:22:36Z</time>
      </trkpt>
      <trkpt lat="46.05827" lon="6.57204">
        <ele>483</ele>
        <time>2019-05-24T07:22:39Z</time>
      </trkpt>
      <trkpt lat="46.05783" lon="6.57209">
        <ele>483</ele>
        <time>2019-05-24T07:22:46Z</time>
      </trkpt>
      <trkpt lat="46.05773" lon="6.57208">
        <ele>484</ele>
        <time>2019-05-24T07:22:48Z</time>
      </trkpt>
      <trkpt lat="46.05672" lon="6.57119">
        <ele>484</ele>
        <time>2019-05-24T07:23:09Z</time>
      </trkpt>
      <trkpt lat="46.05647" lon="6.57078">
        <ele>484</ele>
        <time>2019-05-24T07:23:16Z</time>
      </trkpt>
      <trkpt lat="46.05637" lon="6.57044">
        <ele>483</ele>
        <time>2019-05-24T07:23:21Z</time>
      </trkpt>
      <trkpt lat="46.05633" lon="6.5701">
        <ele>483</ele>
        <time>2019-05-24T07:23:25Z</time>
      </trkpt>
      <trkpt lat="46.05635" lon="6.56972">
        <ele>483</ele>
        <time>2019-05-24T07:23:30Z</time>
      </trkpt>
      <trkpt lat="46.05653" lon="6.56819">
        <ele>482</ele>
        <time>2019-05-24T07:23:49Z</time>
      </trkpt>
      <trkpt lat="46.05651" lon="6.56779">
        <ele>482</ele>
        <time>2019-05-24T07:23:54Z</time>
      </trkpt>
      <trkpt lat="46.05644" lon="6.56735">
        <ele>482</ele>
        <time>2019-05-24T07:23:59Z</time>
      </trkpt>
      <trkpt lat="46.05599" lon="6.56588">
        <ele>481</ele>
        <time>2019-05-24T07:24:19Z</time>
      </trkpt>
      <trkpt lat="46.05602" lon="6.56584">
        <ele>481</ele>
        <time>2019-05-24T07:24:20Z</time>
      </trkpt>
      <trkpt lat="46.05605" lon="6.56578">
        <ele>481</ele>
        <time>2019-05-24T07:24:21Z</time>
      </trkpt>
      <trkpt lat="46.05605" lon="6.56566">
        <ele>482</ele>
        <time>2019-05-24T07:24:22Z</time>
      </trkpt>
      <trkpt lat="46.05601" lon="6.56559">
        <ele>482</ele>
        <time>2019-05-24T07:24:23Z</time>
      </trkpt>
      <trkpt lat="46.05597" lon="6.56556">
        <ele>482</ele>
        <time>2019-05-24T07:24:24Z</time>
      </trkpt>
      <trkpt lat="46.05592" lon="6.56555">
        <ele>482</ele>
        <time>2019-05-24T07:24:25Z</time>
      </trkpt>
      <trkpt lat="46.05588" lon="6.56557">
        <ele>482</ele>
        <time>2019-05-24T07:24:26Z</time>
      </trkpt>
      <trkpt lat="46.05567" lon="6.56492">
        <ele>484</ele>
        <time>2019-05-24T07:24:35Z</time>
      </trkpt>
      <trkpt lat="46.05548" lon="6.56361">
        <ele>485</ele>
        <time>2019-05-24T07:24:51Z</time>
      </trkpt>
      <trkpt lat="46.05544" lon="6.56248">
        <ele>488</ele>
        <time>2019-05-24T07:25:05Z</time>
      </trkpt>
      <trkpt lat="46.05551" lon="6.56243">
        <ele>488</ele>
        <time>2019-05-24T07:25:07Z</time>
      </trkpt>
      <trkpt lat="46.05555" lon="6.56233">
        <ele>488</ele>
        <time>2019-05-24T07:25:08Z</time>
      </trkpt>
      <trkpt lat="46.05555" lon="6.56224">
        <ele>488</ele>
        <time>2019-05-24T07:25:09Z</time>
      </trkpt>
      <trkpt lat="46.05548" lon="6.56206">
        <ele>488</ele>
        <time>2019-05-24T07:25:12Z</time>
      </trkpt>
      <trkpt lat="46.05538" lon="6.56206">
        <ele>488</ele>
        <time>2019-05-24T07:25:13Z</time>
      </trkpt>
      <trkpt lat="46.0553" lon="6.56211">
        <ele>488</ele>
        <time>2019-05-24T07:25:15Z</time>
      </trkpt>
      <trkpt lat="46.05513" lon="6.56179">
        <ele>488</ele>
        <time>2019-05-24T07:25:20Z</time>
      </trkpt>
      <trkpt lat="46.05494" lon="6.56137">
        <ele>488</ele>
        <time>2019-05-24T07:25:26Z</time>
      </trkpt>
      <trkpt lat="46.05408" lon="6.55859">
        <ele>491</ele>
        <time>2019-05-24T07:26:04Z</time>
      </trkpt>
      <trkpt lat="46.05386" lon="6.55802">
        <ele>492</ele>
        <time>2019-05-24T07:26:12Z</time>
      </trkpt>
      <trkpt lat="46.05303" lon="6.55622">
        <ele>497</ele>
        <time>2019-05-24T07:26:38Z</time>
      </trkpt>
      <trkpt lat="46.05299" lon="6.55597">
        <ele>497</ele>
        <time>2019-05-24T07:26:42Z</time>
      </trkpt>
      <trkpt lat="46.05297" lon="6.55517">
        <ele>501</ele>
        <time>2019-05-24T07:26:51Z</time>
      </trkpt>
      <trkpt lat="46.0531" lon="6.55438">
        <ele>501</ele>
        <time>2019-05-24T07:27:02Z</time>
      </trkpt>
      <trkpt lat="46.05308" lon="6.55396">
        <ele>501</ele>
        <time>2019-05-24T07:27:07Z</time>
      </trkpt>
      <trkpt lat="46.053" lon="6.55334">
        <ele>503</ele>
        <time>2019-05-24T07:27:14Z</time>
      </trkpt>
      <trkpt lat="46.05301" lon="6.55296">
        <ele>503</ele>
        <time>2019-05-24T07:27:19Z</time>
      </trkpt>
      <trkpt lat="46.05305" lon="6.55263">
        <ele>503</ele>
        <time>2019-05-24T07:27:23Z</time>
      </trkpt>
      <trkpt lat="46.05303" lon="6.55225">
        <ele>504</ele>
        <time>2019-05-24T07:27:28Z</time>
      </trkpt>
      <trkpt lat="46.05295" lon="6.55173">
        <ele>505</ele>
        <time>2019-05-24T07:27:35Z</time>
      </trkpt>
      <trkpt lat="46.05269" lon="6.55122">
        <ele>504</ele>
        <time>2019-05-24T07:27:42Z</time>
      </trkpt>
      <trkpt lat="46.05264" lon="6.55088">
        <ele>503</ele>
        <time>2019-05-24T07:27:47Z</time>
      </trkpt>
      <trkpt lat="46.05255" lon="6.55048">
        <ele>503</ele>
        <time>2019-05-24T07:27:52Z</time>
      </trkpt>
      <trkpt lat="46.0525" lon="6.54971">
        <ele>502</ele>
        <time>2019-05-24T07:28:01Z</time>
      </trkpt>
      <trkpt lat="46.05225" lon="6.54899">
        <ele>506</ele>
        <time>2019-05-24T07:28:11Z</time>
      </trkpt>
      <trkpt lat="46.05222" lon="6.54857">
        <ele>508</ele>
        <time>2019-05-24T07:28:17Z</time>
      </trkpt>
      <trkpt lat="46.05224" lon="6.54805">
        <ele>509</ele>
        <time>2019-05-24T07:28:23Z</time>
      </trkpt>
      <trkpt lat="46.05203" lon="6.54666">
        <ele>514</ele>
        <time>2019-05-24T07:28:41Z</time>
      </trkpt>
      <trkpt lat="46.05206" lon="6.54633">
        <ele>515</ele>
        <time>2019-05-24T07:28:45Z</time>
      </trkpt>
      <trkpt lat="46.05212" lon="6.5461">
        <ele>514</ele>
        <time>2019-05-24T07:28:48Z</time>
      </trkpt>
      <trkpt lat="46.05263" lon="6.54539">
        <ele>514</ele>
        <time>2019-05-24T07:29:00Z</time>
      </trkpt>
      <trkpt lat="46.05274" lon="6.54509">
        <ele>516</ele>
        <time>2019-05-24T07:29:05Z</time>
      </trkpt>
      <trkpt lat="46.05274" lon="6.54475">
        <ele>518</ele>
        <time>2019-05-24T07:29:09Z</time>
      </trkpt>
      <trkpt lat="46.05261" lon="6.54432">
        <ele>523</ele>
        <time>2019-05-24T07:29:15Z</time>
      </trkpt>
      <trkpt lat="46.05257" lon="6.54394">
        <ele>525</ele>
        <time>2019-05-24T07:29:19Z</time>
      </trkpt>
      <trkpt lat="46.05264" lon="6.54353">
        <ele>524</ele>
        <time>2019-05-24T07:29:25Z</time>
      </trkpt>
      <trkpt lat="46.05277" lon="6.54293">
        <ele>522</ele>
        <time>2019-05-24T07:29:32Z</time>
      </trkpt>
      <trkpt lat="46.05274" lon="6.54247">
        <ele>525</ele>
        <time>2019-05-24T07:29:38Z</time>
      </trkpt>
      <trkpt lat="46.05256" lon="6.54214">
        <ele>528</ele>
        <time>2019-05-24T07:29:43Z</time>
      </trkpt>
      <trkpt lat="46.05219" lon="6.54185">
        <ele>539</ele>
        <time>2019-05-24T07:29:51Z</time>
      </trkpt>
      <trkpt lat="46.05207" lon="6.54156">
        <ele>543</ele>
        <time>2019-05-24T07:29:55Z</time>
      </trkpt>
      <trkpt lat="46.05212" lon="6.54118">
        <ele>544</ele>
        <time>2019-05-24T07:30:00Z</time>
      </trkpt>
      <trkpt lat="46.05232" lon="6.54089">
        <ele>540</ele>
        <time>2019-05-24T07:30:05Z</time>
      </trkpt>
      <trkpt lat="46.05272" lon="6.54074">
        <ele>533</ele>
        <time>2019-05-24T07:30:12Z</time>
      </trkpt>
      <trkpt lat="46.0529" lon="6.54057">
        <ele>531</ele>
        <time>2019-05-24T07:30:16Z</time>
      </trkpt>
      <trkpt lat="46.05297" lon="6.5403">
        <ele>533</ele>
        <time>2019-05-24T07:30:19Z</time>
      </trkpt>
      <trkpt lat="46.0531" lon="6.53928">
        <ele>540</ele>
        <time>2019-05-24T07:30:32Z</time>
      </trkpt>
      <trkpt lat="46.05329" lon="6.53889">
        <ele>540</ele>
        <time>2019-05-24T07:30:38Z</time>
      </trkpt>
      <trkpt lat="46.05353" lon="6.53856">
        <ele>539</ele>
        <time>2019-05-24T07:30:44Z</time>
      </trkpt>
      <trkpt lat="46.05366" lon="6.5382">
        <ele>539</ele>
        <time>2019-05-24T07:30:49Z</time>
      </trkpt>
      <trkpt lat="46.05368" lon="6.53795">
        <ele>541</ele>
        <time>2019-05-24T07:30:52Z</time>
      </trkpt>
      <trkpt lat="46.05365" lon="6.53738">
        <ele>548</ele>
        <time>2019-05-24T07:30:59Z</time>
      </trkpt>
      <trkpt lat="46.05371" lon="6.53709">
        <ele>551</ele>
        <time>2019-05-24T07:31:03Z</time>
      </trkpt>
      <trkpt lat="46.05414" lon="6.53671">
        <ele>549</ele>
        <time>2019-05-24T07:31:12Z</time>
      </trkpt>
      <trkpt lat="46.05429" lon="6.53649">
        <ele>550</ele>
        <time>2019-05-24T07:31:16Z</time>
      </trkpt>
      <trkpt lat="46.05444" lon="6.53613">
        <ele>553</ele>
        <time>2019-05-24T07:31:21Z</time>
      </trkpt>
      <trkpt lat="46.05471" lon="6.5352">
        <ele>556</ele>
        <time>2019-05-24T07:31:33Z</time>
      </trkpt>
      <trkpt lat="46.05475" lon="6.53473">
        <ele>558</ele>
        <time>2019-05-24T07:31:39Z</time>
      </trkpt>
      <trkpt lat="46.05468" lon="6.53381">
        <ele>563</ele>
        <time>2019-05-24T07:31:51Z</time>
      </trkpt>
      <trkpt lat="46.0547" lon="6.53325">
        <ele>564</ele>
        <time>2019-05-24T07:31:58Z</time>
      </trkpt>
      <trkpt lat="46.055" lon="6.53178">
        <ele>574</ele>
        <time>2019-05-24T07:32:16Z</time>
      </trkpt>
      <trkpt lat="46.05539" lon="6.53094">
        <ele>576</ele>
        <time>2019-05-24T07:32:29Z</time>
      </trkpt>
      <trkpt lat="46.05558" lon="6.53027">
        <ele>577</ele>
        <time>2019-05-24T07:32:38Z</time>
      </trkpt>
      <trkpt lat="46.05563" lon="6.52939">
        <ele>579</ele>
        <time>2019-05-24T07:32:49Z</time>
      </trkpt>
      <trkpt lat="46.05535" lon="6.52802">
        <ele>580</ele>
        <time>2019-05-24T07:33:06Z</time>
      </trkpt>
      <trkpt lat="46.05526" lon="6.52787">
        <ele>580</ele>
        <time>2019-05-24T07:33:09Z</time>
      </trkpt>
      <trkpt lat="46.05514" lon="6.52775">
        <ele>581</ele>
        <time>2019-05-24T07:33:11Z</time>
      </trkpt>
      <trkpt lat="46.05499" lon="6.52772">
        <ele>583</ele>
        <time>2019-05-24T07:33:14Z</time>
      </trkpt>
      <trkpt lat="46.05484" lon="6.52776">
        <ele>585</ele>
        <time>2019-05-24T07:33:17Z</time>
      </trkpt>
      <trkpt lat="46.05396" lon="6.5282">
        <ele>598</ele>
        <time>2019-05-24T07:33:33Z</time>
      </trkpt>
      <trkpt lat="46.05388" lon="6.52828">
        <ele>599</ele>
        <time>2019-05-24T07:33:35Z</time>
      </trkpt>
      <trkpt lat="46.05379" lon="6.52798">
        <ele>602</ele>
        <time>2019-05-24T07:33:39Z</time>
      </trkpt>
      <trkpt lat="46.05373" lon="6.52707">
        <ele>606</ele>
        <time>2019-05-24T07:33:50Z</time>
      </trkpt>
      <trkpt lat="46.0535" lon="6.5266">
        <ele>612</ele>
        <time>2019-05-24T07:33:58Z</time>
      </trkpt>
      <trkpt lat="46.05327" lon="6.52615">
        <ele>617</ele>
        <time>2019-05-24T07:34:04Z</time>
      </trkpt>
      <trkpt lat="46.05301" lon="6.52574">
        <ele>624</ele>
        <time>2019-05-24T07:34:11Z</time>
      </trkpt>
      <trkpt lat="46.05222" lon="6.52511">
        <ele>638</ele>
        <time>2019-05-24T07:34:27Z</time>
      </trkpt>
      <trkpt lat="46.05213" lon="6.52485">
        <ele>641</ele>
        <time>2019-05-24T07:34:31Z</time>
      </trkpt>
      <trkpt lat="46.05215" lon="6.52453">
        <ele>645</ele>
        <time>2019-05-24T07:34:35Z</time>
      </trkpt>
      <trkpt lat="46.05221" lon="6.5244">
        <ele>647</ele>
        <time>2019-05-24T07:34:37Z</time>
      </trkpt>
      <trkpt lat="46.05283" lon="6.52421">
        <ele>646</ele>
        <time>2019-05-24T07:34:48Z</time>
      </trkpt>
      <trkpt lat="46.05313" lon="6.52391">
        <ele>653</ele>
        <time>2019-05-24T07:34:55Z</time>
      </trkpt>
      <trkpt lat="46.05339" lon="6.52379">
        <ele>654</ele>
        <time>2019-05-24T07:35:00Z</time>
      </trkpt>
      <trkpt lat="46.05357" lon="6.52386">
        <ele>649</ele>
        <time>2019-05-24T07:35:03Z</time>
      </trkpt>
      <trkpt lat="46.05365" lon="6.52383">
        <ele>649</ele>
        <time>2019-05-24T07:35:04Z</time>
      </trkpt>
      <trkpt lat="46.05375" lon="6.52373">
        <ele>650</ele>
        <time>2019-05-24T07:35:06Z</time>
      </trkpt>
      <trkpt lat="46.05384" lon="6.5233">
        <ele>660</ele>
        <time>2019-05-24T07:35:12Z</time>
      </trkpt>
      <trkpt lat="46.05395" lon="6.52309">
        <ele>664</ele>
        <time>2019-05-24T07:35:15Z</time>
      </trkpt>
      <trkpt lat="46.05417" lon="6.52288">
        <ele>664</ele>
        <time>2019-05-24T07:35:20Z</time>
      </trkpt>
      <trkpt lat="46.05426" lon="6.5226">
        <ele>670</ele>
        <time>2019-05-24T07:35:24Z</time>
      </trkpt>
      <trkpt lat="46.05469" lon="6.52155">
        <ele>683</ele>
        <time>2019-05-24T07:35:39Z</time>
      </trkpt>
      <trkpt lat="46.05499" lon="6.5212">
        <ele>679</ele>
        <time>2019-05-24T07:35:46Z</time>
      </trkpt>
      <trkpt lat="46.05519" lon="6.52074">
        <ele>683</ele>
        <time>2019-05-24T07:35:52Z</time>
      </trkpt>
      <trkpt lat="46.05561" lon="6.51924">
        <ele>694</ele>
        <time>2019-05-24T07:36:12Z</time>
      </trkpt>
      <trkpt lat="46.05551" lon="6.51808">
        <ele>716</ele>
        <time>2019-05-24T07:36:27Z</time>
      </trkpt>
      <trkpt lat="46.05575" lon="6.51764">
        <ele>710</ele>
        <time>2019-05-24T07:36:34Z</time>
      </trkpt>
      <trkpt lat="46.0558" lon="6.51705">
        <ele>711</ele>
        <time>2019-05-24T07:36:41Z</time>
      </trkpt>
      <trkpt lat="46.05569" lon="6.51599">
        <ele>726</ele>
        <time>2019-05-24T07:36:54Z</time>
      </trkpt>
      <trkpt lat="46.05578" lon="6.51529">
        <ele>732</ele>
        <time>2019-05-24T07:37:03Z</time>
      </trkpt>
      <trkpt lat="46.05602" lon="6.5145">
        <ele>737</ele>
        <time>2019-05-24T07:37:14Z</time>
      </trkpt>
      <trkpt lat="46.05645" lon="6.51368">
        <ele>734</ele>
        <time>2019-05-24T07:37:26Z</time>
      </trkpt>
      <trkpt lat="46.05643" lon="6.51322">
        <ele>747</ele>
        <time>2019-05-24T07:37:32Z</time>
      </trkpt>
      <trkpt lat="46.05663" lon="6.51244">
        <ele>757</ele>
        <time>2019-05-24T07:37:42Z</time>
      </trkpt>
      <trkpt lat="46.05703" lon="6.51071">
        <ele>772</ele>
        <time>2019-05-24T07:38:05Z</time>
      </trkpt>
      <trkpt lat="46.05728" lon="6.5095">
        <ele>775</ele>
        <time>2019-05-24T07:38:20Z</time>
      </trkpt>
      <trkpt lat="46.05754" lon="6.50767">
        <ele>782</ele>
        <time>2019-05-24T07:38:44Z</time>
      </trkpt>
      <trkpt lat="46.05745" lon="6.50663">
        <ele>785</ele>
        <time>2019-05-24T07:38:56Z</time>
      </trkpt>
      <trkpt lat="46.05734" lon="6.50635">
        <ele>790</ele>
        <time>2019-05-24T07:39:00Z</time>
      </trkpt>
      <trkpt lat="46.0568" lon="6.50599">
        <ele>816</ele>
        <time>2019-05-24T07:39:11Z</time>
      </trkpt>
      <trkpt lat="46.05665" lon="6.50544">
        <ele>824</ele>
        <time>2019-05-24T07:39:18Z</time>
      </trkpt>
      <trkpt lat="46.05675" lon="6.5049">
        <ele>821</ele>
        <time>2019-05-24T07:39:25Z</time>
      </trkpt>
      <trkpt lat="46.05666" lon="6.5045">
        <ele>824</ele>
        <time>2019-05-24T07:39:30Z</time>
      </trkpt>
      <trkpt lat="46.05649" lon="6.50393">
        <ele>830</ele>
        <time>2019-05-24T07:39:38Z</time>
      </trkpt>
      <trkpt lat="46.05633" lon="6.5037">
        <ele>836</ele>
        <time>2019-05-24T07:39:42Z</time>
      </trkpt>
      <trkpt lat="46.05622" lon="6.50336">
        <ele>838</ele>
        <time>2019-05-24T07:39:47Z</time>
      </trkpt>
      <trkpt lat="46.05642" lon="6.50312">
        <ele>837</ele>
        <time>2019-05-24T07:39:51Z</time>
      </trkpt>
      <trkpt lat="46.05759" lon="6.50279">
        <ele>827</ele>
        <time>2019-05-24T07:40:13Z</time>
      </trkpt>
      <trkpt lat="46.05777" lon="6.50263">
        <ele>827</ele>
        <time>2019-05-24T07:40:16Z</time>
      </trkpt>
      <trkpt lat="46.05791" lon="6.50236">
        <ele>829</ele>
        <time>2019-05-24T07:40:21Z</time>
      </trkpt>
      <trkpt lat="46.05775" lon="6.50079">
        <ele>849</ele>
        <time>2019-05-24T07:40:40Z</time>
      </trkpt>
      <trkpt lat="46.05767" lon="6.50021">
        <ele>853</ele>
        <time>2019-05-24T07:40:47Z</time>
      </trkpt>
      <trkpt lat="46.05758" lon="6.49975">
        <ele>857</ele>
        <time>2019-05-24T07:40:53Z</time>
      </trkpt>
      <trkpt lat="46.05746" lon="6.4984">
        <ele>865</ele>
        <time>2019-05-24T07:41:10Z</time>
      </trkpt>
      <trkpt lat="46.05748" lon="6.49792">
        <ele>866</ele>
        <time>2019-05-24T07:41:16Z</time>
      </trkpt>
      <trkpt lat="46.05763" lon="6.49718">
        <ele>862</ele>
        <time>2019-05-24T07:41:26Z</time>
      </trkpt>
      <trkpt lat="46.05776" lon="6.49681">
        <ele>858</ele>
        <time>2019-05-24T07:41:31Z</time>
      </trkpt>
      <trkpt lat="46.05781" lon="6.4965">
        <ele>857</ele>
        <time>2019-05-24T07:41:35Z</time>
      </trkpt>
      <trkpt lat="46.05776" lon="6.49562">
        <ele>860</ele>
        <time>2019-05-24T07:41:46Z</time>
      </trkpt>
      <trkpt lat="46.05763" lon="6.49498">
        <ele>864</ele>
        <time>2019-05-24T07:41:54Z</time>
      </trkpt>
      <trkpt lat="46.05759" lon="6.49467">
        <ele>868</ele>
        <time>2019-05-24T07:41:58Z</time>
      </trkpt>
      <trkpt lat="46.05759" lon="6.49442">
        <ele>870</ele>
        <time>2019-05-24T07:42:01Z</time>
      </trkpt>
      <trkpt lat="46.05763" lon="6.49425">
        <ele>871</ele>
        <time>2019-05-24T07:42:03Z</time>
      </trkpt>
      <trkpt lat="46.05788" lon="6.49362">
        <ele>873</ele>
        <time>2019-05-24T07:42:12Z</time>
      </trkpt>
      <trkpt lat="46.05792" lon="6.49343">
        <ele>874</ele>
        <time>2019-05-24T07:42:14Z</time>
      </trkpt>
      <trkpt lat="46.058" lon="6.49289">
        <ele>877</ele>
        <time>2019-05-24T07:42:21Z</time>
      </trkpt>
      <trkpt lat="46.05802" lon="6.49267">
        <ele>878</ele>
        <time>2019-05-24T07:42:24Z</time>
      </trkpt>
      <trkpt lat="46.05801" lon="6.49243">
        <ele>879</ele>
        <time>2019-05-24T07:42:27Z</time>
      </trkpt>
      <trkpt lat="46.05796" lon="6.49215">
        <ele>880</ele>
        <time>2019-05-24T07:42:30Z</time>
      </trkpt>
      <trkpt lat="46.0579" lon="6.49193">
        <ele>881</ele>
        <time>2019-05-24T07:42:33Z</time>
      </trkpt>
      <trkpt lat="46.05782" lon="6.49176">
        <ele>882</ele>
        <time>2019-05-24T07:42:36Z</time>
      </trkpt>
      <trkpt lat="46.05773" lon="6.49164">
        <ele>884</ele>
        <time>2019-05-24T07:42:38Z</time>
      </trkpt>
      <trkpt lat="46.05765" lon="6.49157">
        <ele>884</ele>
        <time>2019-05-24T07:42:40Z</time>
      </trkpt>
      <trkpt lat="46.05739" lon="6.49146">
        <ele>888</ele>
        <time>2019-05-24T07:42:45Z</time>
      </trkpt>
      <trkpt lat="46.05704" lon="6.49139">
        <ele>894</ele>
        <time>2019-05-24T07:42:51Z</time>
      </trkpt>
      <trkpt lat="46.05679" lon="6.49124">
        <ele>899</ele>
        <time>2019-05-24T07:42:56Z</time>
      </trkpt>
      <trkpt lat="46.05672" lon="6.49122">
        <ele>900</ele>
        <time>2019-05-24T07:42:57Z</time>
      </trkpt>
      <trkpt lat="46.05654" lon="6.49126">
        <ele>903</ele>
        <time>2019-05-24T07:43:00Z</time>
      </trkpt>
      <trkpt lat="46.05608" lon="6.49156">
        <ele>906</ele>
        <time>2019-05-24T07:43:09Z</time>
      </trkpt>
      <trkpt lat="46.05596" lon="6.49166">
        <ele>906</ele>
        <time>2019-05-24T07:43:12Z</time>
      </trkpt>
      <trkpt lat="46.05578" lon="6.49189">
        <ele>909</ele>
        <time>2019-05-24T07:43:16Z</time>
      </trkpt>
      <trkpt lat="46.05537" lon="6.49276">
        <ele>918</ele>
        <time>2019-05-24T07:43:29Z</time>
      </trkpt>
      <trkpt lat="46.05515" lon="6.4931">
        <ele>922</ele>
        <time>2019-05-24T07:43:35Z</time>
      </trkpt>
      <trkpt lat="46.05501" lon="6.49314">
        <ele>922</ele>
        <time>2019-05-24T07:43:37Z</time>
      </trkpt>
      <trkpt lat="46.05489" lon="6.49314">
        <ele>924</ele>
        <time>2019-05-24T07:43:39Z</time>
      </trkpt>
      <trkpt lat="46.05476" lon="6.49309">
        <ele>926</ele>
        <time>2019-05-24T07:43:42Z</time>
      </trkpt>
      <trkpt lat="46.05464" lon="6.49298">
        <ele>928</ele>
        <time>2019-05-24T07:43:44Z</time>
      </trkpt>
      <trkpt lat="46.05454" lon="6.49283">
        <ele>929</ele>
        <time>2019-05-24T07:43:47Z</time>
      </trkpt>
      <trkpt lat="46.05448" lon="6.49266">
        <ele>930</ele>
        <time>2019-05-24T07:43:49Z</time>
      </trkpt>
      <trkpt lat="46.05445" lon="6.49246">
        <ele>930</ele>
        <time>2019-05-24T07:43:52Z</time>
      </trkpt>
      <trkpt lat="46.05446" lon="6.49114">
        <ele>935</ele>
        <time>2019-05-24T07:44:08Z</time>
      </trkpt>
      <trkpt lat="46.05458" lon="6.49069">
        <ele>934</ele>
        <time>2019-05-24T07:44:14Z</time>
      </trkpt>
      <trkpt lat="46.05457" lon="6.4904">
        <ele>936</ele>
        <time>2019-05-24T07:44:18Z</time>
      </trkpt>
      <trkpt lat="46.05445" lon="6.49025">
        <ele>938</ele>
        <time>2019-05-24T07:44:20Z</time>
      </trkpt>
      <trkpt lat="46.05411" lon="6.49005">
        <ele>944</ele>
        <time>2019-05-24T07:44:27Z</time>
      </trkpt>
      <trkpt lat="46.054" lon="6.4899">
        <ele>946</ele>
        <time>2019-05-24T07:44:30Z</time>
      </trkpt>
      <trkpt lat="46.05394" lon="6.48972">
        <ele>949</ele>
        <time>2019-05-24T07:44:32Z</time>
      </trkpt>
      <trkpt lat="46.05393" lon="6.4895">
        <ele>951</ele>
        <time>2019-05-24T07:44:35Z</time>
      </trkpt>
      <trkpt lat="46.05417" lon="6.48778">
        <ele>961</ele>
        <time>2019-05-24T07:44:56Z</time>
      </trkpt>
      <trkpt lat="46.05417" lon="6.48746">
        <ele>963</ele>
        <time>2019-05-24T07:45:00Z</time>
      </trkpt>
      <trkpt lat="46.05413" lon="6.48715">
        <ele>966</ele>
        <time>2019-05-24T07:45:04Z</time>
      </trkpt>
      <trkpt lat="46.05393" lon="6.4865">
        <ele>973</ele>
        <time>2019-05-24T07:45:13Z</time>
      </trkpt>
      <trkpt lat="46.05377" lon="6.48618">
        <ele>975</ele>
        <time>2019-05-24T07:45:18Z</time>
      </trkpt>
      <trkpt lat="46.0535" lon="6.48581">
        <ele>977</ele>
        <time>2019-05-24T07:45:25Z</time>
      </trkpt>
      <trkpt lat="46.05303" lon="6.4854">
        <ele>978</ele>
        <time>2019-05-24T07:45:34Z</time>
      </trkpt>
      <trkpt lat="46.05292" lon="6.48527">
        <ele>977</ele>
        <time>2019-05-24T07:45:37Z</time>
      </trkpt>
      <trkpt lat="46.05253" lon="6.48497">
        <ele>977</ele>
        <time>2019-05-24T07:45:45Z</time>
      </trkpt>
      <trkpt lat="46.05229" lon="6.4847">
        <ele>977</ele>
        <time>2019-05-24T07:45:50Z</time>
      </trkpt>
      <trkpt lat="46.05149" lon="6.4839">
        <ele>973</ele>
        <time>2019-05-24T07:46:07Z</time>
      </trkpt>
      <trkpt lat="46.05071" lon="6.48285">
        <ele>969</ele>
        <time>2019-05-24T07:46:26Z</time>
      </trkpt>
      <trkpt lat="46.05053" lon="6.48266">
        <ele>968</ele>
        <time>2019-05-24T07:46:30Z</time>
      </trkpt>
      <trkpt lat="46.05" lon="6.48219">
        <ele>969</ele>
        <time>2019-05-24T07:46:42Z</time>
      </trkpt>
      <trkpt lat="46.0499" lon="6.48196">
        <ele>970</ele>
        <time>2019-05-24T07:46:45Z</time>
      </trkpt>
      <trkpt lat="46.04989" lon="6.48167">
        <ele>970</ele>
        <time>2019-05-24T07:46:48Z</time>
      </trkpt>
      <trkpt lat="46.05024" lon="6.48114">
        <ele>966</ele>
        <time>2019-05-24T07:46:57Z</time>
      </trkpt>
      <trkpt lat="46.05031" lon="6.48093">
        <ele>965</ele>
        <time>2019-05-24T07:47:00Z</time>
      </trkpt>
      <trkpt lat="46.05063" lon="6.47962">
        <ele>964</ele>
        <time>2019-05-24T07:47:18Z</time>
      </trkpt>
      <trkpt lat="46.05065" lon="6.47942">
        <ele>964</ele>
        <time>2019-05-24T07:47:20Z</time>
      </trkpt>
      <trkpt lat="46.05062" lon="6.47925">
        <ele>964</ele>
        <time>2019-05-24T07:47:22Z</time>
      </trkpt>
      <trkpt lat="46.05056" lon="6.4791">
        <ele>965</ele>
        <time>2019-05-24T07:47:24Z</time>
      </trkpt>
      <trkpt lat="46.05043" lon="6.47892">
        <ele>965</ele>
        <time>2019-05-24T07:47:28Z</time>
      </trkpt>
      <trkpt lat="46.05032" lon="6.4788">
        <ele>965</ele>
        <time>2019-05-24T07:47:30Z</time>
      </trkpt>
      <trkpt lat="46.05008" lon="6.47851">
        <ele>963</ele>
        <time>2019-05-24T07:47:36Z</time>
      </trkpt>
      <trkpt lat="46.05002" lon="6.47835">
        <ele>961</ele>
        <time>2019-05-24T07:47:38Z</time>
      </trkpt>
      <trkpt lat="46.05023" lon="6.47798">
        <ele>958</ele>
        <time>2019-05-24T07:47:44Z</time>
      </trkpt>
      <trkpt lat="46.05036" lon="6.47771">
        <ele>957</ele>
        <time>2019-05-24T07:47:48Z</time>
      </trkpt>
      <trkpt lat="46.05039" lon="6.4776">
        <ele>956</ele>
        <time>2019-05-24T07:47:49Z</time>
      </trkpt>
      <trkpt lat="46.05041" lon="6.47744">
        <ele>955</ele>
        <time>2019-05-24T07:47:51Z</time>
      </trkpt>
      <trkpt lat="46.05034" lon="6.47696">
        <ele>955</ele>
        <time>2019-05-24T07:47:57Z</time>
      </trkpt>
      <trkpt lat="46.05036" lon="6.47606">
        <ele>954</ele>
        <time>2019-05-24T07:48:08Z</time>
      </trkpt>
      <trkpt lat="46.0503" lon="6.47529">
        <ele>953</ele>
        <time>2019-05-24T07:48:18Z</time>
      </trkpt>
      <trkpt lat="46.05026" lon="6.475">
        <ele>952</ele>
        <time>2019-05-24T07:48:22Z</time>
      </trkpt>
      <trkpt lat="46.0502" lon="6.47477">
        <ele>951</ele>
        <time>2019-05-24T07:48:25Z</time>
      </trkpt>
      <trkpt lat="46.05009" lon="6.47445">
        <ele>949</ele>
        <time>2019-05-24T07:48:29Z</time>
      </trkpt>
      <trkpt lat="46.04997" lon="6.47423">
        <ele>948</ele>
        <time>2019-05-24T07:48:33Z</time>
      </trkpt>
      <trkpt lat="46.04972" lon="6.47365">
        <ele>949</ele>
        <time>2019-05-24T07:48:41Z</time>
      </trkpt>
      <trkpt lat="46.04959" lon="6.47322">
        <ele>950</ele>
        <time>2019-05-24T07:48:47Z</time>
      </trkpt>
      <trkpt lat="46.04959" lon="6.47298">
        <ele>950</ele>
        <time>2019-05-24T07:48:50Z</time>
      </trkpt>
      <trkpt lat="46.04964" lon="6.47263">
        <ele>950</ele>
        <time>2019-05-24T07:48:54Z</time>
      </trkpt>
      <trkpt lat="46.04935" lon="6.47105">
        <ele>943</ele>
        <time>2019-05-24T07:49:14Z</time>
      </trkpt>
      <trkpt lat="46.04936" lon="6.47083">
        <ele>943</ele>
        <time>2019-05-24T07:49:17Z</time>
      </trkpt>
      <trkpt lat="46.04958" lon="6.47028">
        <ele>944</ele>
        <time>2019-05-24T07:49:25Z</time>
      </trkpt>
      <trkpt lat="46.04961" lon="6.46899">
        <ele>944</ele>
        <time>2019-05-24T07:49:41Z</time>
      </trkpt>
      <trkpt lat="46.04947" lon="6.46812">
        <ele>941</ele>
        <time>2019-05-24T07:49:52Z</time>
      </trkpt>
      <trkpt lat="46.04945" lon="6.4678">
        <ele>940</ele>
        <time>2019-05-24T07:49:56Z</time>
      </trkpt>
      <trkpt lat="46.04948" lon="6.46758">
        <ele>940</ele>
        <time>2019-05-24T07:49:59Z</time>
      </trkpt>
      <trkpt lat="46.04962" lon="6.4672">
        <ele>937</ele>
        <time>2019-05-24T07:50:04Z</time>
      </trkpt>
      <trkpt lat="46.04973" lon="6.46684">
        <ele>933</ele>
        <time>2019-05-24T07:50:09Z</time>
      </trkpt>
      <trkpt lat="46.04977" lon="6.46658">
        <ele>930</ele>
        <time>2019-05-24T07:50:12Z</time>
      </trkpt>
      <trkpt lat="46.04977" lon="6.4659">
        <ele>924</ele>
        <time>2019-05-24T07:50:20Z</time>
      </trkpt>
      <trkpt lat="46.04975" lon="6.46569">
        <ele>923</ele>
        <time>2019-05-24T07:50:23Z</time>
      </trkpt>
      <trkpt lat="46.04968" lon="6.46546">
        <ele>922</ele>
        <time>2019-05-24T07:50:26Z</time>
      </trkpt>
      <trkpt lat="46.04937" lon="6.46494">
        <ele>921</ele>
        <time>2019-05-24T07:50:35Z</time>
      </trkpt>
      <trkpt lat="46.04936" lon="6.46481">
        <ele>920</ele>
        <time>2019-05-24T07:50:36Z</time>
      </trkpt>
      <trkpt lat="46.04945" lon="6.46443">
        <ele>916</ele>
        <time>2019-05-24T07:50:41Z</time>
      </trkpt>
      <trkpt lat="46.04947" lon="6.4642">
        <ele>914</ele>
        <time>2019-05-24T07:50:44Z</time>
      </trkpt>
      <trkpt lat="46.04954" lon="6.46395">
        <ele>912</ele>
        <time>2019-05-24T07:50:47Z</time>
      </trkpt>
      <trkpt lat="46.04988" lon="6.46364">
        <ele>905</ele>
        <time>2019-05-24T07:50:55Z</time>
      </trkpt>
      <trkpt lat="46.05001" lon="6.46342">
        <ele>900</ele>
        <time>2019-05-24T07:50:58Z</time>
      </trkpt>
      <trkpt lat="46.05018" lon="6.46292">
        <ele>894</ele>
        <time>2019-05-24T07:51:05Z</time>
      </trkpt>
      <trkpt lat="46.05022" lon="6.46273">
        <ele>892</ele>
        <time>2019-05-24T07:51:07Z</time>
      </trkpt>
      <trkpt lat="46.05022" lon="6.46259">
        <ele>889</ele>
        <time>2019-05-24T07:51:09Z</time>
      </trkpt>
      <trkpt lat="46.0502" lon="6.46244">
        <ele>886</ele>
        <time>2019-05-24T07:51:11Z</time>
      </trkpt>
      <trkpt lat="46.05009" lon="6.46211">
        <ele>878</ele>
        <time>2019-05-24T07:51:16Z</time>
      </trkpt>
      <trkpt lat="46.0501" lon="6.462">
        <ele>877</ele>
        <time>2019-05-24T07:51:17Z</time>
      </trkpt>
      <trkpt lat="46.05013" lon="6.46188">
        <ele>876</ele>
        <time>2019-05-24T07:51:19Z</time>
      </trkpt>
      <trkpt lat="46.05029" lon="6.46151">
        <ele>873</ele>
        <time>2019-05-24T07:51:24Z</time>
      </trkpt>
      <trkpt lat="46.05035" lon="6.46141">
        <ele>872</ele>
        <time>2019-05-24T07:51:26Z</time>
      </trkpt>
      <trkpt lat="46.05079" lon="6.46091">
        <ele>870</ele>
        <time>2019-05-24T07:51:35Z</time>
      </trkpt>
      <trkpt lat="46.05085" lon="6.46081">
        <ele>869</ele>
        <time>2019-05-24T07:51:37Z</time>
      </trkpt>
      <trkpt lat="46.05094" lon="6.46057">
        <ele>868</ele>
        <time>2019-05-24T07:51:40Z</time>
      </trkpt>
      <trkpt lat="46.05104" lon="6.46011">
        <ele>864</ele>
        <time>2019-05-24T07:51:46Z</time>
      </trkpt>
      <trkpt lat="46.05107" lon="6.45985">
        <ele>861</ele>
        <time>2019-05-24T07:51:50Z</time>
      </trkpt>
      <trkpt lat="46.05105" lon="6.45916">
        <ele>851</ele>
        <time>2019-05-24T07:51:58Z</time>
      </trkpt>
      <trkpt lat="46.05105" lon="6.45892">
        <ele>849</ele>
        <time>2019-05-24T07:52:01Z</time>
      </trkpt>
      <trkpt lat="46.05109" lon="6.45858">
        <ele>847</ele>
        <time>2019-05-24T07:52:05Z</time>
      </trkpt>
      <trkpt lat="46.05105" lon="6.458">
        <ele>839</ele>
        <time>2019-05-24T07:52:13Z</time>
      </trkpt>
      <trkpt lat="46.05105" lon="6.45784">
        <ele>837</ele>
        <time>2019-05-24T07:52:15Z</time>
      </trkpt>
      <trkpt lat="46.05108" lon="6.45759">
        <ele>836</ele>
        <time>2019-05-24T07:52:18Z</time>
      </trkpt>
      <trkpt lat="46.0512" lon="6.45723">
        <ele>838</ele>
        <time>2019-05-24T07:52:23Z</time>
      </trkpt>
      <trkpt lat="46.05124" lon="6.45703">
        <ele>838</ele>
        <time>2019-05-24T07:52:25Z</time>
      </trkpt>
      <trkpt lat="46.05122" lon="6.45656">
        <ele>830</ele>
        <time>2019-05-24T07:52:31Z</time>
      </trkpt>
      <trkpt lat="46.05124" lon="6.45614">
        <ele>822</ele>
        <time>2019-05-24T07:52:36Z</time>
      </trkpt>
      <trkpt lat="46.05122" lon="6.45604">
        <ele>819</ele>
        <time>2019-05-24T07:52:38Z</time>
      </trkpt>
      <trkpt lat="46.05117" lon="6.456">
        <ele>817</ele>
        <time>2019-05-24T07:52:39Z</time>
      </trkpt>
      <trkpt lat="46.05109" lon="6.45601">
        <ele>814</ele>
        <time>2019-05-24T07:52:40Z</time>
      </trkpt>
      <trkpt lat="46.05106" lon="6.45609">
        <ele>815</ele>
        <time>2019-05-24T07:52:41Z</time>
      </trkpt>
      <trkpt lat="46.05106" lon="6.45618">
        <ele>816</ele>
        <time>2019-05-24T07:52:42Z</time>
      </trkpt>
      <trkpt lat="46.0511" lon="6.45642">
        <ele>822</ele>
        <time>2019-05-24T07:52:45Z</time>
      </trkpt>
      <trkpt lat="46.05109" lon="6.45671">
        <ele>826</ele>
        <time>2019-05-24T07:52:49Z</time>
      </trkpt>
      <trkpt lat="46.05113" lon="6.45692">
        <ele>831</ele>
        <time>2019-05-24T07:52:52Z</time>
      </trkpt>
      <trkpt lat="46.05111" lon="6.45706">
        <ele>831</ele>
        <time>2019-05-24T07:52:53Z</time>
      </trkpt>
      <trkpt lat="46.0508" lon="6.45764">
        <ele>823</ele>
        <time>2019-05-24T07:53:02Z</time>
      </trkpt>
      <trkpt lat="46.05076" lon="6.4578">
        <ele>825</ele>
        <time>2019-05-24T07:53:04Z</time>
      </trkpt>
      <trkpt lat="46.05073" lon="6.45815">
        <ele>828</ele>
        <time>2019-05-24T07:53:09Z</time>
      </trkpt>
      <trkpt lat="46.0507" lon="6.45822">
        <ele>829</ele>
        <time>2019-05-24T07:53:10Z</time>
      </trkpt>
      <trkpt lat="46.05062" lon="6.45825">
        <ele>829</ele>
        <time>2019-05-24T07:53:11Z</time>
      </trkpt>
      <trkpt lat="46.05055" lon="6.45821">
        <ele>829</ele>
        <time>2019-05-24T07:53:13Z</time>
      </trkpt>
      <trkpt lat="46.05052" lon="6.45814">
        <ele>829</ele>
        <time>2019-05-24T07:53:14Z</time>
      </trkpt>
      <trkpt lat="46.05053" lon="6.45795">
        <ele>827</ele>
        <time>2019-05-24T07:53:16Z</time>
      </trkpt>
      <trkpt lat="46.05084" lon="6.45694">
        <ele>816</ele>
        <time>2019-05-24T07:53:30Z</time>
      </trkpt>
      <trkpt lat="46.05086" lon="6.45683">
        <ele>816</ele>
        <time>2019-05-24T07:53:31Z</time>
      </trkpt>
      <trkpt lat="46.05085" lon="6.45667">
        <ele>814</ele>
        <time>2019-05-24T07:53:33Z</time>
      </trkpt>
      <trkpt lat="46.05068" lon="6.45598">
        <ele>807</ele>
        <time>2019-05-24T07:53:42Z</time>
      </trkpt>
      <trkpt lat="46.05067" lon="6.45575">
        <ele>804</ele>
        <time>2019-05-24T07:53:45Z</time>
      </trkpt>
      <trkpt lat="46.05069" lon="6.4556">
        <ele>803</ele>
        <time>2019-05-24T07:53:47Z</time>
      </trkpt>
      <trkpt lat="46.05073" lon="6.45548">
        <ele>802</ele>
        <time>2019-05-24T07:53:48Z</time>
      </trkpt>
      <trkpt lat="46.05108" lon="6.45489">
        <ele>795</ele>
        <time>2019-05-24T07:53:58Z</time>
      </trkpt>
      <trkpt lat="46.05114" lon="6.45482">
        <ele>795</ele>
        <time>2019-05-24T07:53:59Z</time>
      </trkpt>
      <trkpt lat="46.05122" lon="6.45478">
        <ele>794</ele>
        <time>2019-05-24T07:54:01Z</time>
      </trkpt>
      <trkpt lat="46.0513" lon="6.4548">
        <ele>794</ele>
        <time>2019-05-24T07:54:02Z</time>
      </trkpt>
      <trkpt lat="46.0514" lon="6.45495">
        <ele>793</ele>
        <time>2019-05-24T07:54:05Z</time>
      </trkpt>
      <trkpt lat="46.05152" lon="6.45487">
        <ele>792</ele>
        <time>2019-05-24T07:54:07Z</time>
      </trkpt>
      <trkpt lat="46.05168" lon="6.45488">
        <ele>791</ele>
        <time>2019-05-24T07:54:10Z</time>
      </trkpt>
      <trkpt lat="46.05179" lon="6.45522">
        <ele>796</ele>
        <time>2019-05-24T07:54:15Z</time>
      </trkpt>
      <trkpt lat="46.05209" lon="6.45542">
        <ele>790</ele>
        <time>2019-05-24T07:54:21Z</time>
      </trkpt>
      <trkpt lat="46.05225" lon="6.45537">
        <ele>780</ele>
        <time>2019-05-24T07:54:24Z</time>
      </trkpt>
      <trkpt lat="46.05234" lon="6.45545">
        <ele>779</ele>
        <time>2019-05-24T07:54:25Z</time>
      </trkpt>
      <trkpt lat="46.05243" lon="6.45571">
        <ele>787</ele>
        <time>2019-05-24T07:54:29Z</time>
      </trkpt>
      <trkpt lat="46.05256" lon="6.45586">
        <ele>788</ele>
        <time>2019-05-24T07:54:32Z</time>
      </trkpt>
      <trkpt lat="46.05299" lon="6.45597">
        <ele>777</ele>
        <time>2019-05-24T07:54:40Z</time>
      </trkpt>
      <trkpt lat="46.0532" lon="6.45611">
        <ele>778</ele>
        <time>2019-05-24T07:54:44Z</time>
      </trkpt>
      <trkpt lat="46.05333" lon="6.4561">
        <ele>772</ele>
        <time>2019-05-24T07:54:46Z</time>
      </trkpt>
      <trkpt lat="46.05348" lon="6.45605">
        <ele>767</ele>
        <time>2019-05-24T07:54:49Z</time>
      </trkpt>
      <trkpt lat="46.05368" lon="6.45617">
        <ele>776</ele>
        <time>2019-05-24T07:54:53Z</time>
      </trkpt>
      <trkpt lat="46.05389" lon="6.4562">
        <ele>778</ele>
        <time>2019-05-24T07:54:57Z</time>
      </trkpt>
      <trkpt lat="46.05396" lon="6.45611">
        <ele>770</ele>
        <time>2019-05-24T07:54:58Z</time>
      </trkpt>
      <trkpt lat="46.05398" lon="6.45598">
        <ele>759</ele>
        <time>2019-05-24T07:55:00Z</time>
      </trkpt>
      <trkpt lat="46.05391" lon="6.45588">
        <ele>751</ele>
        <time>2019-05-24T07:55:02Z</time>
      </trkpt>
      <trkpt lat="46.05368" lon="6.45587">
        <ele>752</ele>
        <time>2019-05-24T07:55:06Z</time>
      </trkpt>
      <trkpt lat="46.05351" lon="6.45593">
        <ele>758</ele>
        <time>2019-05-24T07:55:09Z</time>
      </trkpt>
      <trkpt lat="46.05326" lon="6.45588">
        <ele>759</ele>
        <time>2019-05-24T07:55:13Z</time>
      </trkpt>
      <trkpt lat="46.05287" lon="6.45562">
        <ele>764</ele>
        <time>2019-05-24T07:55:21Z</time>
      </trkpt>
      <trkpt lat="46.05219" lon="6.45484">
        <ele>766</ele>
        <time>2019-05-24T07:55:36Z</time>
      </trkpt>
      <trkpt lat="46.05213" lon="6.45468">
        <ele>769</ele>
        <time>2019-05-24T07:55:39Z</time>
      </trkpt>
      <trkpt lat="46.05221" lon="6.45459">
        <ele>765</ele>
        <time>2019-05-24T07:55:40Z</time>
      </trkpt>
      <trkpt lat="46.05234" lon="6.45462">
        <ele>760</ele>
        <time>2019-05-24T07:55:43Z</time>
      </trkpt>
      <trkpt lat="46.0526" lon="6.45496">
        <ele>748</ele>
        <time>2019-05-24T07:55:49Z</time>
      </trkpt>
      <trkpt lat="46.05321" lon="6.45527">
        <ele>738</ele>
        <time>2019-05-24T07:56:01Z</time>
      </trkpt>
      <trkpt lat="46.0536" lon="6.45532">
        <ele>734</ele>
        <time>2019-05-24T07:56:08Z</time>
      </trkpt>
      <trkpt lat="46.0538" lon="6.45527">
        <ele>732</ele>
        <time>2019-05-24T07:56:11Z</time>
      </trkpt>
      <trkpt lat="46.05391" lon="6.4551">
        <ele>726</ele>
        <time>2019-05-24T07:56:14Z</time>
      </trkpt>
      <trkpt lat="46.05409" lon="6.45473">
        <ele>737</ele>
        <time>2019-05-24T07:56:20Z</time>
      </trkpt>
      <trkpt lat="46.05417" lon="6.45467">
        <ele>740</ele>
        <time>2019-05-24T07:56:21Z</time>
      </trkpt>
      <trkpt lat="46.05446" lon="6.45468">
        <ele>732</ele>
        <time>2019-05-24T07:56:26Z</time>
      </trkpt>
      <trkpt lat="46.05471" lon="6.45481">
        <ele>719</ele>
        <time>2019-05-24T07:56:31Z</time>
      </trkpt>
      <trkpt lat="46.05482" lon="6.45481">
        <ele>717</ele>
        <time>2019-05-24T07:56:33Z</time>
      </trkpt>
      <trkpt lat="46.05556" lon="6.45463">
        <ele>702</ele>
        <time>2019-05-24T07:56:46Z</time>
      </trkpt>
      <trkpt lat="46.05572" lon="6.45455">
        <ele>699</ele>
        <time>2019-05-24T07:56:49Z</time>
      </trkpt>
      <trkpt lat="46.05593" lon="6.45401">
        <ele>704</ele>
        <time>2019-05-24T07:56:57Z</time>
      </trkpt>
      <trkpt lat="46.0561" lon="6.45354">
        <ele>705</ele>
        <time>2019-05-24T07:57:04Z</time>
      </trkpt>
      <trkpt lat="46.05614" lon="6.45326">
        <ele>707</ele>
        <time>2019-05-24T07:57:07Z</time>
      </trkpt>
      <trkpt lat="46.05624" lon="6.45295">
        <ele>703</ele>
        <time>2019-05-24T07:57:11Z</time>
      </trkpt>
      <trkpt lat="46.05627" lon="6.45268">
        <ele>702</ele>
        <time>2019-05-24T07:57:15Z</time>
      </trkpt>
      <trkpt lat="46.05626" lon="6.45246">
        <ele>703</ele>
        <time>2019-05-24T07:57:17Z</time>
      </trkpt>
      <trkpt lat="46.05612" lon="6.45195">
        <ele>714</ele>
        <time>2019-05-24T07:57:24Z</time>
      </trkpt>
      <trkpt lat="46.05623" lon="6.45175">
        <ele>704</ele>
        <time>2019-05-24T07:57:27Z</time>
      </trkpt>
      <trkpt lat="46.05627" lon="6.45116">
        <ele>698</ele>
        <time>2019-05-24T07:57:35Z</time>
      </trkpt>
      <trkpt lat="46.05626" lon="6.45038">
        <ele>714</ele>
        <time>2019-05-24T07:57:44Z</time>
      </trkpt>
      <trkpt lat="46.05645" lon="6.45007">
        <ele>702</ele>
        <time>2019-05-24T07:57:49Z</time>
      </trkpt>
      <trkpt lat="46.05673" lon="6.44967">
        <ele>691</ele>
        <time>2019-05-24T07:57:56Z</time>
      </trkpt>
      <trkpt lat="46.05676" lon="6.44955">
        <ele>696</ele>
        <time>2019-05-24T07:57:58Z</time>
      </trkpt>
      <trkpt lat="46.05688" lon="6.44942">
        <ele>695</ele>
        <time>2019-05-24T07:58:01Z</time>
      </trkpt>
      <trkpt lat="46.05713" lon="6.44939">
        <ele>680</ele>
        <time>2019-05-24T07:58:05Z</time>
      </trkpt>
      <trkpt lat="46.05719" lon="6.44933">
        <ele>678</ele>
        <time>2019-05-24T07:58:06Z</time>
      </trkpt>
      <trkpt lat="46.05726" lon="6.44903">
        <ele>687</ele>
        <time>2019-05-24T07:58:10Z</time>
      </trkpt>
      <trkpt lat="46.05737" lon="6.44895">
        <ele>682</ele>
        <time>2019-05-24T07:58:13Z</time>
      </trkpt>
      <trkpt lat="46.0577" lon="6.44893">
        <ele>664</ele>
        <time>2019-05-24T07:58:18Z</time>
      </trkpt>
      <trkpt lat="46.05789" lon="6.44889">
        <ele>658</ele>
        <time>2019-05-24T07:58:22Z</time>
      </trkpt>
      <trkpt lat="46.05815" lon="6.44872">
        <ele>654</ele>
        <time>2019-05-24T07:58:27Z</time>
      </trkpt>
      <trkpt lat="46.05843" lon="6.4487">
        <ele>642</ele>
        <time>2019-05-24T07:58:32Z</time>
      </trkpt>
      <trkpt lat="46.05854" lon="6.44875">
        <ele>636</ele>
        <time>2019-05-24T07:58:34Z</time>
      </trkpt>
      <trkpt lat="46.05863" lon="6.44882">
        <ele>629</ele>
        <time>2019-05-24T07:58:36Z</time>
      </trkpt>
      <trkpt lat="46.0588" lon="6.44868">
        <ele>626</ele>
        <time>2019-05-24T07:58:39Z</time>
      </trkpt>
      <trkpt lat="46.05888" lon="6.44841">
        <ele>632</ele>
        <time>2019-05-24T07:58:43Z</time>
      </trkpt>
      <trkpt lat="46.05903" lon="6.44819">
        <ele>629</ele>
        <time>2019-05-24T07:58:47Z</time>
      </trkpt>
      <trkpt lat="46.05905" lon="6.44783">
        <ele>630</ele>
        <time>2019-05-24T07:58:51Z</time>
      </trkpt>
      <trkpt lat="46.059" lon="6.44752">
        <ele>635</ele>
        <time>2019-05-24T07:58:55Z</time>
      </trkpt>
      <trkpt lat="46.05871" lon="6.44683">
        <ele>637</ele>
        <time>2019-05-24T07:59:05Z</time>
      </trkpt>
      <trkpt lat="46.05858" lon="6.44658">
        <ele>639</ele>
        <time>2019-05-24T07:59:09Z</time>
      </trkpt>
      <trkpt lat="46.0585" lon="6.44623">
        <ele>637</ele>
        <time>2019-05-24T07:59:13Z</time>
      </trkpt>
      <trkpt lat="46.05836" lon="6.44586">
        <ele>640</ele>
        <time>2019-05-24T07:59:19Z</time>
      </trkpt>
      <trkpt lat="46.05836" lon="6.44572">
        <ele>638</ele>
        <time>2019-05-24T07:59:20Z</time>
      </trkpt>
      <trkpt lat="46.05845" lon="6.44536">
        <ele>629</ele>
        <time>2019-05-24T07:59:25Z</time>
      </trkpt>
      <trkpt lat="46.05849" lon="6.44494">
        <ele>622</ele>
        <time>2019-05-24T07:59:30Z</time>
      </trkpt>
      <trkpt lat="46.05849" lon="6.44468">
        <ele>621</ele>
        <time>2019-05-24T07:59:34Z</time>
      </trkpt>
      <trkpt lat="46.0584" lon="6.44393">
        <ele>620</ele>
        <time>2019-05-24T07:59:43Z</time>
      </trkpt>
      <trkpt lat="46.05832" lon="6.4435">
        <ele>618</ele>
        <time>2019-05-24T07:59:48Z</time>
      </trkpt>
      <trkpt lat="46.05823" lon="6.44315">
        <ele>617</ele>
        <time>2019-05-24T07:59:53Z</time>
      </trkpt>
      <trkpt lat="46.05808" lon="6.44278">
        <ele>616</ele>
        <time>2019-05-24T07:59:58Z</time>
      </trkpt>
      <trkpt lat="46.05797" lon="6.44243">
        <ele>614</ele>
        <time>2019-05-24T08:00:03Z</time>
      </trkpt>
      <trkpt lat="46.05793" lon="6.44225">
        <ele>612</ele>
        <time>2019-05-24T08:00:05Z</time>
      </trkpt>
      <trkpt lat="46.0579" lon="6.4413">
        <ele>601</ele>
        <time>2019-05-24T08:00:17Z</time>
      </trkpt>
      <trkpt lat="46.05794" lon="6.44028">
        <ele>599</ele>
        <time>2019-05-24T08:00:30Z</time>
      </trkpt>
      <trkpt lat="46.05816" lon="6.43974">
        <ele>591</ele>
        <time>2019-05-24T08:00:38Z</time>
      </trkpt>
      <trkpt lat="46.05843" lon="6.43958">
        <ele>579</ele>
        <time>2019-05-24T08:00:43Z</time>
      </trkpt>
      <trkpt lat="46.05856" lon="6.43948">
        <ele>575</ele>
        <time>2019-05-24T08:00:45Z</time>
      </trkpt>
      <trkpt lat="46.05904" lon="6.43867">
        <ele>564</ele>
        <time>2019-05-24T08:00:58Z</time>
      </trkpt>
      <trkpt lat="46.05924" lon="6.43791">
        <ele>564</ele>
        <time>2019-05-24T08:01:09Z</time>
      </trkpt>
      <trkpt lat="46.05949" lon="6.43757">
        <ele>558</ele>
        <time>2019-05-24T08:01:15Z</time>
      </trkpt>
      <trkpt lat="46.05974" lon="6.43694">
        <ele>555</ele>
        <time>2019-05-24T08:01:24Z</time>
      </trkpt>
      <trkpt lat="46.05985" lon="6.4366">
        <ele>552</ele>
        <time>2019-05-24T08:01:28Z</time>
      </trkpt>
      <trkpt lat="46.05999" lon="6.43635">
        <ele>545</ele>
        <time>2019-05-24T08:01:32Z</time>
      </trkpt>
      <trkpt lat="46.06015" lon="6.43618">
        <ele>541</ele>
        <time>2019-05-24T08:01:36Z</time>
      </trkpt>
      <trkpt lat="46.06035" lon="6.43606">
        <ele>536</ele>
        <time>2019-05-24T08:01:40Z</time>
      </trkpt>
      <trkpt lat="46.06043" lon="6.43617">
        <ele>533</ele>
        <time>2019-05-24T08:01:42Z</time>
      </trkpt>
      <trkpt lat="46.06041" lon="6.43632">
        <ele>532</ele>
        <time>2019-05-24T08:01:43Z</time>
      </trkpt>
      <trkpt lat="46.06023" lon="6.4365">
        <ele>537</ele>
        <time>2019-05-24T08:01:47Z</time>
      </trkpt>
      <trkpt lat="46.06011" lon="6.4368">
        <ele>538</ele>
        <time>2019-05-24T08:01:52Z</time>
      </trkpt>
      <trkpt lat="46.0601" lon="6.4369">
        <ele>537</ele>
        <time>2019-05-24T08:01:53Z</time>
      </trkpt>
      <trkpt lat="46.06017" lon="6.43773">
        <ele>528</ele>
        <time>2019-05-24T08:02:03Z</time>
      </trkpt>
      <trkpt lat="46.06029" lon="6.43823">
        <ele>521</ele>
        <time>2019-05-24T08:02:10Z</time>
      </trkpt>
      <trkpt lat="46.06041" lon="6.43855">
        <ele>516</ele>
        <time>2019-05-24T08:02:14Z</time>
      </trkpt>
      <trkpt lat="46.06057" lon="6.43965">
        <ele>506</ele>
        <time>2019-05-24T08:02:28Z</time>
      </trkpt>
      <trkpt lat="46.06052" lon="6.43995">
        <ele>505</ele>
        <time>2019-05-24T08:02:32Z</time>
      </trkpt>
      <trkpt lat="46.06044" lon="6.44096">
        <ele>494</ele>
        <time>2019-05-24T08:02:44Z</time>
      </trkpt>
      <trkpt lat="46.0604" lon="6.44124">
        <ele>494</ele>
        <time>2019-05-24T08:02:48Z</time>
      </trkpt>
      <trkpt lat="46.06042" lon="6.44148">
        <ele>493</ele>
        <time>2019-05-24T08:02:51Z</time>
      </trkpt>
      <trkpt lat="46.06046" lon="6.44156">
        <ele>492</ele>
        <time>2019-05-24T08:02:52Z</time>
      </trkpt>
      <trkpt lat="46.06054" lon="6.44164">
        <ele>489</ele>
        <time>2019-05-24T08:02:54Z</time>
      </trkpt>
      <trkpt lat="46.0608" lon="6.44181">
        <ele>481</ele>
        <time>2019-05-24T08:02:59Z</time>
      </trkpt>
      <trkpt lat="46.06164" lon="6.44226">
        <ele>475</ele>
        <time>2019-05-24T08:03:15Z</time>
      </trkpt>
      <trkpt lat="46.0619" lon="6.44232">
        <ele>474</ele>
        <time>2019-05-24T08:03:20Z</time>
      </trkpt>
      <trkpt lat="46.06224" lon="6.44219">
        <ele>472</ele>
        <time>2019-05-24T08:03:26Z</time>
      </trkpt>
      <trkpt lat="46.06243" lon="6.44216">
        <ele>471</ele>
        <time>2019-05-24T08:03:29Z</time>
      </trkpt>
      <trkpt lat="46.06255" lon="6.44208">
        <ele>470</ele>
        <time>2019-05-24T08:03:32Z</time>
      </trkpt>
      <trkpt lat="46.06276" lon="6.44163">
        <ele>468</ele>
        <time>2019-05-24T08:03:38Z</time>
      </trkpt>
      <trkpt lat="46.063" lon="6.44167">
        <ele>467</ele>
        <time>2019-05-24T08:03:43Z</time>
      </trkpt>
      <trkpt lat="46.06345" lon="6.44195">
        <ele>466</ele>
        <time>2019-05-24T08:03:51Z</time>
      </trkpt>
      <trkpt lat="46.06387" lon="6.44212">
        <ele>465</ele>
        <time>2019-05-24T08:03:59Z</time>
      </trkpt>
      <trkpt lat="46.06389" lon="6.44115">
        <ele>463</ele>
        <time>2019-05-24T08:04:11Z</time>
      </trkpt>
      <trkpt lat="46.06394" lon="6.43951">
        <ele>460</ele>
        <time>2019-05-24T08:04:31Z</time>
      </trkpt>
      <trkpt lat="46.06396" lon="6.43928">
        <ele>459</ele>
        <time>2019-05-24T08:04:34Z</time>
      </trkpt>
      <trkpt lat="46.06402" lon="6.43896">
        <ele>458</ele>
        <time>2019-05-24T08:04:38Z</time>
      </trkpt>
      <trkpt lat="46.06434" lon="6.4381">
        <ele>457</ele>
        <time>2019-05-24T08:04:50Z</time>
      </trkpt>
      <trkpt lat="46.06461" lon="6.43724">
        <ele>456</ele>
        <time>2019-05-24T08:05:02Z</time>
      </trkpt>
      <trkpt lat="46.06471" lon="6.4371">
        <ele>455</ele>
        <time>2019-05-24T08:05:05Z</time>
      </trkpt>
      <trkpt lat="46.06486" lon="6.43701">
        <ele>454</ele>
        <time>2019-05-24T08:05:07Z</time>
      </trkpt>
      <trkpt lat="46.06525" lon="6.43687">
        <ele>453</ele>
        <time>2019-05-24T08:05:15Z</time>
      </trkpt>
      <trkpt lat="46.06534" lon="6.43675">
        <ele>453</ele>
        <time>2019-05-24T08:05:17Z</time>
      </trkpt>
      <trkpt lat="46.0654" lon="6.43658">
        <ele>452</ele>
        <time>2019-05-24T08:05:19Z</time>
      </trkpt>
      <trkpt lat="46.06541" lon="6.43545">
        <ele>452</ele>
        <time>2019-05-24T08:05:33Z</time>
      </trkpt>
      <trkpt lat="46.06545" lon="6.4351">
        <ele>452</ele>
        <time>2019-05-24T08:05:37Z</time>
      </trkpt>
      <trkpt lat="46.06553" lon="6.43476">
        <ele>451</ele>
        <time>2019-05-24T08:05:42Z</time>
      </trkpt>
      <trkpt lat="46.0659" lon="6.43374">
        <ele>450</ele>
        <time>2019-05-24T08:05:56Z</time>
      </trkpt>
      <trkpt lat="46.06626" lon="6.43253">
        <ele>450</ele>
        <time>2019-05-24T08:06:12Z</time>
      </trkpt>
      <trkpt lat="46.0663" lon="6.43235">
        <ele>450</ele>
        <time>2019-05-24T08:06:15Z</time>
      </trkpt>
      <trkpt lat="46.06655" lon="6.43061">
        <ele>450</ele>
        <time>2019-05-24T08:06:37Z</time>
      </trkpt>
      <trkpt lat="46.06658" lon="6.43025">
        <ele>450</ele>
        <time>2019-05-24T08:06:41Z</time>
      </trkpt>
      <trkpt lat="46.06653" lon="6.42949">
        <ele>451</ele>
        <time>2019-05-24T08:06:50Z</time>
      </trkpt>
      <trkpt lat="46.06645" lon="6.42893">
        <ele>451</ele>
        <time>2019-05-24T08:06:58Z</time>
      </trkpt>
      <trkpt lat="46.06646" lon="6.42839">
        <ele>450</ele>
        <time>2019-05-24T08:07:04Z</time>
      </trkpt>
      <trkpt lat="46.06652" lon="6.42764">
        <ele>449</ele>
        <time>2019-05-24T08:07:14Z</time>
      </trkpt>
      <trkpt lat="46.06651" lon="6.42639">
        <ele>450</ele>
        <time>2019-05-24T08:07:29Z</time>
      </trkpt>
      <trkpt lat="46.06645" lon="6.42588">
        <ele>449</ele>
        <time>2019-05-24T08:07:35Z</time>
      </trkpt>
      <trkpt lat="46.06623" lon="6.42489">
        <ele>450</ele>
        <time>2019-05-24T08:07:48Z</time>
      </trkpt>
      <trkpt lat="46.0662" lon="6.4246">
        <ele>450</ele>
        <time>2019-05-24T08:07:52Z</time>
      </trkpt>
      <trkpt lat="46.06625" lon="6.42422">
        <ele>449</ele>
        <time>2019-05-24T08:07:57Z</time>
      </trkpt>
      <trkpt lat="46.06635" lon="6.42394">
        <ele>449</ele>
        <time>2019-05-24T08:08:00Z</time>
      </trkpt>
      <trkpt lat="46.06648" lon="6.42369">
        <ele>449</ele>
        <time>2019-05-24T08:08:04Z</time>
      </trkpt>
      <trkpt lat="46.06664" lon="6.42352">
        <ele>450</ele>
        <time>2019-05-24T08:08:08Z</time>
      </trkpt>
      <trkpt lat="46.06747" lon="6.42298">
        <ele>450</ele>
        <time>2019-05-24T08:08:24Z</time>
      </trkpt>
      <trkpt lat="46.06881" lon="6.42218">
        <ele>449</ele>
        <time>2019-05-24T08:08:50Z</time>
      </trkpt>
      <trkpt lat="46.06901" lon="6.42199">
        <ele>448</ele>
        <time>2019-05-24T08:08:54Z</time>
      </trkpt>
      <trkpt lat="46.0692" lon="6.42168">
        <ele>448</ele>
        <time>2019-05-24T08:08:59Z</time>
      </trkpt>
      <trkpt lat="46.06927" lon="6.42144">
        <ele>448</ele>
        <time>2019-05-24T08:09:02Z</time>
      </trkpt>
      <trkpt lat="46.06944" lon="6.41989">
        <ele>448</ele>
        <time>2019-05-24T08:09:22Z</time>
      </trkpt>
      <trkpt lat="46.06987" lon="6.42002">
        <ele>448</ele>
        <time>2019-05-24T08:09:30Z</time>
      </trkpt>
      <trkpt lat="46.07063" lon="6.42017">
        <ele>448</ele>
        <time>2019-05-24T08:09:43Z</time>
      </trkpt>
      <trkpt lat="46.07167" lon="6.42033">
        <ele>448</ele>
        <time>2019-05-24T08:10:02Z</time>
      </trkpt>
      <trkpt lat="46.07164" lon="6.42061">
        <ele>447</ele>
        <time>2019-05-24T08:10:05Z</time>
      </trkpt>
      <trkpt lat="46.0717" lon="6.42212">
        <ele>447</ele>
        <time>2019-05-24T08:10:24Z</time>
      </trkpt>
      <trkpt lat="46.07164" lon="6.42306">
        <ele>448</ele>
        <time>2019-05-24T08:10:36Z</time>
      </trkpt>
      <trkpt lat="46.07139" lon="6.42518">
        <ele>448</ele>
        <time>2019-05-24T08:11:02Z</time>
      </trkpt>
      <trkpt lat="46.07131" lon="6.42553">
        <ele>448</ele>
        <time>2019-05-24T08:11:07Z</time>
      </trkpt>
      <trkpt lat="46.07124" lon="6.4257">
        <ele>447</ele>
        <time>2019-05-24T08:11:09Z</time>
      </trkpt>
      <trkpt lat="46.0712" lon="6.42573">
        <ele>447</ele>
        <time>2019-05-24T08:11:10Z</time>
      </trkpt>
      <trkpt lat="46.07115" lon="6.42579">
        <ele>447</ele>
        <time>2019-05-24T08:11:11Z</time>
      </trkpt>
      <trkpt lat="46.07111" lon="6.42593">
        <ele>447</ele>
        <time>2019-05-24T08:11:13Z</time>
      </trkpt>
      <trkpt lat="46.07112" lon="6.42602">
        <ele>447</ele>
        <time>2019-05-24T08:11:14Z</time>
      </trkpt>
      <trkpt lat="46.07114" lon="6.4261">
        <ele>447</ele>
        <time>2019-05-24T08:11:15Z</time>
      </trkpt>
      <trkpt lat="46.07118" lon="6.42617">
        <ele>447</ele>
        <time>2019-05-24T08:11:16Z</time>
      </trkpt>
      <trkpt lat="46.07122" lon="6.4262">
        <ele>447</ele>
        <time>2019-05-24T08:11:17Z</time>
      </trkpt>
      <trkpt lat="46.07131" lon="6.42622">
        <ele>447</ele>
        <time>2019-05-24T08:11:19Z</time>
      </trkpt>
      <trkpt lat="46.07141" lon="6.42617">
        <ele>447</ele>
        <time>2019-05-24T08:11:21Z</time>
      </trkpt>
      <trkpt lat="46.07146" lon="6.42609">
        <ele>447</ele>
        <time>2019-05-24T08:11:22Z</time>
      </trkpt>
      <trkpt lat="46.07176" lon="6.42606">
        <ele>448</ele>
        <time>2019-05-24T08:11:27Z</time>
      </trkpt>
      <trkpt lat="46.07248" lon="6.42633">
        <ele>447</ele>
        <time>2019-05-24T08:11:41Z</time>
      </trkpt>
      <trkpt lat="46.07283" lon="6.42652">
        <ele>448</ele>
        <time>2019-05-24T08:11:47Z</time>
      </trkpt>
      <trkpt lat="46.07313" lon="6.42679">
        <ele>449</ele>
        <time>2019-05-24T08:11:54Z</time>
      </trkpt>
      <trkpt lat="46.07316" lon="6.42692">
        <ele>449</ele>
        <time>2019-05-24T08:11:55Z</time>
      </trkpt>
      <trkpt lat="46.0732" lon="6.42699">
        <ele>449</ele>
        <time>2019-05-24T08:11:56Z</time>
      </trkpt>
      <trkpt lat="46.07326" lon="6.42704">
        <ele>449</ele>
        <time>2019-05-24T08:11:58Z</time>
      </trkpt>
      <trkpt lat="46.07338" lon="6.42704">
        <ele>449</ele>
        <time>2019-05-24T08:12:00Z</time>
      </trkpt>
      <trkpt lat="46.07345" lon="6.42698">
        <ele>449</ele>
        <time>2019-05-24T08:12:01Z</time>
      </trkpt>
      <trkpt lat="46.07354" lon="6.42698">
        <ele>449</ele>
        <time>2019-05-24T08:12:03Z</time>
      </trkpt>
      <trkpt lat="46.07376" lon="6.42703">
        <ele>449</ele>
        <time>2019-05-24T08:12:07Z</time>
      </trkpt>
      <trkpt lat="46.07454" lon="6.42743">
        <ele>450</ele>
        <time>2019-05-24T08:12:21Z</time>
      </trkpt>
      <trkpt lat="46.07489" lon="6.42754">
        <ele>450</ele>
        <time>2019-05-24T08:12:28Z</time>
      </trkpt>
      <trkpt lat="46.07627" lon="6.42777">
        <ele>450</ele>
        <time>2019-05-24T08:12:53Z</time>
      </trkpt>
      <trkpt lat="46.07649" lon="6.4279">
        <ele>450</ele>
        <time>2019-05-24T08:12:57Z</time>
      </trkpt>
      <trkpt lat="46.07653" lon="6.42775">
        <ele>450</ele>
        <time>2019-05-24T08:12:59Z</time>
      </trkpt>
      <trkpt lat="46.07668" lon="6.42758">
        <ele>450</ele>
        <time>2019-05-24T08:13:02Z</time>
      </trkpt>
      <trkpt lat="46.0768" lon="6.42755">
        <ele>450</ele>
        <time>2019-05-24T08:13:04Z</time>
      </trkpt>
      <trkpt lat="46.07674" lon="6.42712">
        <ele>450</ele>
        <time>2019-05-24T08:13:10Z</time>
      </trkpt>
      <trkpt lat="46.07672" lon="6.42679">
        <ele>450</ele>
        <time>2019-05-24T08:13:14Z</time>
      </trkpt>
      <trkpt lat="46.07682" lon="6.42572">
        <ele>450</ele>
        <time>2019-05-24T08:13:27Z</time>
      </trkpt>
      <trkpt lat="46.07684" lon="6.42536">
        <ele>450</ele>
        <time>2019-05-24T08:13:32Z</time>
      </trkpt>
      <trkpt lat="46.07693" lon="6.42483">
        <ele>450</ele>
        <time>2019-05-24T08:13:38Z</time>
      </trkpt>
      <trkpt lat="46.07707" lon="6.42439">
        <ele>450</ele>
        <time>2019-05-24T08:13:44Z</time>
      </trkpt>
      <trkpt lat="46.07721" lon="6.42411">
        <ele>450</ele>
        <time>2019-05-24T08:13:49Z</time>
      </trkpt>
      <trkpt lat="46.07854" lon="6.42178">
        <ele>451</ele>
        <time>2019-05-24T08:14:26Z</time>
      </trkpt>
      <trkpt lat="46.07884" lon="6.42136">
        <ele>451</ele>
        <time>2019-05-24T08:14:33Z</time>
      </trkpt>
      <trkpt lat="46.0789" lon="6.42125">
        <ele>451</ele>
        <time>2019-05-24T08:14:35Z</time>
      </trkpt>
      <trkpt lat="46.079" lon="6.42096">
        <ele>451</ele>
        <time>2019-05-24T08:14:39Z</time>
      </trkpt>
      <trkpt lat="46.07901" lon="6.42088">
        <ele>451</ele>
        <time>2019-05-24T08:14:40Z</time>
      </trkpt>
      <trkpt lat="46.07934" lon="6.42102">
        <ele>452</ele>
        <time>2019-05-24T08:14:46Z</time>
      </trkpt>
      <trkpt lat="46.07942" lon="6.42108">
        <ele>453</ele>
        <time>2019-05-24T08:14:48Z</time>
      </trkpt>
      <trkpt lat="46.0795" lon="6.42115">
        <ele>454</ele>
        <time>2019-05-24T08:14:49Z</time>
      </trkpt>
      <trkpt lat="46.07962" lon="6.4213">
        <ele>455</ele>
        <time>2019-05-24T08:14:52Z</time>
      </trkpt>
      <trkpt lat="46.07972" lon="6.42152">
        <ele>456</ele>
        <time>2019-05-24T08:14:55Z</time>
      </trkpt>
      <trkpt lat="46.08027" lon="6.42311">
        <ele>455</ele>
        <time>2019-05-24T08:15:17Z</time>
      </trkpt>
      <trkpt lat="46.08035" lon="6.42342">
        <ele>455</ele>
        <time>2019-05-24T08:15:21Z</time>
      </trkpt>
      <trkpt lat="46.08038" lon="6.42367">
        <ele>454</ele>
        <time>2019-05-24T08:15:25Z</time>
      </trkpt>
      <trkpt lat="46.08068" lon="6.4266">
        <ele>453</ele>
        <time>2019-05-24T08:16:01Z</time>
      </trkpt>
      <trkpt lat="46.08078" lon="6.4271">
        <ele>452</ele>
        <time>2019-05-24T08:16:08Z</time>
      </trkpt>
      <trkpt lat="46.081" lon="6.42794">
        <ele>454</ele>
        <time>2019-05-24T08:16:19Z</time>
      </trkpt>
      <trkpt lat="46.08133" lon="6.4291">
        <ele>454</ele>
        <time>2019-05-24T08:16:34Z</time>
      </trkpt>
      <trkpt lat="46.08163" lon="6.42981">
        <ele>454</ele>
        <time>2019-05-24T08:16:44Z</time>
      </trkpt>
      <trkpt lat="46.08192" lon="6.43003">
        <ele>456</ele>
        <time>2019-05-24T08:16:50Z</time>
      </trkpt>
      <trkpt lat="46.08225" lon="6.43017">
        <ele>460</ele>
        <time>2019-05-24T08:16:56Z</time>
      </trkpt>
      <trkpt lat="46.08274" lon="6.43033">
        <ele>466</ele>
        <time>2019-05-24T08:17:05Z</time>
      </trkpt>
      <trkpt lat="46.08287" lon="6.43044">
        <ele>468</ele>
        <time>2019-05-24T08:17:08Z</time>
      </trkpt>
      <trkpt lat="46.08299" lon="6.43069">
        <ele>469</ele>
        <time>2019-05-24T08:17:12Z</time>
      </trkpt>
      <trkpt lat="46.08352" lon="6.43222">
        <ele>472</ele>
        <time>2019-05-24T08:17:33Z</time>
      </trkpt>
      <trkpt lat="46.08381" lon="6.43278">
        <ele>474</ele>
        <time>2019-05-24T08:17:41Z</time>
      </trkpt>
      <trkpt lat="46.08387" lon="6.43397">
        <ele>472</ele>
        <time>2019-05-24T08:17:56Z</time>
      </trkpt>
      <trkpt lat="46.08373" lon="6.43481">
        <ele>474</ele>
        <time>2019-05-24T08:18:07Z</time>
      </trkpt>
      <trkpt lat="46.08332" lon="6.43608">
        <ele>479</ele>
        <time>2019-05-24T08:18:24Z</time>
      </trkpt>
      <trkpt lat="46.08264" lon="6.43688">
        <ele>484</ele>
        <time>2019-05-24T08:18:40Z</time>
      </trkpt>
      <trkpt lat="46.08255" lon="6.43695">
        <ele>484</ele>
        <time>2019-05-24T08:18:42Z</time>
      </trkpt>
      <trkpt lat="46.08246" lon="6.4372">
        <ele>485</ele>
        <time>2019-05-24T08:18:45Z</time>
      </trkpt>
      <trkpt lat="46.08213" lon="6.43913">
        <ele>482</ele>
        <time>2019-05-24T08:19:10Z</time>
      </trkpt>
      <trkpt lat="46.08203" lon="6.4395">
        <ele>481</ele>
        <time>2019-05-24T08:19:14Z</time>
      </trkpt>
      <trkpt lat="46.08149" lon="6.44112">
        <ele>483</ele>
        <time>2019-05-24T08:19:37Z</time>
      </trkpt>
      <trkpt lat="46.08147" lon="6.44142">
        <ele>484</ele>
        <time>2019-05-24T08:19:40Z</time>
      </trkpt>
      <trkpt lat="46.0815" lon="6.4419">
        <ele>487</ele>
        <time>2019-05-24T08:19:46Z</time>
      </trkpt>
      <trkpt lat="46.08146" lon="6.44258">
        <ele>491</ele>
        <time>2019-05-24T08:19:55Z</time>
      </trkpt>
      <trkpt lat="46.08179" lon="6.4438">
        <ele>498</ele>
        <time>2019-05-24T08:20:11Z</time>
      </trkpt>
      <trkpt lat="46.0818" lon="6.44404">
        <ele>499</ele>
        <time>2019-05-24T08:20:14Z</time>
      </trkpt>
      <trkpt lat="46.08109" lon="6.44731">
        <ele>514</ele>
        <time>2019-05-24T08:20:56Z</time>
      </trkpt>
      <trkpt lat="46.08166" lon="6.4475">
        <ele>520</ele>
        <time>2019-05-24T08:21:07Z</time>
      </trkpt>
      <trkpt lat="46.08206" lon="6.4474">
        <ele>524</ele>
        <time>2019-05-24T08:21:14Z</time>
      </trkpt>
      <trkpt lat="46.08268" lon="6.44734">
        <ele>530</ele>
        <time>2019-05-24T08:21:25Z</time>
      </trkpt>
      <trkpt lat="46.08288" lon="6.4474">
        <ele>533</ele>
        <time>2019-05-24T08:21:28Z</time>
      </trkpt>
      <trkpt lat="46.08322" lon="6.44745">
        <ele>537</ele>
        <time>2019-05-24T08:21:35Z</time>
      </trkpt>
      <trkpt lat="46.08356" lon="6.44738">
        <ele>542</ele>
        <time>2019-05-24T08:21:41Z</time>
      </trkpt>
      <trkpt lat="46.08393" lon="6.44716">
        <ele>549</ele>
        <time>2019-05-24T08:21:48Z</time>
      </trkpt>
      <trkpt lat="46.08416" lon="6.44697">
        <ele>553</ele>
        <time>2019-05-24T08:21:53Z</time>
      </trkpt>
      <trkpt lat="46.0842" lon="6.4468">
        <ele>554</ele>
        <time>2019-05-24T08:21:55Z</time>
      </trkpt>
      <trkpt lat="46.08421" lon="6.4461">
        <ele>554</ele>
        <time>2019-05-24T08:22:03Z</time>
      </trkpt>
      <trkpt lat="46.08426" lon="6.44571">
        <ele>555</ele>
        <time>2019-05-24T08:22:08Z</time>
      </trkpt>
      <trkpt lat="46.08442" lon="6.44497">
        <ele>555</ele>
        <time>2019-05-24T08:22:18Z</time>
      </trkpt>
      <trkpt lat="46.08457" lon="6.44461">
        <ele>557</ele>
        <time>2019-05-24T08:22:23Z</time>
      </trkpt>
      <trkpt lat="46.08467" lon="6.44457">
        <ele>560</ele>
        <time>2019-05-24T08:22:25Z</time>
      </trkpt>
      <trkpt lat="46.08479" lon="6.4447">
        <ele>566</ele>
        <time>2019-05-24T08:22:28Z</time>
      </trkpt>
      <trkpt lat="46.08466" lon="6.44592">
        <ele>568</ele>
        <time>2019-05-24T08:22:43Z</time>
      </trkpt>
      <trkpt lat="46.0847" lon="6.44616">
        <ele>570</ele>
        <time>2019-05-24T08:22:46Z</time>
      </trkpt>
      <trkpt lat="46.08486" lon="6.44653">
        <ele>575</ele>
        <time>2019-05-24T08:22:51Z</time>
      </trkpt>
      <trkpt lat="46.08497" lon="6.44726">
        <ele>577</ele>
        <time>2019-05-24T08:23:00Z</time>
      </trkpt>
      <trkpt lat="46.08518" lon="6.44807">
        <ele>586</ele>
        <time>2019-05-24T08:23:11Z</time>
      </trkpt>
      <trkpt lat="46.08545" lon="6.44835">
        <ele>596</ele>
        <time>2019-05-24T08:23:17Z</time>
      </trkpt>
      <trkpt lat="46.08524" lon="6.44922">
        <ele>599</ele>
        <time>2019-05-24T08:23:28Z</time>
      </trkpt>
      <trkpt lat="46.0851" lon="6.45043">
        <ele>605</ele>
        <time>2019-05-24T08:23:44Z</time>
      </trkpt>
      <trkpt lat="46.08503" lon="6.45073">
        <ele>605</ele>
        <time>2019-05-24T08:23:47Z</time>
      </trkpt>
      <trkpt lat="46.08476" lon="6.45144">
        <ele>609</ele>
        <time>2019-05-24T08:23:57Z</time>
      </trkpt>
      <trkpt lat="46.08467" lon="6.45175">
        <ele>612</ele>
        <time>2019-05-24T08:24:02Z</time>
      </trkpt>
      <trkpt lat="46.08469" lon="6.45197">
        <ele>617</ele>
        <time>2019-05-24T08:24:04Z</time>
      </trkpt>
      <trkpt lat="46.08465" lon="6.45226">
        <ele>623</ele>
        <time>2019-05-24T08:24:08Z</time>
      </trkpt>
      <trkpt lat="46.08455" lon="6.45246">
        <ele>627</ele>
        <time>2019-05-24T08:24:11Z</time>
      </trkpt>
      <trkpt lat="46.08448" lon="6.45252">
        <ele>628</ele>
        <time>2019-05-24T08:24:12Z</time>
      </trkpt>
      <trkpt lat="46.08423" lon="6.45245">
        <ele>625</ele>
        <time>2019-05-24T08:24:17Z</time>
      </trkpt>
      <trkpt lat="46.0839" lon="6.45246">
        <ele>621</ele>
        <time>2019-05-24T08:24:23Z</time>
      </trkpt>
      <trkpt lat="46.0836" lon="6.45262">
        <ele>622</ele>
        <time>2019-05-24T08:24:29Z</time>
      </trkpt>
      <trkpt lat="46.08296" lon="6.45312">
        <ele>631</ele>
        <time>2019-05-24T08:24:41Z</time>
      </trkpt>
      <trkpt lat="46.08284" lon="6.45337">
        <ele>635</ele>
        <time>2019-05-24T08:24:45Z</time>
      </trkpt>
      <trkpt lat="46.08269" lon="6.45383">
        <ele>636</ele>
        <time>2019-05-24T08:24:51Z</time>
      </trkpt>
      <trkpt lat="46.0827" lon="6.45404">
        <ele>637</ele>
        <time>2019-05-24T08:24:54Z</time>
      </trkpt>
      <trkpt lat="46.08278" lon="6.45424">
        <ele>640</ele>
        <time>2019-05-24T08:24:57Z</time>
      </trkpt>
      <trkpt lat="46.08313" lon="6.45455">
        <ele>646</ele>
        <time>2019-05-24T08:25:04Z</time>
      </trkpt>
      <trkpt lat="46.08349" lon="6.45502">
        <ele>654</ele>
        <time>2019-05-24T08:25:13Z</time>
      </trkpt>
      <trkpt lat="46.08356" lon="6.45528">
        <ele>659</ele>
        <time>2019-05-24T08:25:16Z</time>
      </trkpt>
      <trkpt lat="46.08357" lon="6.45556">
        <ele>662</ele>
        <time>2019-05-24T08:25:20Z</time>
      </trkpt>
      <trkpt lat="46.08357" lon="6.45591">
        <ele>666</ele>
        <time>2019-05-24T08:25:24Z</time>
      </trkpt>
      <trkpt lat="46.08331" lon="6.45649">
        <ele>663</ele>
        <time>2019-05-24T08:25:33Z</time>
      </trkpt>
      <trkpt lat="46.08319" lon="6.45754">
        <ele>673</ele>
        <time>2019-05-24T08:25:46Z</time>
      </trkpt>
      <trkpt lat="46.08285" lon="6.45837">
        <ele>673</ele>
        <time>2019-05-24T08:25:58Z</time>
      </trkpt>
      <trkpt lat="46.08278" lon="6.45883">
        <ele>673</ele>
        <time>2019-05-24T08:26:03Z</time>
      </trkpt>
      <trkpt lat="46.08285" lon="6.45908">
        <ele>677</ele>
        <time>2019-05-24T08:26:07Z</time>
      </trkpt>
      <trkpt lat="46.08332" lon="6.45962">
        <ele>693</ele>
        <time>2019-05-24T08:26:18Z</time>
      </trkpt>
      <trkpt lat="46.08347" lon="6.45958">
        <ele>699</ele>
        <time>2019-05-24T08:26:20Z</time>
      </trkpt>
      <trkpt lat="46.08358" lon="6.45949">
        <ele>703</ele>
        <time>2019-05-24T08:26:22Z</time>
      </trkpt>
      <trkpt lat="46.08426" lon="6.45738">
        <ele>709</ele>
        <time>2019-05-24T08:26:51Z</time>
      </trkpt>
      <trkpt lat="46.08449" lon="6.45686">
        <ele>707</ele>
        <time>2019-05-24T08:26:59Z</time>
      </trkpt>
      <trkpt lat="46.08462" lon="6.45684">
        <ele>709</ele>
        <time>2019-05-24T08:27:01Z</time>
      </trkpt>
      <trkpt lat="46.08513" lon="6.4575">
        <ele>721</ele>
        <time>2019-05-24T08:27:13Z</time>
      </trkpt>
      <trkpt lat="46.08531" lon="6.4577">
        <ele>725</ele>
        <time>2019-05-24T08:27:17Z</time>
      </trkpt>
      <trkpt lat="46.08559" lon="6.45786">
        <ele>730</ele>
        <time>2019-05-24T08:27:23Z</time>
      </trkpt>
      <trkpt lat="46.08577" lon="6.45787">
        <ele>733</ele>
        <time>2019-05-24T08:27:26Z</time>
      </trkpt>
      <trkpt lat="46.08635" lon="6.45752">
        <ele>733</ele>
        <time>2019-05-24T08:27:37Z</time>
      </trkpt>
      <trkpt lat="46.0866" lon="6.45759">
        <ele>735</ele>
        <time>2019-05-24T08:27:42Z</time>
      </trkpt>
      <trkpt lat="46.08674" lon="6.45788">
        <ele>740</ele>
        <time>2019-05-24T08:27:46Z</time>
      </trkpt>
      <trkpt lat="46.08689" lon="6.45848">
        <ele>747</ele>
        <time>2019-05-24T08:27:54Z</time>
      </trkpt>
      <trkpt lat="46.08665" lon="6.46013">
        <ele>748</ele>
        <time>2019-05-24T08:28:15Z</time>
      </trkpt>
      <trkpt lat="46.08602" lon="6.4624">
        <ele>762</ele>
        <time>2019-05-24T08:28:45Z</time>
      </trkpt>
      <trkpt lat="46.08595" lon="6.46273">
        <ele>763</ele>
        <time>2019-05-24T08:28:49Z</time>
      </trkpt>
      <trkpt lat="46.08591" lon="6.46296">
        <ele>763</ele>
        <time>2019-05-24T08:28:52Z</time>
      </trkpt>
      <trkpt lat="46.08592" lon="6.46349">
        <ele>766</ele>
        <time>2019-05-24T08:28:59Z</time>
      </trkpt>
      <trkpt lat="46.0859" lon="6.46372">
        <ele>766</ele>
        <time>2019-05-24T08:29:01Z</time>
      </trkpt>
      <trkpt lat="46.08584" lon="6.46405">
        <ele>766</ele>
        <time>2019-05-24T08:29:06Z</time>
      </trkpt>
      <trkpt lat="46.08581" lon="6.46443">
        <ele>768</ele>
        <time>2019-05-24T08:29:10Z</time>
      </trkpt>
      <trkpt lat="46.08607" lon="6.46652">
        <ele>779</ele>
        <time>2019-05-24T08:29:37Z</time>
      </trkpt>
      <trkpt lat="46.08614" lon="6.46722">
        <ele>778</ele>
        <time>2019-05-24T08:29:45Z</time>
      </trkpt>
      <trkpt lat="46.08619" lon="6.4675">
        <ele>778</ele>
        <time>2019-05-24T08:29:49Z</time>
      </trkpt>
      <trkpt lat="46.08611" lon="6.46784">
        <ele>775</ele>
        <time>2019-05-24T08:29:53Z</time>
      </trkpt>
      <trkpt lat="46.08607" lon="6.46815">
        <ele>774</ele>
        <time>2019-05-24T08:29:57Z</time>
      </trkpt>
      <trkpt lat="46.08606" lon="6.46841">
        <ele>772</ele>
        <time>2019-05-24T08:30:00Z</time>
      </trkpt>
      <trkpt lat="46.08645" lon="6.46971">
        <ele>770</ele>
        <time>2019-05-24T08:30:18Z</time>
      </trkpt>
      <trkpt lat="46.08643" lon="6.46985">
        <ele>769</ele>
        <time>2019-05-24T08:30:20Z</time>
      </trkpt>
      <trkpt lat="46.08635" lon="6.46993">
        <ele>765</ele>
        <time>2019-05-24T08:30:21Z</time>
      </trkpt>
      <trkpt lat="46.0863" lon="6.46993">
        <ele>764</ele>
        <time>2019-05-24T08:30:22Z</time>
      </trkpt>
      <trkpt lat="46.0862" lon="6.46985">
        <ele>761</ele>
        <time>2019-05-24T08:30:24Z</time>
      </trkpt>
      <trkpt lat="46.08611" lon="6.46944">
        <ele>762</ele>
        <time>2019-05-24T08:30:30Z</time>
      </trkpt>
      <trkpt lat="46.08601" lon="6.46927">
        <ele>761</ele>
        <time>2019-05-24T08:30:32Z</time>
      </trkpt>
      <trkpt lat="46.08582" lon="6.46913">
        <ele>757</ele>
        <time>2019-05-24T08:30:36Z</time>
      </trkpt>
      <trkpt lat="46.08571" lon="6.469">
        <ele>757</ele>
        <time>2019-05-24T08:30:39Z</time>
      </trkpt>
      <trkpt lat="46.08549" lon="6.4688">
        <ele>755</ele>
        <time>2019-05-24T08:30:43Z</time>
      </trkpt>
      <trkpt lat="46.08521" lon="6.46837">
        <ele>752</ele>
        <time>2019-05-24T08:30:51Z</time>
      </trkpt>
      <trkpt lat="46.08506" lon="6.46787">
        <ele>750</ele>
        <time>2019-05-24T08:30:57Z</time>
      </trkpt>
      <trkpt lat="46.08501" lon="6.46756">
        <ele>751</ele>
        <time>2019-05-24T08:31:01Z</time>
      </trkpt>
      <trkpt lat="46.08498" lon="6.46746">
        <ele>751</ele>
        <time>2019-05-24T08:31:03Z</time>
      </trkpt>
      <trkpt lat="46.0849" lon="6.46741">
        <ele>749</ele>
        <time>2019-05-24T08:31:04Z</time>
      </trkpt>
      <trkpt lat="46.08481" lon="6.46749">
        <ele>746</ele>
        <time>2019-05-24T08:31:06Z</time>
      </trkpt>
      <trkpt lat="46.08476" lon="6.46764">
        <ele>744</ele>
        <time>2019-05-24T08:31:08Z</time>
      </trkpt>
      <trkpt lat="46.08481" lon="6.468">
        <ele>743</ele>
        <time>2019-05-24T08:31:13Z</time>
      </trkpt>
      <trkpt lat="46.0852" lon="6.46941">
        <ele>742</ele>
        <time>2019-05-24T08:31:31Z</time>
      </trkpt>
      <trkpt lat="46.08533" lon="6.46968">
        <ele>740</ele>
        <time>2019-05-24T08:31:35Z</time>
      </trkpt>
      <trkpt lat="46.08547" lon="6.46993">
        <ele>739</ele>
        <time>2019-05-24T08:31:39Z</time>
      </trkpt>
      <trkpt lat="46.08558" lon="6.47005">
        <ele>740</ele>
        <time>2019-05-24T08:31:42Z</time>
      </trkpt>
      <trkpt lat="46.08563" lon="6.47015">
        <ele>740</ele>
        <time>2019-05-24T08:31:43Z</time>
      </trkpt>
      <trkpt lat="46.0856" lon="6.47034">
        <ele>736</ele>
        <time>2019-05-24T08:31:46Z</time>
      </trkpt>
      <trkpt lat="46.08554" lon="6.4704">
        <ele>733</ele>
        <time>2019-05-24T08:31:47Z</time>
      </trkpt>
      <trkpt lat="46.08536" lon="6.47033">
        <ele>729</ele>
        <time>2019-05-24T08:31:50Z</time>
      </trkpt>
      <trkpt lat="46.08516" lon="6.47009">
        <ele>729</ele>
        <time>2019-05-24T08:31:55Z</time>
      </trkpt>
      <trkpt lat="46.08498" lon="6.4698">
        <ele>730</ele>
        <time>2019-05-24T08:32:00Z</time>
      </trkpt>
      <trkpt lat="46.08474" lon="6.46947">
        <ele>728</ele>
        <time>2019-05-24T08:32:06Z</time>
      </trkpt>
      <trkpt lat="46.08456" lon="6.46909">
        <ele>727</ele>
        <time>2019-05-24T08:32:11Z</time>
      </trkpt>
      <trkpt lat="46.08452" lon="6.46895">
        <ele>727</ele>
        <time>2019-05-24T08:32:13Z</time>
      </trkpt>
      <trkpt lat="46.08447" lon="6.4689">
        <ele>726</ele>
        <time>2019-05-24T08:32:14Z</time>
      </trkpt>
      <trkpt lat="46.0844" lon="6.46893">
        <ele>723</ele>
        <time>2019-05-24T08:32:16Z</time>
      </trkpt>
      <trkpt lat="46.08435" lon="6.46902">
        <ele>721</ele>
        <time>2019-05-24T08:32:17Z</time>
      </trkpt>
      <trkpt lat="46.08494" lon="6.47046">
        <ele>715</ele>
        <time>2019-05-24T08:32:38Z</time>
      </trkpt>
      <trkpt lat="46.08511" lon="6.47076">
        <ele>713</ele>
        <time>2019-05-24T08:32:42Z</time>
      </trkpt>
      <trkpt lat="46.08518" lon="6.47093">
        <ele>713</ele>
        <time>2019-05-24T08:32:45Z</time>
      </trkpt>
      <trkpt lat="46.08539" lon="6.472">
        <ele>708</ele>
        <time>2019-05-24T08:32:59Z</time>
      </trkpt>
      <trkpt lat="46.08547" lon="6.47225">
        <ele>707</ele>
        <time>2019-05-24T08:33:02Z</time>
      </trkpt>
      <trkpt lat="46.08564" lon="6.47257">
        <ele>708</ele>
        <time>2019-05-24T08:33:07Z</time>
      </trkpt>
      <trkpt lat="46.08585" lon="6.47336">
        <ele>703</ele>
        <time>2019-05-24T08:33:17Z</time>
      </trkpt>
      <trkpt lat="46.08613" lon="6.47403">
        <ele>706</ele>
        <time>2019-05-24T08:33:27Z</time>
      </trkpt>
      <trkpt lat="46.08613" lon="6.47419">
        <ele>704</ele>
        <time>2019-05-24T08:33:29Z</time>
      </trkpt>
      <trkpt lat="46.08605" lon="6.47428">
        <ele>700</ele>
        <time>2019-05-24T08:33:31Z</time>
      </trkpt>
      <trkpt lat="46.08589" lon="6.47426">
        <ele>694</ele>
        <time>2019-05-24T08:33:34Z</time>
      </trkpt>
      <trkpt lat="46.08572" lon="6.47369">
        <ele>696</ele>
        <time>2019-05-24T08:33:41Z</time>
      </trkpt>
      <trkpt lat="46.08552" lon="6.47337">
        <ele>694</ele>
        <time>2019-05-24T08:33:47Z</time>
      </trkpt>
      <trkpt lat="46.0852" lon="6.47314">
        <ele>687</ele>
        <time>2019-05-24T08:33:53Z</time>
      </trkpt>
      <trkpt lat="46.08488" lon="6.47325">
        <ele>677</ele>
        <time>2019-05-24T08:33:59Z</time>
      </trkpt>
      <trkpt lat="46.08486" lon="6.4734">
        <ele>675</ele>
        <time>2019-05-24T08:34:01Z</time>
      </trkpt>
      <trkpt lat="46.08494" lon="6.47381">
        <ele>673</ele>
        <time>2019-05-24T08:34:06Z</time>
      </trkpt>
      <trkpt lat="46.0851" lon="6.47399">
        <ele>675</ele>
        <time>2019-05-24T08:34:10Z</time>
      </trkpt>
      <trkpt lat="46.0854" lon="6.47465">
        <ele>678</ele>
        <time>2019-05-24T08:34:19Z</time>
      </trkpt>
      <trkpt lat="46.08575" lon="6.47574">
        <ele>679</ele>
        <time>2019-05-24T08:34:34Z</time>
      </trkpt>
      <trkpt lat="46.08574" lon="6.47619">
        <ele>674</ele>
        <time>2019-05-24T08:34:40Z</time>
      </trkpt>
      <trkpt lat="46.08579" lon="6.47688">
        <ele>669</ele>
        <time>2019-05-24T08:34:48Z</time>
      </trkpt>
      <trkpt lat="46.0857" lon="6.47779">
        <ele>666</ele>
        <time>2019-05-24T08:35:00Z</time>
      </trkpt>
      <trkpt lat="46.08565" lon="6.47793">
        <ele>665</ele>
        <time>2019-05-24T08:35:02Z</time>
      </trkpt>
      <trkpt lat="46.08554" lon="6.47795">
        <ele>662</ele>
        <time>2019-05-24T08:35:04Z</time>
      </trkpt>
      <trkpt lat="46.08546" lon="6.47781">
        <ele>660</ele>
        <time>2019-05-24T08:35:06Z</time>
      </trkpt>
      <trkpt lat="46.08541" lon="6.47737">
        <ele>659</ele>
        <time>2019-05-24T08:35:11Z</time>
      </trkpt>
      <trkpt lat="46.08494" lon="6.47655">
        <ele>652</ele>
        <time>2019-05-24T08:35:24Z</time>
      </trkpt>
      <trkpt lat="46.0848" lon="6.4765">
        <ele>650</ele>
        <time>2019-05-24T08:35:27Z</time>
      </trkpt>
      <trkpt lat="46.08457" lon="6.47647">
        <ele>645</ele>
        <time>2019-05-24T08:35:31Z</time>
      </trkpt>
      <trkpt lat="46.08416" lon="6.47624">
        <ele>638</ele>
        <time>2019-05-24T08:35:39Z</time>
      </trkpt>
      <trkpt lat="46.08403" lon="6.47577">
        <ele>639</ele>
        <time>2019-05-24T08:35:45Z</time>
      </trkpt>
      <trkpt lat="46.08401" lon="6.4753">
        <ele>640</ele>
        <time>2019-05-24T08:35:51Z</time>
      </trkpt>
      <trkpt lat="46.08397" lon="6.47508">
        <ele>640</ele>
        <time>2019-05-24T08:35:54Z</time>
      </trkpt>
      <trkpt lat="46.08389" lon="6.47494">
        <ele>638</ele>
        <time>2019-05-24T08:35:56Z</time>
      </trkpt>
      <trkpt lat="46.0837" lon="6.47475">
        <ele>635</ele>
        <time>2019-05-24T08:36:00Z</time>
      </trkpt>
      <trkpt lat="46.08359" lon="6.47437">
        <ele>635</ele>
        <time>2019-05-24T08:36:05Z</time>
      </trkpt>
      <trkpt lat="46.08348" lon="6.47418">
        <ele>633</ele>
        <time>2019-05-24T08:36:08Z</time>
      </trkpt>
      <trkpt lat="46.08319" lon="6.47405">
        <ele>627</ele>
        <time>2019-05-24T08:36:14Z</time>
      </trkpt>
      <trkpt lat="46.08304" lon="6.47386">
        <ele>624</ele>
        <time>2019-05-24T08:36:17Z</time>
      </trkpt>
      <trkpt lat="46.08291" lon="6.47315">
        <ele>626</ele>
        <time>2019-05-24T08:36:26Z</time>
      </trkpt>
      <trkpt lat="46.08273" lon="6.473">
        <ele>623</ele>
        <time>2019-05-24T08:36:30Z</time>
      </trkpt>
      <trkpt lat="46.0825" lon="6.47302">
        <ele>617</ele>
        <time>2019-05-24T08:36:34Z</time>
      </trkpt>
      <trkpt lat="46.08233" lon="6.4729">
        <ele>615</ele>
        <time>2019-05-24T08:36:38Z</time>
      </trkpt>
      <trkpt lat="46.08222" lon="6.47266">
        <ele>614</ele>
        <time>2019-05-24T08:36:41Z</time>
      </trkpt>
      <trkpt lat="46.08206" lon="6.47266">
        <ele>611</ele>
        <time>2019-05-24T08:36:44Z</time>
      </trkpt>
      <trkpt lat="46.08201" lon="6.4729">
        <ele>608</ele>
        <time>2019-05-24T08:36:47Z</time>
      </trkpt>
      <trkpt lat="46.08232" lon="6.47349">
        <ele>610</ele>
        <time>2019-05-24T08:36:56Z</time>
      </trkpt>
      <trkpt lat="46.08261" lon="6.47555">
        <ele>603</ele>
        <time>2019-05-24T08:37:22Z</time>
      </trkpt>
      <trkpt lat="46.08252" lon="6.47628">
        <ele>595</ele>
        <time>2019-05-24T08:37:31Z</time>
      </trkpt>
      <trkpt lat="46.08255" lon="6.47654">
        <ele>593</ele>
        <time>2019-05-24T08:37:34Z</time>
      </trkpt>
      <trkpt lat="46.0827" lon="6.47714">
        <ele>590</ele>
        <time>2019-05-24T08:37:42Z</time>
      </trkpt>
      <trkpt lat="46.08272" lon="6.47766">
        <ele>586</ele>
        <time>2019-05-24T08:37:49Z</time>
      </trkpt>
      <trkpt lat="46.08289" lon="6.47846">
        <ele>587</ele>
        <time>2019-05-24T08:37:59Z</time>
      </trkpt>
      <trkpt lat="46.0831" lon="6.47922">
        <ele>585</ele>
        <time>2019-05-24T08:38:09Z</time>
      </trkpt>
      <trkpt lat="46.08338" lon="6.48056">
        <ele>583</ele>
        <time>2019-05-24T08:38:26Z</time>
      </trkpt>
      <trkpt lat="46.08338" lon="6.48121">
        <ele>577</ele>
        <time>2019-05-24T08:38:35Z</time>
      </trkpt>
      <trkpt lat="46.08363" lon="6.48203">
        <ele>576</ele>
        <time>2019-05-24T08:38:46Z</time>
      </trkpt>
      <trkpt lat="46.08399" lon="6.48315">
        <ele>569</ele>
        <time>2019-05-24T08:39:01Z</time>
      </trkpt>
      <trkpt lat="46.08475" lon="6.48414">
        <ele>575</ele>
        <time>2019-05-24T08:39:19Z</time>
      </trkpt>
      <trkpt lat="46.08506" lon="6.48487">
        <ele>575</ele>
        <time>2019-05-24T08:39:30Z</time>
      </trkpt>
      <trkpt lat="46.08524" lon="6.48563">
        <ele>571</ele>
        <time>2019-05-24T08:39:39Z</time>
      </trkpt>
      <trkpt lat="46.08543" lon="6.48603">
        <ele>569</ele>
        <time>2019-05-24T08:39:45Z</time>
      </trkpt>
      <trkpt lat="46.0857" lon="6.48667">
        <ele>562</ele>
        <time>2019-05-24T08:39:55Z</time>
      </trkpt>
      <trkpt lat="46.086" lon="6.48709">
        <ele>559</ele>
        <time>2019-05-24T08:40:02Z</time>
      </trkpt>
      <trkpt lat="46.08625" lon="6.4873">
        <ele>557</ele>
        <time>2019-05-24T08:40:07Z</time>
      </trkpt>
      <trkpt lat="46.08646" lon="6.48735">
        <ele>558</ele>
        <time>2019-05-24T08:40:11Z</time>
      </trkpt>
      <trkpt lat="46.08687" lon="6.48735">
        <ele>563</ele>
        <time>2019-05-24T08:40:18Z</time>
      </trkpt>
      <trkpt lat="46.08708" lon="6.48747">
        <ele>562</ele>
        <time>2019-05-24T08:40:22Z</time>
      </trkpt>
      <trkpt lat="46.08751" lon="6.48784">
        <ele>555</ele>
        <time>2019-05-24T08:40:31Z</time>
      </trkpt>
      <trkpt lat="46.08792" lon="6.48826">
        <ele>551</ele>
        <time>2019-05-24T08:40:40Z</time>
      </trkpt>
      <trkpt lat="46.08803" lon="6.48846">
        <ele>549</ele>
        <time>2019-05-24T08:40:43Z</time>
      </trkpt>
      <trkpt lat="46.08803" lon="6.48869">
        <ele>546</ele>
        <time>2019-05-24T08:40:46Z</time>
      </trkpt>
      <trkpt lat="46.0877" lon="6.48916">
        <ele>537</ele>
        <time>2019-05-24T08:40:55Z</time>
      </trkpt>
      <trkpt lat="46.08743" lon="6.49025">
        <ele>532</ele>
        <time>2019-05-24T08:41:09Z</time>
      </trkpt>
      <trkpt lat="46.08741" lon="6.49075">
        <ele>532</ele>
        <time>2019-05-24T08:41:15Z</time>
      </trkpt>
      <trkpt lat="46.0873" lon="6.49097">
        <ele>529</ele>
        <time>2019-05-24T08:41:18Z</time>
      </trkpt>
      <trkpt lat="46.08728" lon="6.49115">
        <ele>527</ele>
        <time>2019-05-24T08:41:21Z</time>
      </trkpt>
      <trkpt lat="46.08742" lon="6.49149">
        <ele>525</ele>
        <time>2019-05-24T08:41:25Z</time>
      </trkpt>
      <trkpt lat="46.08796" lon="6.49221">
        <ele>516</ele>
        <time>2019-05-24T08:41:39Z</time>
      </trkpt>
      <trkpt lat="46.08876" lon="6.49264">
        <ele>516</ele>
        <time>2019-05-24T08:41:54Z</time>
      </trkpt>
      <trkpt lat="46.08896" lon="6.49286">
        <ele>513</ele>
        <time>2019-05-24T08:41:58Z</time>
      </trkpt>
      <trkpt lat="46.08903" lon="6.49314">
        <ele>508</ele>
        <time>2019-05-24T08:42:02Z</time>
      </trkpt>
      <trkpt lat="46.08901" lon="6.49351">
        <ele>503</ele>
        <time>2019-05-24T08:42:06Z</time>
      </trkpt>
      <trkpt lat="46.08885" lon="6.49397">
        <ele>498</ele>
        <time>2019-05-24T08:42:13Z</time>
      </trkpt>
      <trkpt lat="46.08888" lon="6.49435">
        <ele>494</ele>
        <time>2019-05-24T08:42:18Z</time>
      </trkpt>
      <trkpt lat="46.08902" lon="6.49468">
        <ele>491</ele>
        <time>2019-05-24T08:42:22Z</time>
      </trkpt>
      <trkpt lat="46.08913" lon="6.49486">
        <ele>489</ele>
        <time>2019-05-24T08:42:25Z</time>
      </trkpt>
      <trkpt lat="46.08935" lon="6.49502">
        <ele>488</ele>
        <time>2019-05-24T08:42:30Z</time>
      </trkpt>
      <trkpt lat="46.08978" lon="6.49513">
        <ele>490</ele>
        <time>2019-05-24T08:42:37Z</time>
      </trkpt>
      <trkpt lat="46.08991" lon="6.49534">
        <ele>489</ele>
        <time>2019-05-24T08:42:41Z</time>
      </trkpt>
      <trkpt lat="46.08993" lon="6.49557">
        <ele>486</ele>
        <time>2019-05-24T08:42:44Z</time>
      </trkpt>
      <trkpt lat="46.08987" lon="6.49635">
        <ele>479</ele>
        <time>2019-05-24T08:42:53Z</time>
      </trkpt>
      <trkpt lat="46.08991" lon="6.49659">
        <ele>478</ele>
        <time>2019-05-24T08:42:56Z</time>
      </trkpt>
      <trkpt lat="46.08988" lon="6.4967">
        <ele>477</ele>
        <time>2019-05-24T08:42:58Z</time>
      </trkpt>
      <trkpt lat="46.0901" lon="6.49738">
        <ele>477</ele>
        <time>2019-05-24T08:43:07Z</time>
      </trkpt>
      <trkpt lat="46.09042" lon="6.49892">
        <ele>476</ele>
        <time>2019-05-24T08:43:27Z</time>
      </trkpt>
      <trkpt lat="46.09062" lon="6.49937">
        <ele>477</ele>
        <time>2019-05-24T08:43:34Z</time>
      </trkpt>
      <trkpt lat="46.09069" lon="6.49964">
        <ele>477</ele>
        <time>2019-05-24T08:43:37Z</time>
      </trkpt>
      <trkpt lat="46.091" lon="6.49967">
        <ele>479</ele>
        <time>2019-05-24T08:43:43Z</time>
      </trkpt>
      <trkpt lat="46.09115" lon="6.49954">
        <ele>481</ele>
        <time>2019-05-24T08:43:46Z</time>
      </trkpt>
      <trkpt lat="46.0912" lon="6.49943">
        <ele>482</ele>
        <time>2019-05-24T08:43:47Z</time>
      </trkpt>
      <trkpt lat="46.09165" lon="6.4988">
        <ele>490</ele>
        <time>2019-05-24T08:43:59Z</time>
      </trkpt>
      <trkpt lat="46.09173" lon="6.49874">
        <ele>493</ele>
        <time>2019-05-24T08:44:00Z</time>
      </trkpt>
      <trkpt lat="46.0918" lon="6.49874">
        <ele>496</ele>
        <time>2019-05-24T08:44:01Z</time>
      </trkpt>
      <trkpt lat="46.09177" lon="6.49881">
        <ele>494</ele>
        <time>2019-05-24T08:44:02Z</time>
      </trkpt>
      <trkpt lat="46.09178" lon="6.49892">
        <ele>494</ele>
        <time>2019-05-24T08:44:04Z</time>
      </trkpt>
      <trkpt lat="46.09184" lon="6.4992">
        <ele>493</ele>
        <time>2019-05-24T08:44:07Z</time>
      </trkpt>
      <trkpt lat="46.09188" lon="6.49943">
        <ele>493</ele>
        <time>2019-05-24T08:44:10Z</time>
      </trkpt>
      <trkpt lat="46.09186" lon="6.49982">
        <ele>489</ele>
        <time>2019-05-24T08:44:15Z</time>
      </trkpt>
      <trkpt lat="46.09197" lon="6.50027">
        <ele>491</ele>
        <time>2019-05-24T08:44:21Z</time>
      </trkpt>
      <trkpt lat="46.09199" lon="6.50043">
        <ele>491</ele>
        <time>2019-05-24T08:44:23Z</time>
      </trkpt>
      <trkpt lat="46.09198" lon="6.50054">
        <ele>490</ele>
        <time>2019-05-24T08:44:24Z</time>
      </trkpt>
      <trkpt lat="46.09161" lon="6.50178">
        <ele>479</ele>
        <time>2019-05-24T08:44:41Z</time>
      </trkpt>
      <trkpt lat="46.09152" lon="6.50192">
        <ele>478</ele>
        <time>2019-05-24T08:44:43Z</time>
      </trkpt>
      <trkpt lat="46.091" lon="6.50238">
        <ele>475</ele>
        <time>2019-05-24T08:44:54Z</time>
      </trkpt>
      <trkpt lat="46.09157" lon="6.5038">
        <ele>476</ele>
        <time>2019-05-24T08:45:15Z</time>
      </trkpt>
      <trkpt lat="46.09139" lon="6.50417">
        <ele>473</ele>
        <time>2019-05-24T08:45:20Z</time>
      </trkpt>
      <trkpt lat="46.09109" lon="6.50468">
        <ele>473</ele>
        <time>2019-05-24T08:45:28Z</time>
      </trkpt>
      <trkpt lat="46.09096" lon="6.50452">
        <ele>473</ele>
        <time>2019-05-24T08:45:31Z</time>
      </trkpt>
      <trkpt lat="46.0907" lon="6.50473">
        <ele>474</ele>
        <time>2019-05-24T08:45:37Z</time>
      </trkpt>
      <trkpt lat="46.09118" lon="6.50512">
        <ele>474</ele>
        <time>2019-05-24T08:45:47Z</time>
      </trkpt>
      <trkpt lat="46.09127" lon="6.50537">
        <ele>473</ele>
        <time>2019-05-24T08:45:50Z</time>
      </trkpt>
      <trkpt lat="46.09119" lon="6.50603">
        <ele>474</ele>
        <time>2019-05-24T08:45:58Z</time>
      </trkpt>
      <trkpt lat="46.09107" lon="6.5068">
        <ele>475</ele>
        <time>2019-05-24T08:46:08Z</time>
      </trkpt>
      <trkpt lat="46.09137" lon="6.50687">
        <ele>475</ele>
        <time>2019-05-24T08:46:13Z</time>
      </trkpt>
      <trkpt lat="46.09147" lon="6.50697">
        <ele>476</ele>
        <time>2019-05-24T08:46:16Z</time>
      </trkpt>
      <trkpt lat="46.09151" lon="6.50709">
        <ele>476</ele>
        <time>2019-05-24T08:46:17Z</time>
      </trkpt>
      <trkpt lat="46.09152" lon="6.50729">
        <ele>477</ele>
        <time>2019-05-24T08:46:20Z</time>
      </trkpt>
      <trkpt lat="46.09134" lon="6.50776">
        <ele>478</ele>
        <time>2019-05-24T08:46:26Z</time>
      </trkpt>
      <trkpt lat="46.0911" lon="6.5106">
        <ele>487</ele>
        <time>2019-05-24T08:47:02Z</time>
      </trkpt>
      <trkpt lat="46.09088" lon="6.51286">
        <ele>494</ele>
        <time>2019-05-24T08:47:30Z</time>
      </trkpt>
      <trkpt lat="46.09084" lon="6.51576">
        <ele>501</ele>
        <time>2019-05-24T08:48:06Z</time>
      </trkpt>
      <trkpt lat="46.09088" lon="6.5183">
        <ele>507</ele>
        <time>2019-05-24T08:48:37Z</time>
      </trkpt>
      <trkpt lat="46.09084" lon="6.51878">
        <ele>507</ele>
        <time>2019-05-24T08:48:43Z</time>
      </trkpt>
      <trkpt lat="46.09041" lon="6.52148">
        <ele>515</ele>
        <time>2019-05-24T08:49:17Z</time>
      </trkpt>
      <trkpt lat="46.08972" lon="6.52466">
        <ele>523</ele>
        <time>2019-05-24T08:49:58Z</time>
      </trkpt>
      <trkpt lat="46.08968" lon="6.52558">
        <ele>526</ele>
        <time>2019-05-24T08:50:10Z</time>
      </trkpt>
      <trkpt lat="46.0897" lon="6.52727">
        <ele>533</ele>
        <time>2019-05-24T08:50:30Z</time>
      </trkpt>
      <trkpt lat="46.0896" lon="6.5287">
        <ele>536</ele>
        <time>2019-05-24T08:50:48Z</time>
      </trkpt>
      <trkpt lat="46.08962" lon="6.53017">
        <ele>541</ele>
        <time>2019-05-24T08:51:06Z</time>
      </trkpt>
      <trkpt lat="46.08901" lon="6.53333">
        <ele>548</ele>
        <time>2019-05-24T08:51:47Z</time>
      </trkpt>
      <trkpt lat="46.08892" lon="6.53408">
        <ele>549</ele>
        <time>2019-05-24T08:51:56Z</time>
      </trkpt>
      <trkpt lat="46.08885" lon="6.5378">
        <ele>563</ele>
        <time>2019-05-24T08:52:42Z</time>
      </trkpt>
      <trkpt lat="46.08878" lon="6.53825">
        <ele>565</ele>
        <time>2019-05-24T08:52:48Z</time>
      </trkpt>
      <trkpt lat="46.08867" lon="6.53866">
        <ele>565</ele>
        <time>2019-05-24T08:52:53Z</time>
      </trkpt>
      <trkpt lat="46.08849" lon="6.53913">
        <ele>566</ele>
        <time>2019-05-24T08:53:00Z</time>
      </trkpt>
      <trkpt lat="46.08843" lon="6.53937">
        <ele>565</ele>
        <time>2019-05-24T08:53:03Z</time>
      </trkpt>
      <trkpt lat="46.08839" lon="6.53964">
        <ele>565</ele>
        <time>2019-05-24T08:53:06Z</time>
      </trkpt>
      <trkpt lat="46.0884" lon="6.53995">
        <ele>566</ele>
        <time>2019-05-24T08:53:10Z</time>
      </trkpt>
      <trkpt lat="46.08849" lon="6.54043">
        <ele>568</ele>
        <time>2019-05-24T08:53:16Z</time>
      </trkpt>
      <trkpt lat="46.08873" lon="6.54098">
        <ele>573</ele>
        <time>2019-05-24T08:53:24Z</time>
      </trkpt>
      <trkpt lat="46.08893" lon="6.54151">
        <ele>577</ele>
        <time>2019-05-24T08:53:32Z</time>
      </trkpt>
      <trkpt lat="46.08901" lon="6.54197">
        <ele>579</ele>
        <time>2019-05-24T08:53:38Z</time>
      </trkpt>
      <trkpt lat="46.08903" lon="6.54255">
        <ele>583</ele>
        <time>2019-05-24T08:53:45Z</time>
      </trkpt>
      <trkpt lat="46.08899" lon="6.54299">
        <ele>584</ele>
        <time>2019-05-24T08:53:50Z</time>
      </trkpt>
      <trkpt lat="46.08893" lon="6.54338">
        <ele>585</ele>
        <time>2019-05-24T08:53:55Z</time>
      </trkpt>
      <trkpt lat="46.08879" lon="6.54379">
        <ele>588</ele>
        <time>2019-05-24T08:54:01Z</time>
      </trkpt>
      <trkpt lat="46.0886" lon="6.54426">
        <ele>589</ele>
        <time>2019-05-24T08:54:08Z</time>
      </trkpt>
      <trkpt lat="46.08842" lon="6.5448">
        <ele>589</ele>
        <time>2019-05-24T08:54:15Z</time>
      </trkpt>
      <trkpt lat="46.08833" lon="6.54513">
        <ele>589</ele>
        <time>2019-05-24T08:54:19Z</time>
      </trkpt>
      <trkpt lat="46.08827" lon="6.54557">
        <ele>590</ele>
        <time>2019-05-24T08:54:25Z</time>
      </trkpt>
      <trkpt lat="46.08828" lon="6.54621">
        <ele>592</ele>
        <time>2019-05-24T08:54:33Z</time>
      </trkpt>
      <trkpt lat="46.08836" lon="6.54723">
        <ele>598</ele>
        <time>2019-05-24T08:54:46Z</time>
      </trkpt>
      <trkpt lat="46.08831" lon="6.54769">
        <ele>598</ele>
        <time>2019-05-24T08:54:51Z</time>
      </trkpt>
      <trkpt lat="46.08821" lon="6.54826">
        <ele>597</ele>
        <time>2019-05-24T08:54:59Z</time>
      </trkpt>
      <trkpt lat="46.08819" lon="6.54884">
        <ele>598</ele>
        <time>2019-05-24T08:55:06Z</time>
      </trkpt>
      <trkpt lat="46.08842" lon="6.55118">
        <ele>613</ele>
        <time>2019-05-24T08:55:35Z</time>
      </trkpt>
      <trkpt lat="46.08845" lon="6.55165">
        <ele>616</ele>
        <time>2019-05-24T08:55:41Z</time>
      </trkpt>
      <trkpt lat="46.08842" lon="6.55194">
        <ele>620</ele>
        <time>2019-05-24T08:55:44Z</time>
      </trkpt>
      <trkpt lat="46.08823" lon="6.55247">
        <ele>621</ele>
        <time>2019-05-24T08:55:52Z</time>
      </trkpt>
      <trkpt lat="46.08809" lon="6.55297">
        <ele>622</ele>
        <time>2019-05-24T08:55:58Z</time>
      </trkpt>
      <trkpt lat="46.08778" lon="6.55493">
        <ele>628</ele>
        <time>2019-05-24T08:56:23Z</time>
      </trkpt>
      <trkpt lat="46.08769" lon="6.55538">
        <ele>632</ele>
        <time>2019-05-24T08:56:29Z</time>
      </trkpt>
      <trkpt lat="46.08745" lon="6.5559">
        <ele>630</ele>
        <time>2019-05-24T08:56:37Z</time>
      </trkpt>
      <trkpt lat="46.08733" lon="6.55629">
        <ele>628</ele>
        <time>2019-05-24T08:56:42Z</time>
      </trkpt>
      <trkpt lat="46.08705" lon="6.55733">
        <ele>627</ele>
        <time>2019-05-24T08:56:56Z</time>
      </trkpt>
      <trkpt lat="46.08699" lon="6.55811">
        <ele>637</ele>
        <time>2019-05-24T08:57:05Z</time>
      </trkpt>
      <trkpt lat="46.0869" lon="6.55846">
        <ele>639</ele>
        <time>2019-05-24T08:57:10Z</time>
      </trkpt>
      <trkpt lat="46.08674" lon="6.55884">
        <ele>636</ele>
        <time>2019-05-24T08:57:15Z</time>
      </trkpt>
      <trkpt lat="46.08667" lon="6.55919">
        <ele>637</ele>
        <time>2019-05-24T08:57:20Z</time>
      </trkpt>
      <trkpt lat="46.08668" lon="6.5595">
        <ele>639</ele>
        <time>2019-05-24T08:57:24Z</time>
      </trkpt>
      <trkpt lat="46.0868" lon="6.55996">
        <ele>648</ele>
        <time>2019-05-24T08:57:30Z</time>
      </trkpt>
      <trkpt lat="46.08678" lon="6.56032">
        <ele>653</ele>
        <time>2019-05-24T08:57:34Z</time>
      </trkpt>
      <trkpt lat="46.08666" lon="6.56068">
        <ele>652</ele>
        <time>2019-05-24T08:57:39Z</time>
      </trkpt>
      <trkpt lat="46.08612" lon="6.56198">
        <ele>658</ele>
        <time>2019-05-24T08:57:58Z</time>
      </trkpt>
      <trkpt lat="46.08594" lon="6.56231">
        <ele>653</ele>
        <time>2019-05-24T08:58:03Z</time>
      </trkpt>
      <trkpt lat="46.08586" lon="6.56254">
        <ele>652</ele>
        <time>2019-05-24T08:58:06Z</time>
      </trkpt>
      <trkpt lat="46.08585" lon="6.56276">
        <ele>655</ele>
        <time>2019-05-24T08:58:09Z</time>
      </trkpt>
      <trkpt lat="46.08594" lon="6.56325">
        <ele>666</ele>
        <time>2019-05-24T08:58:15Z</time>
      </trkpt>
      <trkpt lat="46.08595" lon="6.56345">
        <ele>668</ele>
        <time>2019-05-24T08:58:18Z</time>
      </trkpt>
      <trkpt lat="46.08585" lon="6.56391">
        <ele>665</ele>
        <time>2019-05-24T08:58:24Z</time>
      </trkpt>
      <trkpt lat="46.08585" lon="6.56432">
        <ele>665</ele>
        <time>2019-05-24T08:58:29Z</time>
      </trkpt>
      <trkpt lat="46.08591" lon="6.56488">
        <ele>667</ele>
        <time>2019-05-24T08:58:36Z</time>
      </trkpt>
      <trkpt lat="46.08587" lon="6.5655">
        <ele>662</ele>
        <time>2019-05-24T08:58:43Z</time>
      </trkpt>
      <trkpt lat="46.08589" lon="6.56577">
        <ele>661</ele>
        <time>2019-05-24T08:58:47Z</time>
      </trkpt>
      <trkpt lat="46.08594" lon="6.56608">
        <ele>665</ele>
        <time>2019-05-24T08:58:51Z</time>
      </trkpt>
      <trkpt lat="46.08607" lon="6.56671">
        <ele>675</ele>
        <time>2019-05-24T08:58:59Z</time>
      </trkpt>
      <trkpt lat="46.08611" lon="6.56729">
        <ele>682</ele>
        <time>2019-05-24T08:59:06Z</time>
      </trkpt>
      <trkpt lat="46.08622" lon="6.56785">
        <ele>695</ele>
        <time>2019-05-24T08:59:13Z</time>
      </trkpt>
      <trkpt lat="46.08615" lon="6.56812">
        <ele>695</ele>
        <time>2019-05-24T08:59:17Z</time>
      </trkpt>
      <trkpt lat="46.08587" lon="6.56862">
        <ele>685</ele>
        <time>2019-05-24T08:59:25Z</time>
      </trkpt>
      <trkpt lat="46.08589" lon="6.56876">
        <ele>688</ele>
        <time>2019-05-24T08:59:26Z</time>
      </trkpt>
      <trkpt lat="46.0858" lon="6.5692">
        <ele>688</ele>
        <time>2019-05-24T08:59:32Z</time>
      </trkpt>
      <trkpt lat="46.0858" lon="6.56979">
        <ele>700</ele>
        <time>2019-05-24T08:59:39Z</time>
      </trkpt>
      <trkpt lat="46.08574" lon="6.56998">
        <ele>700</ele>
        <time>2019-05-24T08:59:42Z</time>
      </trkpt>
      <trkpt lat="46.08543" lon="6.57059">
        <ele>698</ele>
        <time>2019-05-24T08:59:51Z</time>
      </trkpt>
      <trkpt lat="46.08488" lon="6.5712">
        <ele>685</ele>
        <time>2019-05-24T09:00:04Z</time>
      </trkpt>
      <trkpt lat="46.08479" lon="6.57134">
        <ele>684</ele>
        <time>2019-05-24T09:00:06Z</time>
      </trkpt>
      <trkpt lat="46.08471" lon="6.57151">
        <ele>685</ele>
        <time>2019-05-24T09:00:08Z</time>
      </trkpt>
      <trkpt lat="46.08464" lon="6.57172">
        <ele>686</ele>
        <time>2019-05-24T09:00:11Z</time>
      </trkpt>
      <trkpt lat="46.08454" lon="6.57235">
        <ele>692</ele>
        <time>2019-05-24T09:00:19Z</time>
      </trkpt>
      <trkpt lat="46.08447" lon="6.5731">
        <ele>703</ele>
        <time>2019-05-24T09:00:29Z</time>
      </trkpt>
      <trkpt lat="46.0844" lon="6.57329">
        <ele>703</ele>
        <time>2019-05-24T09:00:31Z</time>
      </trkpt>
      <trkpt lat="46.08417" lon="6.57362">
        <ele>695</ele>
        <time>2019-05-24T09:00:37Z</time>
      </trkpt>
      <trkpt lat="46.08408" lon="6.5738">
        <ele>692</ele>
        <time>2019-05-24T09:00:40Z</time>
      </trkpt>
      <trkpt lat="46.08384" lon="6.57462">
        <ele>684</ele>
        <time>2019-05-24T09:00:51Z</time>
      </trkpt>
      <trkpt lat="46.08384" lon="6.5748">
        <ele>685</ele>
        <time>2019-05-24T09:00:53Z</time>
      </trkpt>
      <trkpt lat="46.08385" lon="6.57493">
        <ele>686</ele>
        <time>2019-05-24T09:00:55Z</time>
      </trkpt>
      <trkpt lat="46.08397" lon="6.57512">
        <ele>690</ele>
        <time>2019-05-24T09:00:58Z</time>
      </trkpt>
      <trkpt lat="46.08412" lon="6.5752">
        <ele>695</ele>
        <time>2019-05-24T09:01:01Z</time>
      </trkpt>
      <trkpt lat="46.08469" lon="6.57537">
        <ele>706</ele>
        <time>2019-05-24T09:01:11Z</time>
      </trkpt>
      <trkpt lat="46.08486" lon="6.57546">
        <ele>708</ele>
        <time>2019-05-24T09:01:14Z</time>
      </trkpt>
      <trkpt lat="46.08502" lon="6.57565">
        <ele>710</ele>
        <time>2019-05-24T09:01:18Z</time>
      </trkpt>
      <trkpt lat="46.08516" lon="6.57594">
        <ele>713</ele>
        <time>2019-05-24T09:01:22Z</time>
      </trkpt>
      <trkpt lat="46.08523" lon="6.57625">
        <ele>714</ele>
        <time>2019-05-24T09:01:26Z</time>
      </trkpt>
      <trkpt lat="46.08524" lon="6.57655">
        <ele>713</ele>
        <time>2019-05-24T09:01:30Z</time>
      </trkpt>
      <trkpt lat="46.08521" lon="6.57693">
        <ele>710</ele>
        <time>2019-05-24T09:01:35Z</time>
      </trkpt>
      <trkpt lat="46.08522" lon="6.57725">
        <ele>710</ele>
        <time>2019-05-24T09:01:39Z</time>
      </trkpt>
      <trkpt lat="46.0853" lon="6.57759">
        <ele>711</ele>
        <time>2019-05-24T09:01:43Z</time>
      </trkpt>
      <trkpt lat="46.08545" lon="6.5779">
        <ele>714</ele>
        <time>2019-05-24T09:01:48Z</time>
      </trkpt>
      <trkpt lat="46.08606" lon="6.57904">
        <ele>726</ele>
        <time>2019-05-24T09:02:06Z</time>
      </trkpt>
      <trkpt lat="46.08611" lon="6.57935">
        <ele>727</ele>
        <time>2019-05-24T09:02:09Z</time>
      </trkpt>
      <trkpt lat="46.08614" lon="6.58017">
        <ele>728</ele>
        <time>2019-05-24T09:02:20Z</time>
      </trkpt>
      <trkpt lat="46.08624" lon="6.58113">
        <ele>731</ele>
        <time>2019-05-24T09:02:32Z</time>
      </trkpt>
      <trkpt lat="46.08642" lon="6.582">
        <ele>735</ele>
        <time>2019-05-24T09:02:43Z</time>
      </trkpt>
      <trkpt lat="46.08655" lon="6.58222">
        <ele>737</ele>
        <time>2019-05-24T09:02:46Z</time>
      </trkpt>
      <trkpt lat="46.08672" lon="6.58238">
        <ele>738</ele>
        <time>2019-05-24T09:02:50Z</time>
      </trkpt>
      <trkpt lat="46.08727" lon="6.58271">
        <ele>741</ele>
        <time>2019-05-24T09:03:01Z</time>
      </trkpt>
      <trkpt lat="46.08823" lon="6.58334">
        <ele>742</ele>
        <time>2019-05-24T09:03:19Z</time>
      </trkpt>
      <trkpt lat="46.0884" lon="6.58351">
        <ele>743</ele>
        <time>2019-05-24T09:03:23Z</time>
      </trkpt>
      <trkpt lat="46.08841" lon="6.58359">
        <ele>743</ele>
        <time>2019-05-24T09:03:24Z</time>
      </trkpt>
      <trkpt lat="46.08847" lon="6.58366">
        <ele>744</ele>
        <time>2019-05-24T09:03:25Z</time>
      </trkpt>
      <trkpt lat="46.08855" lon="6.58367">
        <ele>743</ele>
        <time>2019-05-24T09:03:27Z</time>
      </trkpt>
      <trkpt lat="46.08861" lon="6.58361">
        <ele>742</ele>
        <time>2019-05-24T09:03:28Z</time>
      </trkpt>
      <trkpt lat="46.08876" lon="6.58364">
        <ele>742</ele>
        <time>2019-05-24T09:03:31Z</time>
      </trkpt>
      <trkpt lat="46.08883" lon="6.58372">
        <ele>742</ele>
        <time>2019-05-24T09:03:32Z</time>
      </trkpt>
      <trkpt lat="46.08964" lon="6.58428">
        <ele>736</ele>
        <time>2019-05-24T09:03:48Z</time>
      </trkpt>
      <trkpt lat="46.09094" lon="6.58511">
        <ele>736</ele>
        <time>2019-05-24T09:04:14Z</time>
      </trkpt>
      <trkpt lat="46.09126" lon="6.58515">
        <ele>738</ele>
        <time>2019-05-24T09:04:19Z</time>
      </trkpt>
      <trkpt lat="46.09174" lon="6.58515">
        <ele>739</ele>
        <time>2019-05-24T09:04:28Z</time>
      </trkpt>
      <trkpt lat="46.09197" lon="6.58523">
        <ele>737</ele>
        <time>2019-05-24T09:04:32Z</time>
      </trkpt>
      <trkpt lat="46.09218" lon="6.58537">
        <ele>735</ele>
        <time>2019-05-24T09:04:36Z</time>
      </trkpt>
      <trkpt lat="46.0923" lon="6.58551">
        <ele>734</ele>
        <time>2019-05-24T09:04:39Z</time>
      </trkpt>
      <trkpt lat="46.09244" lon="6.58582">
        <ele>734</ele>
        <time>2019-05-24T09:04:44Z</time>
      </trkpt>
      <trkpt lat="46.0925" lon="6.58605">
        <ele>734</ele>
        <time>2019-05-24T09:04:47Z</time>
      </trkpt>
      <trkpt lat="46.09255" lon="6.58668">
        <ele>734</ele>
        <time>2019-05-24T09:04:54Z</time>
      </trkpt>
      <trkpt lat="46.09238" lon="6.58782">
        <ele>733</ele>
        <time>2019-05-24T09:05:09Z</time>
      </trkpt>
      <trkpt lat="46.09239" lon="6.58835">
        <ele>729</ele>
        <time>2019-05-24T09:05:15Z</time>
      </trkpt>
      <trkpt lat="46.09245" lon="6.5889">
        <ele>726</ele>
        <time>2019-05-24T09:05:22Z</time>
      </trkpt>
      <trkpt lat="46.09261" lon="6.58937">
        <ele>720</ele>
        <time>2019-05-24T09:05:29Z</time>
      </trkpt>
      <trkpt lat="46.09285" lon="6.58986">
        <ele>714</ele>
        <time>2019-05-24T09:05:36Z</time>
      </trkpt>
      <trkpt lat="46.09317" lon="6.5902">
        <ele>709</ele>
        <time>2019-05-24T09:05:43Z</time>
      </trkpt>
      <trkpt lat="46.0939" lon="6.59087">
        <ele>699</ele>
        <time>2019-05-24T09:05:59Z</time>
      </trkpt>
      <trkpt lat="46.09425" lon="6.59149">
        <ele>698</ele>
        <time>2019-05-24T09:06:08Z</time>
      </trkpt>
      <trkpt lat="46.09459" lon="6.59225">
        <ele>694</ele>
        <time>2019-05-24T09:06:20Z</time>
      </trkpt>
      <trkpt lat="46.09484" lon="6.59291">
        <ele>691</ele>
        <time>2019-05-24T09:06:29Z</time>
      </trkpt>
      <trkpt lat="46.09509" lon="6.59378">
        <ele>691</ele>
        <time>2019-05-24T09:06:41Z</time>
      </trkpt>
      <trkpt lat="46.09553" lon="6.59591">
        <ele>686</ele>
        <time>2019-05-24T09:07:08Z</time>
      </trkpt>
      <trkpt lat="46.09582" lon="6.59695">
        <ele>675</ele>
        <time>2019-05-24T09:07:22Z</time>
      </trkpt>
      <trkpt lat="46.09587" lon="6.5973">
        <ele>673</ele>
        <time>2019-05-24T09:07:26Z</time>
      </trkpt>
      <trkpt lat="46.09587" lon="6.59782">
        <ele>675</ele>
        <time>2019-05-24T09:07:33Z</time>
      </trkpt>
      <trkpt lat="46.09585" lon="6.59863">
        <ele>681</ele>
        <time>2019-05-24T09:07:43Z</time>
      </trkpt>
      <trkpt lat="46.09588" lon="6.59882">
        <ele>682</ele>
        <time>2019-05-24T09:07:45Z</time>
      </trkpt>
      <trkpt lat="46.09597" lon="6.59895">
        <ele>680</ele>
        <time>2019-05-24T09:07:47Z</time>
      </trkpt>
      <trkpt lat="46.09601" lon="6.59898">
        <ele>678</ele>
        <time>2019-05-24T09:07:48Z</time>
      </trkpt>
      <trkpt lat="46.09613" lon="6.59897">
        <ele>674</ele>
        <time>2019-05-24T09:07:50Z</time>
      </trkpt>
      <trkpt lat="46.09623" lon="6.59886">
        <ele>670</ele>
        <time>2019-05-24T09:07:52Z</time>
      </trkpt>
      <trkpt lat="46.09627" lon="6.59872">
        <ele>668</ele>
        <time>2019-05-24T09:07:54Z</time>
      </trkpt>
      <trkpt lat="46.09642" lon="6.59787">
        <ele>660</ele>
        <time>2019-05-24T09:08:05Z</time>
      </trkpt>
      <trkpt lat="46.09646" lon="6.5975">
        <ele>658</ele>
        <time>2019-05-24T09:08:10Z</time>
      </trkpt>
      <trkpt lat="46.09644" lon="6.59721">
        <ele>656</ele>
        <time>2019-05-24T09:08:13Z</time>
      </trkpt>
      <trkpt lat="46.09627" lon="6.59648">
        <ele>657</ele>
        <time>2019-05-24T09:08:23Z</time>
      </trkpt>
      <trkpt lat="46.09625" lon="6.5962">
        <ele>657</ele>
        <time>2019-05-24T09:08:26Z</time>
      </trkpt>
      <trkpt lat="46.09627" lon="6.59583">
        <ele>655</ele>
        <time>2019-05-24T09:08:31Z</time>
      </trkpt>
      <trkpt lat="46.09638" lon="6.5949">
        <ele>651</ele>
        <time>2019-05-24T09:08:43Z</time>
      </trkpt>
      <trkpt lat="46.09642" lon="6.59431">
        <ele>648</ele>
        <time>2019-05-24T09:08:50Z</time>
      </trkpt>
      <trkpt lat="46.09643" lon="6.59257">
        <ele>642</ele>
        <time>2019-05-24T09:09:11Z</time>
      </trkpt>
      <trkpt lat="46.09645" lon="6.59234">
        <ele>641</ele>
        <time>2019-05-24T09:09:14Z</time>
      </trkpt>
      <trkpt lat="46.09666" lon="6.5914">
        <ele>636</ele>
        <time>2019-05-24T09:09:26Z</time>
      </trkpt>
      <trkpt lat="46.09668" lon="6.59108">
        <ele>636</ele>
        <time>2019-05-24T09:09:30Z</time>
      </trkpt>
      <trkpt lat="46.09662" lon="6.59035">
        <ele>635</ele>
        <time>2019-05-24T09:09:39Z</time>
      </trkpt>
      <trkpt lat="46.09664" lon="6.59021">
        <ele>634</ele>
        <time>2019-05-24T09:09:41Z</time>
      </trkpt>
      <trkpt lat="46.0967" lon="6.59003">
        <ele>633</ele>
        <time>2019-05-24T09:09:44Z</time>
      </trkpt>
      <trkpt lat="46.09675" lon="6.58997">
        <ele>632</ele>
        <time>2019-05-24T09:09:45Z</time>
      </trkpt>
      <trkpt lat="46.09686" lon="6.58987">
        <ele>630</ele>
        <time>2019-05-24T09:09:47Z</time>
      </trkpt>
      <trkpt lat="46.09706" lon="6.58985">
        <ele>627</ele>
        <time>2019-05-24T09:09:51Z</time>
      </trkpt>
      <trkpt lat="46.09877" lon="6.59004">
        <ele>623</ele>
        <time>2019-05-24T09:10:21Z</time>
      </trkpt>
      <trkpt lat="46.10377" lon="6.59062">
        <ele>634</ele>
        <time>2019-05-24T09:11:50Z</time>
      </trkpt>
      <trkpt lat="46.10509" lon="6.59078">
        <ele>638</ele>
        <time>2019-05-24T09:12:14Z</time>
      </trkpt>
      <trkpt lat="46.10536" lon="6.59083">
        <ele>639</ele>
        <time>2019-05-24T09:12:19Z</time>
      </trkpt>
      <trkpt lat="46.10536" lon="6.5909">
        <ele>639</ele>
        <time>2019-05-24T09:12:20Z</time>
      </trkpt>
      <trkpt lat="46.1054" lon="6.59099">
        <ele>639</ele>
        <time>2019-05-24T09:12:21Z</time>
      </trkpt>
      <trkpt lat="46.10618" lon="6.59149">
        <ele>641</ele>
        <time>2019-05-24T09:12:36Z</time>
      </trkpt>
      <trkpt lat="46.10624" lon="6.59159">
        <ele>641</ele>
        <time>2019-05-24T09:12:38Z</time>
      </trkpt>
      <trkpt lat="46.10646" lon="6.59211">
        <ele>642</ele>
        <time>2019-05-24T09:12:45Z</time>
      </trkpt>
      <trkpt lat="46.10654" lon="6.5922">
        <ele>642</ele>
        <time>2019-05-24T09:12:47Z</time>
      </trkpt>
      <trkpt lat="46.10683" lon="6.59236">
        <ele>643</ele>
        <time>2019-05-24T09:12:53Z</time>
      </trkpt>
      <trkpt lat="46.1071" lon="6.59247">
        <ele>644</ele>
        <time>2019-05-24T09:12:58Z</time>
      </trkpt>
      <trkpt lat="46.10748" lon="6.59255">
        <ele>646</ele>
        <time>2019-05-24T09:13:05Z</time>
      </trkpt>
      <trkpt lat="46.10742" lon="6.59279">
        <ele>646</ele>
        <time>2019-05-24T09:13:08Z</time>
      </trkpt>
      <trkpt lat="46.10741" lon="6.5929">
        <ele>646</ele>
        <time>2019-05-24T09:13:09Z</time>
      </trkpt>
      <trkpt lat="46.10738" lon="6.59298">
        <ele>645</ele>
        <time>2019-05-24T09:13:10Z</time>
      </trkpt>
      <trkpt lat="46.10727" lon="6.59341">
        <ele>644</ele>
        <time>2019-05-24T09:13:16Z</time>
      </trkpt>
      <trkpt lat="46.10722" lon="6.59374">
        <ele>642</ele>
        <time>2019-05-24T09:13:20Z</time>
      </trkpt>
      <trkpt lat="46.10697" lon="6.59787">
        <ele>633</ele>
        <time>2019-05-24T09:14:11Z</time>
      </trkpt>
      <trkpt lat="46.10688" lon="6.59883">
        <ele>632</ele>
        <time>2019-05-24T09:14:23Z</time>
      </trkpt>
      <trkpt lat="46.10669" lon="6.59997">
        <ele>631</ele>
        <time>2019-05-24T09:14:38Z</time>
      </trkpt>
      <trkpt lat="46.10666" lon="6.60024">
        <ele>631</ele>
        <time>2019-05-24T09:14:41Z</time>
      </trkpt>
      <trkpt lat="46.10654" lon="6.604">
        <ele>631</ele>
        <time>2019-05-24T09:15:27Z</time>
      </trkpt>
      <trkpt lat="46.1065" lon="6.6043">
        <ele>632</ele>
        <time>2019-05-24T09:15:31Z</time>
      </trkpt>
      <trkpt lat="46.10625" lon="6.60544">
        <ele>630</ele>
        <time>2019-05-24T09:15:46Z</time>
      </trkpt>
      <trkpt lat="46.10612" lon="6.60674">
        <ele>630</ele>
        <time>2019-05-24T09:16:02Z</time>
      </trkpt>
      <trkpt lat="46.10607" lon="6.60757">
        <ele>629</ele>
        <time>2019-05-24T09:16:12Z</time>
      </trkpt>
      <trkpt lat="46.10606" lon="6.60787">
        <ele>629</ele>
        <time>2019-05-24T09:16:16Z</time>
      </trkpt>
      <trkpt lat="46.10597" lon="6.61377">
        <ele>634</ele>
        <time>2019-05-24T09:17:29Z</time>
      </trkpt>
      <trkpt lat="46.10594" lon="6.61419">
        <ele>635</ele>
        <time>2019-05-24T09:17:34Z</time>
      </trkpt>
      <trkpt lat="46.10577" lon="6.61524">
        <ele>636</ele>
        <time>2019-05-24T09:17:47Z</time>
      </trkpt>
      <trkpt lat="46.10563" lon="6.61585">
        <ele>637</ele>
        <time>2019-05-24T09:17:55Z</time>
      </trkpt>
      <trkpt lat="46.10558" lon="6.61628">
        <ele>637</ele>
        <time>2019-05-24T09:18:01Z</time>
      </trkpt>
      <trkpt lat="46.10559" lon="6.62002">
        <ele>636</ele>
        <time>2019-05-24T09:18:47Z</time>
      </trkpt>
      <trkpt lat="46.10557" lon="6.6205">
        <ele>638</ele>
        <time>2019-05-24T09:18:53Z</time>
      </trkpt>
      <trkpt lat="46.10554" lon="6.62077">
        <ele>639</ele>
        <time>2019-05-24T09:18:56Z</time>
      </trkpt>
      <trkpt lat="46.10536" lon="6.62192">
        <ele>640</ele>
        <time>2019-05-24T09:19:11Z</time>
      </trkpt>
      <trkpt lat="46.10516" lon="6.62287">
        <ele>642</ele>
        <time>2019-05-24T09:19:23Z</time>
      </trkpt>
      <trkpt lat="46.10424" lon="6.62588">
        <ele>642</ele>
        <time>2019-05-24T09:20:03Z</time>
      </trkpt>
      <trkpt lat="46.10359" lon="6.6277">
        <ele>637</ele>
        <time>2019-05-24T09:20:29Z</time>
      </trkpt>
      <trkpt lat="46.10305" lon="6.62889">
        <ele>639</ele>
        <time>2019-05-24T09:20:46Z</time>
      </trkpt>
      <trkpt lat="46.10259" lon="6.63005">
        <ele>638</ele>
        <time>2019-05-24T09:21:03Z</time>
      </trkpt>
      <trkpt lat="46.10168" lon="6.63268">
        <ele>644</ele>
        <time>2019-05-24T09:21:39Z</time>
      </trkpt>
      <trkpt lat="46.10158" lon="6.63305">
        <ele>646</ele>
        <time>2019-05-24T09:21:44Z</time>
      </trkpt>
      <trkpt lat="46.10151" lon="6.63343">
        <ele>647</ele>
        <time>2019-05-24T09:21:49Z</time>
      </trkpt>
      <trkpt lat="46.10139" lon="6.63565">
        <ele>643</ele>
        <time>2019-05-24T09:22:16Z</time>
      </trkpt>
      <trkpt lat="46.1013" lon="6.63649">
        <ele>643</ele>
        <time>2019-05-24T09:22:27Z</time>
      </trkpt>
      <trkpt lat="46.10123" lon="6.63702">
        <ele>644</ele>
        <time>2019-05-24T09:22:33Z</time>
      </trkpt>
      <trkpt lat="46.10108" lon="6.63781">
        <ele>644</ele>
        <time>2019-05-24T09:22:43Z</time>
      </trkpt>
      <trkpt lat="46.10034" lon="6.64151">
        <ele>644</ele>
        <time>2019-05-24T09:23:31Z</time>
      </trkpt>
      <trkpt lat="46.09871" lon="6.65141">
        <ele>653</ele>
        <time>2019-05-24T09:25:37Z</time>
      </trkpt>
      <trkpt lat="46.09859" lon="6.65198">
        <ele>653</ele>
        <time>2019-05-24T09:25:44Z</time>
      </trkpt>
      <trkpt lat="46.09695" lon="6.65788">
        <ele>654</ele>
        <time>2019-05-24T09:27:02Z</time>
      </trkpt>
      <trkpt lat="46.09665" lon="6.65893">
        <ele>654</ele>
        <time>2019-05-24T09:27:16Z</time>
      </trkpt>
      <trkpt lat="46.096" lon="6.66098">
        <ele>656</ele>
        <time>2019-05-24T09:27:44Z</time>
      </trkpt>
      <trkpt lat="46.09511" lon="6.66415">
        <ele>665</ele>
        <time>2019-05-24T09:28:26Z</time>
      </trkpt>
      <trkpt lat="46.095" lon="6.66449">
        <ele>663</ele>
        <time>2019-05-24T09:28:31Z</time>
      </trkpt>
      <trkpt lat="46.09485" lon="6.6649">
        <ele>661</ele>
        <time>2019-05-24T09:28:37Z</time>
      </trkpt>
      <trkpt lat="46.09467" lon="6.66527">
        <ele>661</ele>
        <time>2019-05-24T09:28:42Z</time>
      </trkpt>
      <trkpt lat="46.09438" lon="6.66577">
        <ele>660</ele>
        <time>2019-05-24T09:28:50Z</time>
      </trkpt>
      <trkpt lat="46.09345" lon="6.66728">
        <ele>661</ele>
        <time>2019-05-24T09:29:15Z</time>
      </trkpt>
      <trkpt lat="46.09324" lon="6.66778">
        <ele>659</ele>
        <time>2019-05-24T09:29:22Z</time>
      </trkpt>
      <trkpt lat="46.09146" lon="6.67234">
        <ele>664</ele>
        <time>2019-05-24T09:30:27Z</time>
      </trkpt>
      <trkpt lat="46.09128" lon="6.67286">
        <ele>666</ele>
        <time>2019-05-24T09:30:34Z</time>
      </trkpt>
      <trkpt lat="46.09025" lon="6.67605">
        <ele>665</ele>
        <time>2019-05-24T09:31:18Z</time>
      </trkpt>
      <trkpt lat="46.08951" lon="6.67845">
        <ele>668</ele>
        <time>2019-05-24T09:31:50Z</time>
      </trkpt>
      <trkpt lat="46.08929" lon="6.67924">
        <ele>671</ele>
        <time>2019-05-24T09:32:01Z</time>
      </trkpt>
      <trkpt lat="46.08924" lon="6.67926">
        <ele>671</ele>
        <time>2019-05-24T09:32:01Z</time>
      </trkpt>
      <trkpt lat="46.08921" lon="6.67933">
        <ele>671</ele>
        <time>2019-05-24T09:32:02Z</time>
      </trkpt>
      <trkpt lat="46.0892" lon="6.67942">
        <ele>672</ele>
        <time>2019-05-24T09:32:04Z</time>
      </trkpt>
      <trkpt lat="46.08924" lon="6.67949">
        <ele>672</ele>
        <time>2019-05-24T09:32:05Z</time>
      </trkpt>
      <trkpt lat="46.08927" lon="6.6795">
        <ele>672</ele>
        <time>2019-05-24T09:32:05Z</time>
      </trkpt>
      <trkpt lat="46.08926" lon="6.6797">
        <ele>673</ele>
        <time>2019-05-24T09:32:08Z</time>
      </trkpt>
      <trkpt lat="46.08858" lon="6.687">
        <ele>685</ele>
        <time>2019-05-24T09:33:39Z</time>
      </trkpt>
      <trkpt lat="46.08877" lon="6.68716">
        <ele>685</ele>
        <time>2019-05-24T09:33:43Z</time>
      </trkpt>
      <trkpt lat="46.08959" lon="6.68796">
        <ele>684</ele>
        <time>2019-05-24T09:34:00Z</time>
      </trkpt>
      <trkpt lat="46.08979" lon="6.68813">
        <ele>685</ele>
        <time>2019-05-24T09:34:04Z</time>
      </trkpt>
      <trkpt lat="46.09048" lon="6.68863">
        <ele>688</ele>
        <time>2019-05-24T09:34:18Z</time>
      </trkpt>
      <trkpt lat="46.09098" lon="6.68916">
        <ele>691</ele>
        <time>2019-05-24T09:34:29Z</time>
      </trkpt>
      <trkpt lat="46.09122" lon="6.68954">
        <ele>694</ele>
        <time>2019-05-24T09:34:35Z</time>
      </trkpt>
      <trkpt lat="46.09127" lon="6.68966">
        <ele>695</ele>
        <time>2019-05-24T09:34:37Z</time>
      </trkpt>
      <trkpt lat="46.09132" lon="6.68985">
        <ele>697</ele>
        <time>2019-05-24T09:34:40Z</time>
      </trkpt>
      <trkpt lat="46.09136" lon="6.69014">
        <ele>700</ele>
        <time>2019-05-24T09:34:43Z</time>
      </trkpt>
      <trkpt lat="46.09138" lon="6.69048">
        <ele>705</ele>
        <time>2019-05-24T09:34:47Z</time>
      </trkpt>
      <trkpt lat="46.09137" lon="6.69064">
        <ele>708</ele>
        <time>2019-05-24T09:34:49Z</time>
      </trkpt>
      <trkpt lat="46.09133" lon="6.69078">
        <ele>709</ele>
        <time>2019-05-24T09:34:51Z</time>
      </trkpt>
      <trkpt lat="46.09123" lon="6.69095">
        <ele>711</ele>
        <time>2019-05-24T09:34:54Z</time>
      </trkpt>
      <trkpt lat="46.09115" lon="6.69117">
        <ele>712</ele>
        <time>2019-05-24T09:34:57Z</time>
      </trkpt>
      <trkpt lat="46.09111" lon="6.69139">
        <ele>714</ele>
        <time>2019-05-24T09:35:00Z</time>
      </trkpt>
      <trkpt lat="46.09107" lon="6.69216">
        <ele>721</ele>
        <time>2019-05-24T09:35:09Z</time>
      </trkpt>
      <trkpt lat="46.09104" lon="6.69239">
        <ele>722</ele>
        <time>2019-05-24T09:35:12Z</time>
      </trkpt>
      <trkpt lat="46.09106" lon="6.6928">
        <ele>727</ele>
        <time>2019-05-24T09:35:17Z</time>
      </trkpt>
      <trkpt lat="46.09104" lon="6.69305">
        <ele>730</ele>
        <time>2019-05-24T09:35:21Z</time>
      </trkpt>
      <trkpt lat="46.09097" lon="6.6934">
        <ele>734</ele>
        <time>2019-05-24T09:35:25Z</time>
      </trkpt>
      <trkpt lat="46.09094" lon="6.69348">
        <ele>735</ele>
        <time>2019-05-24T09:35:26Z</time>
      </trkpt>
      <trkpt lat="46.09087" lon="6.69359">
        <ele>735</ele>
        <time>2019-05-24T09:35:28Z</time>
      </trkpt>
      <trkpt lat="46.09079" lon="6.69363">
        <ele>735</ele>
        <time>2019-05-24T09:35:30Z</time>
      </trkpt>
      <trkpt lat="46.09069" lon="6.69359">
        <ele>734</ele>
        <time>2019-05-24T09:35:31Z</time>
      </trkpt>
      <trkpt lat="46.09056" lon="6.69348">
        <ele>732</ele>
        <time>2019-05-24T09:35:34Z</time>
      </trkpt>
      <trkpt lat="46.09048" lon="6.69348">
        <ele>731</ele>
        <time>2019-05-24T09:35:35Z</time>
      </trkpt>
      <trkpt lat="46.09045" lon="6.69351">
        <ele>731</ele>
        <time>2019-05-24T09:35:36Z</time>
      </trkpt>
      <trkpt lat="46.09035" lon="6.69372">
        <ele>732</ele>
        <time>2019-05-24T09:35:39Z</time>
      </trkpt>
      <trkpt lat="46.09027" lon="6.69402">
        <ele>734</ele>
        <time>2019-05-24T09:35:43Z</time>
      </trkpt>
      <trkpt lat="46.09019" lon="6.69449">
        <ele>736</ele>
        <time>2019-05-24T09:35:49Z</time>
      </trkpt>
      <trkpt lat="46.0902" lon="6.69461">
        <ele>737</ele>
        <time>2019-05-24T09:35:51Z</time>
      </trkpt>
      <trkpt lat="46.09025" lon="6.69487">
        <ele>739</ele>
        <time>2019-05-24T09:35:54Z</time>
      </trkpt>
      <trkpt lat="46.09033" lon="6.69509">
        <ele>741</ele>
        <time>2019-05-24T09:35:57Z</time>
      </trkpt>
      <trkpt lat="46.09039" lon="6.69534">
        <ele>742</ele>
        <time>2019-05-24T09:36:00Z</time>
      </trkpt>
      <trkpt lat="46.09052" lon="6.69629">
        <ele>752</ele>
        <time>2019-05-24T09:36:12Z</time>
      </trkpt>
      <trkpt lat="46.09057" lon="6.69657">
        <ele>756</ele>
        <time>2019-05-24T09:36:16Z</time>
      </trkpt>
      <trkpt lat="46.09058" lon="6.69669">
        <ele>758</ele>
        <time>2019-05-24T09:36:17Z</time>
      </trkpt>
      <trkpt lat="46.09047" lon="6.69708">
        <ele>758</ele>
        <time>2019-05-24T09:36:23Z</time>
      </trkpt>
      <trkpt lat="46.09046" lon="6.69723">
        <ele>759</ele>
        <time>2019-05-24T09:36:24Z</time>
      </trkpt>
      <trkpt lat="46.09055" lon="6.69793">
        <ele>764</ele>
        <time>2019-05-24T09:36:33Z</time>
      </trkpt>
      <trkpt lat="46.09061" lon="6.69848">
        <ele>767</ele>
        <time>2019-05-24T09:36:40Z</time>
      </trkpt>
      <trkpt lat="46.09071" lon="6.69915">
        <ele>773</ele>
        <time>2019-05-24T09:36:49Z</time>
      </trkpt>
      <trkpt lat="46.0908" lon="6.7001">
        <ele>779</ele>
        <time>2019-05-24T09:37:00Z</time>
      </trkpt>
      <trkpt lat="46.09098" lon="6.70112">
        <ele>784</ele>
        <time>2019-05-24T09:37:13Z</time>
      </trkpt>
      <trkpt lat="46.09103" lon="6.70192">
        <ele>788</ele>
        <time>2019-05-24T09:37:23Z</time>
      </trkpt>
      <trkpt lat="46.09111" lon="6.70256">
        <ele>793</ele>
        <time>2019-05-24T09:37:31Z</time>
      </trkpt>
      <trkpt lat="46.09112" lon="6.70283">
        <ele>796</ele>
        <time>2019-05-24T09:37:35Z</time>
      </trkpt>
      <trkpt lat="46.09105" lon="6.703">
        <ele>796</ele>
        <time>2019-05-24T09:37:37Z</time>
      </trkpt>
      <trkpt lat="46.09079" lon="6.70342">
        <ele>797</ele>
        <time>2019-05-24T09:37:44Z</time>
      </trkpt>
      <trkpt lat="46.09058" lon="6.70347">
        <ele>793</ele>
        <time>2019-05-24T09:37:48Z</time>
      </trkpt>
      <trkpt lat="46.09044" lon="6.70355">
        <ele>791</ele>
        <time>2019-05-24T09:37:50Z</time>
      </trkpt>
      <trkpt lat="46.09026" lon="6.70395">
        <ele>791</ele>
        <time>2019-05-24T09:37:56Z</time>
      </trkpt>
      <trkpt lat="46.09021" lon="6.70401">
        <ele>790</ele>
        <time>2019-05-24T09:37:58Z</time>
      </trkpt>
      <trkpt lat="46.08999" lon="6.7042">
        <ele>788</ele>
        <time>2019-05-24T09:38:02Z</time>
      </trkpt>
      <trkpt lat="46.08959" lon="6.70444">
        <ele>781</ele>
        <time>2019-05-24T09:38:10Z</time>
      </trkpt>
      <trkpt lat="46.0895" lon="6.70454">
        <ele>780</ele>
        <time>2019-05-24T09:38:12Z</time>
      </trkpt>
      <trkpt lat="46.08941" lon="6.70467">
        <ele>778</ele>
        <time>2019-05-24T09:38:14Z</time>
      </trkpt>
      <trkpt lat="46.08935" lon="6.70483">
        <ele>778</ele>
        <time>2019-05-24T09:38:16Z</time>
      </trkpt>
      <trkpt lat="46.08932" lon="6.70507">
        <ele>778</ele>
        <time>2019-05-24T09:38:19Z</time>
      </trkpt>
      <trkpt lat="46.0894" lon="6.7057">
        <ele>777</ele>
        <time>2019-05-24T09:38:27Z</time>
      </trkpt>
      <trkpt lat="46.0894" lon="6.70591">
        <ele>777</ele>
        <time>2019-05-24T09:38:30Z</time>
      </trkpt>
      <trkpt lat="46.08939" lon="6.70597">
        <ele>777</ele>
        <time>2019-05-24T09:38:31Z</time>
      </trkpt>
      <trkpt lat="46.08885" lon="6.70704">
        <ele>770</ele>
        <time>2019-05-24T09:38:47Z</time>
      </trkpt>
      <trkpt lat="46.08865" lon="6.70755">
        <ele>769</ele>
        <time>2019-05-24T09:38:54Z</time>
      </trkpt>
      <trkpt lat="46.08846" lon="6.70792">
        <ele>766</ele>
        <time>2019-05-24T09:39:00Z</time>
      </trkpt>
      <trkpt lat="46.08836" lon="6.70819">
        <ele>764</ele>
        <time>2019-05-24T09:39:04Z</time>
      </trkpt>
      <trkpt lat="46.08831" lon="6.70836">
        <ele>763</ele>
        <time>2019-05-24T09:39:06Z</time>
      </trkpt>
      <trkpt lat="46.08808" lon="6.70933">
        <ele>758</ele>
        <time>2019-05-24T09:39:19Z</time>
      </trkpt>
      <trkpt lat="46.08798" lon="6.71038">
        <ele>758</ele>
        <time>2019-05-24T09:39:32Z</time>
      </trkpt>
      <trkpt lat="46.0879" lon="6.71101">
        <ele>757</ele>
        <time>2019-05-24T09:39:40Z</time>
      </trkpt>
      <trkpt lat="46.08781" lon="6.71123">
        <ele>756</ele>
        <time>2019-05-24T09:39:43Z</time>
      </trkpt>
      <trkpt lat="46.08766" lon="6.71149">
        <ele>753</ele>
        <time>2019-05-24T09:39:47Z</time>
      </trkpt>
      <trkpt lat="46.0874" lon="6.71189">
        <ele>748</ele>
        <time>2019-05-24T09:39:54Z</time>
      </trkpt>
      <trkpt lat="46.08733" lon="6.7121">
        <ele>747</ele>
        <time>2019-05-24T09:39:56Z</time>
      </trkpt>
      <trkpt lat="46.08733" lon="6.71226">
        <ele>747</ele>
        <time>2019-05-24T09:39:58Z</time>
      </trkpt>
      <trkpt lat="46.08738" lon="6.71304">
        <ele>748</ele>
        <time>2019-05-24T09:40:08Z</time>
      </trkpt>
      <trkpt lat="46.08728" lon="6.71397">
        <ele>742</ele>
        <time>2019-05-24T09:40:20Z</time>
      </trkpt>
      <trkpt lat="46.08728" lon="6.71415">
        <ele>741</ele>
        <time>2019-05-24T09:40:22Z</time>
      </trkpt>
      <trkpt lat="46.08731" lon="6.71433">
        <ele>740</ele>
        <time>2019-05-24T09:40:24Z</time>
      </trkpt>
      <trkpt lat="46.08739" lon="6.71451">
        <ele>739</ele>
        <time>2019-05-24T09:40:27Z</time>
      </trkpt>
      <trkpt lat="46.0879" lon="6.71536">
        <ele>741</ele>
        <time>2019-05-24T09:40:41Z</time>
      </trkpt>
      <trkpt lat="46.08796" lon="6.71552">
        <ele>743</ele>
        <time>2019-05-24T09:40:43Z</time>
      </trkpt>
      <trkpt lat="46.08798" lon="6.71572">
        <ele>743</ele>
        <time>2019-05-24T09:40:45Z</time>
      </trkpt>
      <trkpt lat="46.08721" lon="6.71892">
        <ele>725</ele>
        <time>2019-05-24T09:41:27Z</time>
      </trkpt>
      <trkpt lat="46.08707" lon="6.71929">
        <ele>724</ele>
        <time>2019-05-24T09:41:32Z</time>
      </trkpt>
      <trkpt lat="46.08678" lon="6.71987">
        <ele>720</ele>
        <time>2019-05-24T09:41:41Z</time>
      </trkpt>
      <trkpt lat="46.08651" lon="6.72096">
        <ele>717</ele>
        <time>2019-05-24T09:41:56Z</time>
      </trkpt>
      <trkpt lat="46.08643" lon="6.72108">
        <ele>717</ele>
        <time>2019-05-24T09:41:58Z</time>
      </trkpt>
      <trkpt lat="46.08627" lon="6.72121">
        <ele>715</ele>
        <time>2019-05-24T09:42:01Z</time>
      </trkpt>
      <trkpt lat="46.08619" lon="6.72132">
        <ele>714</ele>
        <time>2019-05-24T09:42:03Z</time>
      </trkpt>
      <trkpt lat="46.08576" lon="6.72229">
        <ele>716</ele>
        <time>2019-05-24T09:42:17Z</time>
      </trkpt>
      <trkpt lat="46.08565" lon="6.72249">
        <ele>716</ele>
        <time>2019-05-24T09:42:20Z</time>
      </trkpt>
      <trkpt lat="46.08559" lon="6.72257">
        <ele>715</ele>
        <time>2019-05-24T09:42:22Z</time>
      </trkpt>
      <trkpt lat="46.08534" lon="6.72266">
        <ele>712</ele>
        <time>2019-05-24T09:42:26Z</time>
      </trkpt>
      <trkpt lat="46.0852" lon="6.72279">
        <ele>710</ele>
        <time>2019-05-24T09:42:29Z</time>
      </trkpt>
      <trkpt lat="46.08448" lon="6.72385">
        <ele>708</ele>
        <time>2019-05-24T09:42:48Z</time>
      </trkpt>
      <trkpt lat="46.08442" lon="6.72394">
        <ele>708</ele>
        <time>2019-05-24T09:42:49Z</time>
      </trkpt>
      <trkpt lat="46.08428" lon="6.72384">
        <ele>706</ele>
        <time>2019-05-24T09:42:52Z</time>
      </trkpt>
      <trkpt lat="46.08428" lon="6.7227">
        <ele>702</ele>
        <time>2019-05-24T09:43:06Z</time>
      </trkpt>
      <trkpt lat="46.08425" lon="6.72263">
        <ele>702</ele>
        <time>2019-05-24T09:43:07Z</time>
      </trkpt>
      <trkpt lat="46.08415" lon="6.72249">
        <ele>701</ele>
        <time>2019-05-24T09:43:09Z</time>
      </trkpt>
      <trkpt lat="46.08339" lon="6.72191">
        <ele>698</ele>
        <time>2019-05-24T09:43:25Z</time>
      </trkpt>
      <trkpt lat="46.08228" lon="6.72384">
        <ele>700</ele>
        <time>2019-05-24T09:43:56Z</time>
      </trkpt>
      <trkpt lat="46.08227" lon="6.72393">
        <ele>700</ele>
        <time>2019-05-24T09:43:57Z</time>
      </trkpt>
      <trkpt lat="46.08228" lon="6.72401">
        <ele>700</ele>
        <time>2019-05-24T09:43:58Z</time>
      </trkpt>
      <trkpt lat="46.08226" lon="6.72404">
        <ele>701</ele>
        <time>2019-05-24T09:43:58Z</time>
      </trkpt>
      <trkpt lat="46.08065" lon="6.72698">
        <ele>705</ele>
        <time>2019-05-24T09:44:45Z</time>
      </trkpt>
      <trkpt lat="46.08062" lon="6.72696">
        <ele>705</ele>
        <time>2019-05-24T09:44:45Z</time>
      </trkpt>
      <trkpt lat="46.08053" lon="6.72697">
        <ele>705</ele>
        <time>2019-05-24T09:44:47Z</time>
      </trkpt>
      <trkpt lat="46.08046" lon="6.72683">
        <ele>705</ele>
        <time>2019-05-24T09:44:49Z</time>
      </trkpt>
      <trkpt lat="46.08031" lon="6.72661">
        <ele>704</ele>
        <time>2019-05-24T09:44:53Z</time>
      </trkpt>
      <trkpt lat="46.08016" lon="6.72647">
        <ele>704</ele>
        <time>2019-05-24T09:44:56Z</time>
      </trkpt>
      <trkpt lat="46.07907" lon="6.72566">
        <ele>703</ele>
        <time>2019-05-24T09:45:18Z</time>
      </trkpt>
      <trkpt lat="46.0788" lon="6.72552">
        <ele>703</ele>
        <time>2019-05-24T09:45:23Z</time>
      </trkpt>
      <trkpt lat="46.07863" lon="6.72539">
        <ele>703</ele>
        <time>2019-05-24T09:45:26Z</time>
      </trkpt>
      <trkpt lat="46.07829" lon="6.72624">
        <ele>705</ele>
        <time>2019-05-24T09:45:38Z</time>
      </trkpt>
    </trkseg>
  </trk>
</gpx>